<?xml version="1.0" encoding="UTF-8"?>
<gpx version="1.1" creator="https://www.youtrack.es" xsi:schemaLocation="http://www.topografix.com/GPX/1/1 http://www.topografix.com/GPX/1/1/gpx.xsd http://www.garmin.com/xmlschemas/GpxExtensions/v3 http://www.garmin.com/xmlschemas/GpxExtensionsv3.xsd http://www.garmin.com/xmlschemas/TrackPointExtension/v1 http://www.garmin.com/xmlschemas/TrackPointExtensionv1.xsd" xmlns:gpxtpx="http://www.garmin.com/xmlschemas/TrackPointExtension/v1" xmlns:gpxx="http://www.garmin.com/xmlschemas/GpxExtensions/v3" xmlns:xsi="http://www.w3.org/2001/XMLSchema-instance">
  <metadata>
    <link href="https://www.youtrack.es">
      <text>YouTrack.es</text>
    </link>
    <time>2026-05-09T01:37:17Z</time>
  </metadata>
  <trk>
    <src>https://www.youtrack.es</src>
    <link href="https://www.youtrack.es/ruta/21502-caminata-familiar">
      <text>YouTrack.es</text>
    </link>
    <trkseg>
      <trkpt lat="4.71928498707711696624755859375" lon="-74.1070752404630184173583984375">
        <ele>2591.800048828125</ele>
        <time>2021-04-25T15:44:58.000Z</time>
      </trkpt>
      <trkpt lat="4.7194176726043224334716796875" lon="-74.10715310834348201751708984375">
        <ele>2591.199951171875</ele>
        <time>2021-04-25T15:45:05.000Z</time>
      </trkpt>
      <trkpt lat="4.71939973533153533935546875" lon="-74.10715629346668720245361328125">
        <ele>2591.199951171875</ele>
        <time>2021-04-25T15:45:06.000Z</time>
      </trkpt>
      <trkpt lat="4.71948397345840930938720703125" lon="-74.10710734315216541290283203125">
        <ele>2591.60009765625</ele>
        <time>2021-04-25T15:45:12.000Z</time>
      </trkpt>
      <trkpt lat="4.71953518688678741455078125" lon="-74.10711740143597126007080078125">
        <ele>2592</ele>
        <time>2021-04-25T15:45:18.000Z</time>
      </trkpt>
      <trkpt lat="4.7195385396480560302734375" lon="-74.107122011482715606689453125">
        <ele>2592</ele>
        <time>2021-04-25T15:45:19.000Z</time>
      </trkpt>
      <trkpt lat="4.7195561416447162628173828125" lon="-74.10713785327970981597900390625">
        <ele>2591.800048828125</ele>
        <time>2021-04-25T15:45:22.000Z</time>
      </trkpt>
      <trkpt lat="4.71957885660231113433837890625" lon="-74.107159562408924102783203125">
        <ele>2591.60009765625</ele>
        <time>2021-04-25T15:45:26.000Z</time>
      </trkpt>
      <trkpt lat="4.71959059126675128936767578125" lon="-74.10716786049306392669677734375">
        <ele>2591.39990234375</ele>
        <time>2021-04-25T15:45:28.000Z</time>
      </trkpt>
      <trkpt lat="4.71962730400264263153076171875" lon="-74.10718194209039211273193359375">
        <ele>2591.199951171875</ele>
        <time>2021-04-25T15:45:32.000Z</time>
      </trkpt>
      <trkpt lat="4.71964775584638118743896484375" lon="-74.107196442782878875732421875">
        <ele>2591.199951171875</ele>
        <time>2021-04-25T15:45:34.000Z</time>
      </trkpt>
      <trkpt lat="4.71970240585505962371826171875" lon="-74.10723424516618251800537109375">
        <ele>2591.800048828125</ele>
        <time>2021-04-25T15:45:40.000Z</time>
      </trkpt>
      <trkpt lat="4.71971933729946613311767578125" lon="-74.10725251771509647369384765625">
        <ele>2592</ele>
        <time>2021-04-25T15:45:43.000Z</time>
      </trkpt>
      <trkpt lat="4.71973006613552570343017578125" lon="-74.10728017799556255340576171875">
        <ele>2592</ele>
        <time>2021-04-25T15:45:47.000Z</time>
      </trkpt>
      <trkpt lat="4.7197392024099826812744140625" lon="-74.107322506606578826904296875">
        <ele>2591.60009765625</ele>
        <time>2021-04-25T15:45:53.000Z</time>
      </trkpt>
      <trkpt lat="4.71973903477191925048828125" lon="-74.1073255240917205810546875">
        <ele>2591.60009765625</ele>
        <time>2021-04-25T15:45:54.000Z</time>
      </trkpt>
      <trkpt lat="4.719769544899463653564453125" lon="-74.10734069533646106719970703125">
        <ele>2591.60009765625</ele>
        <time>2021-04-25T15:46:00.000Z</time>
      </trkpt>
      <trkpt lat="4.71979930065572261810302734375" lon="-74.1073525138199329376220703125">
        <ele>2591.39990234375</ele>
        <time>2021-04-25T15:46:04.000Z</time>
      </trkpt>
      <trkpt lat="4.71981019712984561920166015625" lon="-74.10736734978854656219482421875">
        <ele>2591.60009765625</ele>
        <time>2021-04-25T15:46:09.000Z</time>
      </trkpt>
      <trkpt lat="4.71981137059628963470458984375" lon="-74.10737313330173492431640625">
        <ele>2591.39990234375</ele>
        <time>2021-04-25T15:46:10.000Z</time>
      </trkpt>
      <trkpt lat="4.71982645802199840545654296875" lon="-74.10738629288971424102783203125">
        <ele>2591.39990234375</ele>
        <time>2021-04-25T15:46:13.000Z</time>
      </trkpt>
      <trkpt lat="4.7198672778904438018798828125" lon="-74.10742216743528842926025390625">
        <ele>2591.60009765625</ele>
        <time>2021-04-25T15:46:18.000Z</time>
      </trkpt>
      <trkpt lat="4.71987557597458362579345703125" lon="-74.1074276156723499298095703125">
        <ele>2591.39990234375</ele>
        <time>2021-04-25T15:46:19.000Z</time>
      </trkpt>
      <trkpt lat="4.71989317797124385833740234375" lon="-74.1074386797845363616943359375">
        <ele>2591.39990234375</ele>
        <time>2021-04-25T15:46:21.000Z</time>
      </trkpt>
      <trkpt lat="4.71993022598326206207275390625" lon="-74.1074641607701778411865234375">
        <ele>2591.39990234375</ele>
        <time>2021-04-25T15:46:25.000Z</time>
      </trkpt>
      <trkpt lat="4.719941206276416778564453125" lon="-74.10746525041759014129638671875">
        <ele>2591.39990234375</ele>
        <time>2021-04-25T15:46:26.000Z</time>
      </trkpt>
      <trkpt lat="4.72002645023167133331298828125" lon="-74.107486791908740997314453125">
        <ele>2591.60009765625</ele>
        <time>2021-04-25T15:46:32.000Z</time>
      </trkpt>
      <trkpt lat="4.7201308049261569976806640625" lon="-74.10752777941524982452392578125">
        <ele>2592</ele>
        <time>2021-04-25T15:46:38.000Z</time>
      </trkpt>
      <trkpt lat="4.720172546803951263427734375" lon="-74.10756164230406284332275390625">
        <ele>2592</ele>
        <time>2021-04-25T15:46:42.000Z</time>
      </trkpt>
      <trkpt lat="4.72023658454418182373046875" lon="-74.10760656930506229400634765625">
        <ele>2592</ele>
        <time>2021-04-25T15:46:48.000Z</time>
      </trkpt>
      <trkpt lat="4.72030221484601497650146484375" lon="-74.10763020627200603485107421875">
        <ele>2592</ele>
        <time>2021-04-25T15:46:54.000Z</time>
      </trkpt>
      <trkpt lat="4.7203324735164642333984375" lon="-74.10765551961958408355712890625">
        <ele>2592</ele>
        <time>2021-04-25T15:46:57.000Z</time>
      </trkpt>
      <trkpt lat="4.7203510813415050506591796875" lon="-74.107674546539783477783203125">
        <ele>2592.199951171875</ele>
        <time>2021-04-25T15:46:59.000Z</time>
      </trkpt>
      <trkpt lat="4.7203624807298183441162109375" lon="-74.1076814197003841400146484375">
        <ele>2592.199951171875</ele>
        <time>2021-04-25T15:47:00.000Z</time>
      </trkpt>
      <trkpt lat="4.7204214893281459808349609375" lon="-74.10772441886365413665771484375">
        <ele>2592.199951171875</ele>
        <time>2021-04-25T15:47:06.000Z</time>
      </trkpt>
      <trkpt lat="4.72048242576420307159423828125" lon="-74.1077627241611480712890625">
        <ele>2592.199951171875</ele>
        <time>2021-04-25T15:47:12.000Z</time>
      </trkpt>
      <trkpt lat="4.7205110080540180206298828125" lon="-74.10777588374912738800048828125">
        <ele>2592</ele>
        <time>2021-04-25T15:47:15.000Z</time>
      </trkpt>
      <trkpt lat="4.72051897086203098297119140625" lon="-74.1077823378145694732666015625">
        <ele>2592</ele>
        <time>2021-04-25T15:47:16.000Z</time>
      </trkpt>
      <trkpt lat="4.7205653227865695953369140625" lon="-74.10781930200755596160888671875">
        <ele>2592.199951171875</ele>
        <time>2021-04-25T15:47:21.000Z</time>
      </trkpt>
      <trkpt lat="4.720585606992244720458984375" lon="-74.1078319586813449859619140625">
        <ele>2592.39990234375</ele>
        <time>2021-04-25T15:47:23.000Z</time>
      </trkpt>
      <trkpt lat="4.72059440799057483673095703125" lon="-74.1078386642038822174072265625">
        <ele>2592.39990234375</ele>
        <time>2021-04-25T15:47:24.000Z</time>
      </trkpt>
      <trkpt lat="4.7206182964146137237548828125" lon="-74.107854925096035003662109375">
        <ele>2592.60009765625</ele>
        <time>2021-04-25T15:47:27.000Z</time>
      </trkpt>
      <trkpt lat="4.720641933381557464599609375" lon="-74.1078711859881877899169921875">
        <ele>2592.60009765625</ele>
        <time>2021-04-25T15:47:30.000Z</time>
      </trkpt>
      <trkpt lat="4.72070320509374141693115234375" lon="-74.10786171443760395050048828125">
        <ele>2592.39990234375</ele>
        <time>2021-04-25T15:47:36.000Z</time>
      </trkpt>
      <trkpt lat="4.7207031212747097015380859375" lon="-74.10786456428468227386474609375">
        <ele>2592.39990234375</ele>
        <time>2021-04-25T15:47:37.000Z</time>
      </trkpt>
      <trkpt lat="4.7207433544099330902099609375" lon="-74.1078861057758331298828125">
        <ele>2592.39990234375</ele>
        <time>2021-04-25T15:47:43.000Z</time>
      </trkpt>
      <trkpt lat="4.7207644768059253692626953125" lon="-74.1078909672796726226806640625">
        <ele>2592.199951171875</ele>
        <time>2021-04-25T15:47:45.000Z</time>
      </trkpt>
      <trkpt lat="4.72082893364131450653076171875" lon="-74.10791485570371150970458984375">
        <ele>2592.199951171875</ele>
        <time>2021-04-25T15:47:51.000Z</time>
      </trkpt>
      <trkpt lat="4.72086690366268157958984375" lon="-74.10793027840554714202880859375">
        <ele>2592.39990234375</ele>
        <time>2021-04-25T15:47:55.000Z</time>
      </trkpt>
      <trkpt lat="4.72090286202728748321533203125" lon="-74.10795039497315883636474609375">
        <ele>2592.60009765625</ele>
        <time>2021-04-25T15:48:00.000Z</time>
      </trkpt>
      <trkpt lat="4.720963798463344573974609375" lon="-74.10797931253910064697265625">
        <ele>2592.800048828125</ele>
        <time>2021-04-25T15:48:06.000Z</time>
      </trkpt>
      <trkpt lat="4.72102389670908451080322265625" lon="-74.10801661200821399688720703125">
        <ele>2592.60009765625</ele>
        <time>2021-04-25T15:48:11.000Z</time>
      </trkpt>
      <trkpt lat="4.7210598550736904144287109375" lon="-74.108037650585174560546875">
        <ele>2592.60009765625</ele>
        <time>2021-04-25T15:48:14.000Z</time>
      </trkpt>
      <trkpt lat="4.72107066772878170013427734375" lon="-74.10804544575512409210205078125">
        <ele>2592.60009765625</ele>
        <time>2021-04-25T15:48:15.000Z</time>
      </trkpt>
      <trkpt lat="4.7210937179625034332275390625" lon="-74.10805567167699337005615234375">
        <ele>2592.800048828125</ele>
        <time>2021-04-25T15:48:17.000Z</time>
      </trkpt>
      <trkpt lat="4.7211567498743534088134765625" lon="-74.1080939769744873046875">
        <ele>2592.60009765625</ele>
        <time>2021-04-25T15:48:23.000Z</time>
      </trkpt>
      <trkpt lat="4.7212140820920467376708984375" lon="-74.10812976770102977752685546875">
        <ele>2592.800048828125</ele>
        <time>2021-04-25T15:48:29.000Z</time>
      </trkpt>
      <trkpt lat="4.721266888082027435302734375" lon="-74.10816296003758907318115234375">
        <ele>2592.800048828125</ele>
        <time>2021-04-25T15:48:34.000Z</time>
      </trkpt>
      <trkpt lat="4.72133226692676544189453125" lon="-74.10819363780319690704345703125">
        <ele>2592.800048828125</ele>
        <time>2021-04-25T15:48:40.000Z</time>
      </trkpt>
      <trkpt lat="4.72139823250472545623779296875" lon="-74.1082302667200565338134765625">
        <ele>2592.800048828125</ele>
        <time>2021-04-25T15:48:46.000Z</time>
      </trkpt>
      <trkpt lat="4.7214192710816860198974609375" lon="-74.1082374751567840576171875">
        <ele>2592.60009765625</ele>
        <time>2021-04-25T15:48:48.000Z</time>
      </trkpt>
      <trkpt lat="4.72146495245397090911865234375" lon="-74.10827167332172393798828125">
        <ele>2592.800048828125</ele>
        <time>2021-04-25T15:48:54.000Z</time>
      </trkpt>
      <trkpt lat="4.72151708789169788360595703125" lon="-74.1083114035427570343017578125">
        <ele>2592.800048828125</ele>
        <time>2021-04-25T15:49:00.000Z</time>
      </trkpt>
      <trkpt lat="4.721527397632598876953125" lon="-74.10831852816045284271240234375">
        <ele>2592.800048828125</ele>
        <time>2021-04-25T15:49:01.000Z</time>
      </trkpt>
      <trkpt lat="4.7215734981000423431396484375" lon="-74.108349792659282684326171875">
        <ele>2593.199951171875</ele>
        <time>2021-04-25T15:49:06.000Z</time>
      </trkpt>
      <trkpt lat="4.72163133323192596435546875" lon="-74.108381979167461395263671875">
        <ele>2593</ele>
        <time>2021-04-25T15:49:12.000Z</time>
      </trkpt>
      <trkpt lat="4.72169277258217334747314453125" lon="-74.1084230504930019378662109375">
        <ele>2592.800048828125</ele>
        <time>2021-04-25T15:49:18.000Z</time>
      </trkpt>
      <trkpt lat="4.7217022441327571868896484375" lon="-74.10842950455844402313232421875">
        <ele>2592.800048828125</ele>
        <time>2021-04-25T15:49:19.000Z</time>
      </trkpt>
      <trkpt lat="4.72172277979552745819091796875" lon="-74.10844065248966217041015625">
        <ele>2592.800048828125</ele>
        <time>2021-04-25T15:49:21.000Z</time>
      </trkpt>
      <trkpt lat="4.721773825585842132568359375" lon="-74.10847912542521953582763671875">
        <ele>2593</ele>
        <time>2021-04-25T15:49:27.000Z</time>
      </trkpt>
      <trkpt lat="4.721824787557125091552734375" lon="-74.1085191071033477783203125">
        <ele>2593</ele>
        <time>2021-04-25T15:49:33.000Z</time>
      </trkpt>
      <trkpt lat="4.72184247337281703948974609375" lon="-74.10853042267262935638427734375">
        <ele>2593</ele>
        <time>2021-04-25T15:49:35.000Z</time>
      </trkpt>
      <trkpt lat="4.721881113946437835693359375" lon="-74.108556322753429412841796875">
        <ele>2592.800048828125</ele>
        <time>2021-04-25T15:49:40.000Z</time>
      </trkpt>
      <trkpt lat="4.72189326770603656768798828125" lon="-74.10856897942721843719482421875">
        <ele>2593</ele>
        <time>2021-04-25T15:49:42.000Z</time>
      </trkpt>
      <trkpt lat="4.721938781440258026123046875" lon="-74.10860024392604827880859375">
        <ele>2592.60009765625</ele>
        <time>2021-04-25T15:49:47.000Z</time>
      </trkpt>
      <trkpt lat="4.72198094241321086883544921875" lon="-74.10861072130501270294189453125">
        <ele>2592.39990234375</ele>
        <time>2021-04-25T15:49:51.000Z</time>
      </trkpt>
      <trkpt lat="4.72202167846262454986572265625" lon="-74.1085893474519252777099609375">
        <ele>2592.199951171875</ele>
        <time>2021-04-25T15:49:55.000Z</time>
      </trkpt>
      <trkpt lat="4.72204648889601230621337890625" lon="-74.108571745455265045166015625">
        <ele>2592.199951171875</ele>
        <time>2021-04-25T15:49:58.000Z</time>
      </trkpt>
      <trkpt lat="4.72205570898950099945068359375" lon="-74.10855892114341259002685546875">
        <ele>2592.199951171875</ele>
        <time>2021-04-25T15:50:00.000Z</time>
      </trkpt>
      <trkpt lat="4.722069539129734039306640625" lon="-74.10853427834808826446533203125">
        <ele>2592.199951171875</ele>
        <time>2021-04-25T15:50:03.000Z</time>
      </trkpt>
      <trkpt lat="4.72210465930402278900146484375" lon="-74.108488596975803375244140625">
        <ele>2592.39990234375</ele>
        <time>2021-04-25T15:50:09.000Z</time>
      </trkpt>
      <trkpt lat="4.72211890853941440582275390625" lon="-74.10846923477947711944580078125">
        <ele>2592.199951171875</ele>
        <time>2021-04-25T15:50:12.000Z</time>
      </trkpt>
      <trkpt lat="4.7221468202769756317138671875" lon="-74.10843151621520519256591796875">
        <ele>2592.199951171875</ele>
        <time>2021-04-25T15:50:17.000Z</time>
      </trkpt>
      <trkpt lat="4.72216869704425334930419921875" lon="-74.10837686620652675628662109375">
        <ele>2592.199951171875</ele>
        <time>2021-04-25T15:50:22.000Z</time>
      </trkpt>
      <trkpt lat="4.72218479029834270477294921875" lon="-74.108332693576812744140625">
        <ele>2592.39990234375</ele>
        <time>2021-04-25T15:50:26.000Z</time>
      </trkpt>
      <trkpt lat="4.72219786606729030609130859375" lon="-74.10829447209835052490234375">
        <ele>2592.39990234375</ele>
        <time>2021-04-25T15:50:30.000Z</time>
      </trkpt>
      <trkpt lat="4.72222946584224700927734375" lon="-74.10825080238282680511474609375">
        <ele>2592</ele>
        <time>2021-04-25T15:50:36.000Z</time>
      </trkpt>
      <trkpt lat="4.72225888632237911224365234375" lon="-74.1082010976970195770263671875">
        <ele>2592</ele>
        <time>2021-04-25T15:50:42.000Z</time>
      </trkpt>
      <trkpt lat="4.72226676531136035919189453125" lon="-74.10819229669868946075439453125">
        <ele>2592</ele>
        <time>2021-04-25T15:50:43.000Z</time>
      </trkpt>
      <trkpt lat="4.7222913242876529693603515625" lon="-74.108168743550777435302734375">
        <ele>2592</ele>
        <time>2021-04-25T15:50:47.000Z</time>
      </trkpt>
      <trkpt lat="4.722299873828887939453125" lon="-74.1081538237631320953369140625">
        <ele>2592</ele>
        <time>2021-04-25T15:50:49.000Z</time>
      </trkpt>
      <trkpt lat="4.722326360642910003662109375" lon="-74.10810864530503749847412109375">
        <ele>2592</ele>
        <time>2021-04-25T15:50:55.000Z</time>
      </trkpt>
      <trkpt lat="4.722329713404178619384765625" lon="-74.10810126923024654388427734375">
        <ele>2592</ele>
        <time>2021-04-25T15:50:56.000Z</time>
      </trkpt>
      <trkpt lat="4.722334407269954681396484375" lon="-74.10809640772640705108642578125">
        <ele>2592</ele>
        <time>2021-04-25T15:50:57.000Z</time>
      </trkpt>
      <trkpt lat="4.72233935259282588958740234375" lon="-74.1080867685377597808837890625">
        <ele>2591.800048828125</ele>
        <time>2021-04-25T15:50:58.000Z</time>
      </trkpt>
      <trkpt lat="4.72234421409666538238525390625" lon="-74.10807478241622447967529296875">
        <ele>2591.800048828125</ele>
        <time>2021-04-25T15:50:59.000Z</time>
      </trkpt>
      <trkpt lat="4.7223774902522563934326171875" lon="-74.10801728256046772003173828125">
        <ele>2591.800048828125</ele>
        <time>2021-04-25T15:51:05.000Z</time>
      </trkpt>
      <trkpt lat="4.72240791656076908111572265625" lon="-74.1079828329384326934814453125">
        <ele>2592</ele>
        <time>2021-04-25T15:51:10.000Z</time>
      </trkpt>
      <trkpt lat="4.72242082469165325164794921875" lon="-74.107970260083675384521484375">
        <ele>2592</ele>
        <time>2021-04-25T15:51:12.000Z</time>
      </trkpt>
      <trkpt lat="4.72245074808597564697265625" lon="-74.10792022012174129486083984375">
        <ele>2592.199951171875</ele>
        <time>2021-04-25T15:51:18.000Z</time>
      </trkpt>
      <trkpt lat="4.72248285077512264251708984375" lon="-74.10788786597549915313720703125">
        <ele>2591.800048828125</ele>
        <time>2021-04-25T15:51:24.000Z</time>
      </trkpt>
      <trkpt lat="4.72251101396977901458740234375" lon="-74.1078557632863521575927734375">
        <ele>2591.800048828125</ele>
        <time>2021-04-25T15:51:29.000Z</time>
      </trkpt>
      <trkpt lat="4.72253255546092987060546875" lon="-74.1078175418078899383544921875">
        <ele>2591.800048828125</ele>
        <time>2021-04-25T15:51:33.000Z</time>
      </trkpt>
      <trkpt lat="4.7225364111363887786865234375" lon="-74.10780656151473522186279296875">
        <ele>2591.800048828125</ele>
        <time>2021-04-25T15:51:34.000Z</time>
      </trkpt>
      <trkpt lat="4.72255476750433444976806640625" lon="-74.1077645681798458099365234375">
        <ele>2591.60009765625</ele>
        <time>2021-04-25T15:51:38.000Z</time>
      </trkpt>
      <trkpt lat="4.72257949411869049072265625" lon="-74.10771519877016544342041015625">
        <ele>2591.39990234375</ele>
        <time>2021-04-25T15:51:44.000Z</time>
      </trkpt>
      <trkpt lat="4.72258661873638629913330078125" lon="-74.10769977606832981109619140625">
        <ele>2591.39990234375</ele>
        <time>2021-04-25T15:51:46.000Z</time>
      </trkpt>
      <trkpt lat="4.7226014547049999237060546875" lon="-74.1076790727674961090087890625">
        <ele>2591.199951171875</ele>
        <time>2021-04-25T15:51:49.000Z</time>
      </trkpt>
      <trkpt lat="4.72260807640850543975830078125" lon="-74.10767018795013427734375">
        <ele>2591.199951171875</ele>
        <time>2021-04-25T15:51:50.000Z</time>
      </trkpt>
      <trkpt lat="4.72264864481985569000244140625" lon="-74.10761260427534580230712890625">
        <ele>2591.60009765625</ele>
        <time>2021-04-25T15:51:56.000Z</time>
      </trkpt>
      <trkpt lat="4.722661636769771575927734375" lon="-74.1076033003628253936767578125">
        <ele>2591.60009765625</ele>
        <time>2021-04-25T15:51:58.000Z</time>
      </trkpt>
      <trkpt lat="4.7226678393781185150146484375" lon="-74.1076012887060642242431640625">
        <ele>2591.60009765625</ele>
        <time>2021-04-25T15:51:59.000Z</time>
      </trkpt>
      <trkpt lat="4.72271989099681377410888671875" lon="-74.10760371945798397064208984375">
        <ele>2591.39990234375</ele>
        <time>2021-04-25T15:52:05.000Z</time>
      </trkpt>
      <trkpt lat="4.722761213779449462890625" lon="-74.10758913494646549224853515625">
        <ele>2591.60009765625</ele>
        <time>2021-04-25T15:52:09.000Z</time>
      </trkpt>
      <trkpt lat="4.7227828390896320343017578125" lon="-74.10756289958953857421875">
        <ele>2591.800048828125</ele>
        <time>2021-04-25T15:52:12.000Z</time>
      </trkpt>
      <trkpt lat="4.72279733978211879730224609375" lon="-74.10753674805164337158203125">
        <ele>2592</ele>
        <time>2021-04-25T15:52:15.000Z</time>
      </trkpt>
      <trkpt lat="4.7228022851049900054931640625" lon="-74.107528366148471832275390625">
        <ele>2592</ele>
        <time>2021-04-25T15:52:16.000Z</time>
      </trkpt>
      <trkpt lat="4.7228140197694301605224609375" lon="-74.107508249580860137939453125">
        <ele>2592.199951171875</ele>
        <time>2021-04-25T15:52:18.000Z</time>
      </trkpt>
      <trkpt lat="4.72281846217811107635498046875" lon="-74.10749978385865688323974609375">
        <ele>2592.199951171875</ele>
        <time>2021-04-25T15:52:19.000Z</time>
      </trkpt>
      <trkpt lat="4.72285131923854351043701171875" lon="-74.10745334811508655548095703125">
        <ele>2592.60009765625</ele>
        <time>2021-04-25T15:52:25.000Z</time>
      </trkpt>
      <trkpt lat="4.7228626348078250885009765625" lon="-74.10743742249906063079833984375">
        <ele>2592.800048828125</ele>
        <time>2021-04-25T15:52:27.000Z</time>
      </trkpt>
      <trkpt lat="4.72289289347827434539794921875" lon="-74.10737849771976470947265625">
        <ele>2593</ele>
        <time>2021-04-25T15:52:33.000Z</time>
      </trkpt>
      <trkpt lat="4.722900688648223876953125" lon="-74.10735729150474071502685546875">
        <ele>2593</ele>
        <time>2021-04-25T15:52:35.000Z</time>
      </trkpt>
      <trkpt lat="4.72291971556842327117919921875" lon="-74.107318818569183349609375">
        <ele>2593</ele>
        <time>2021-04-25T15:52:39.000Z</time>
      </trkpt>
      <trkpt lat="4.722938574850559234619140625" lon="-74.10728805698454380035400390625">
        <ele>2593.199951171875</ele>
        <time>2021-04-25T15:52:43.000Z</time>
      </trkpt>
      <trkpt lat="4.72297671250998973846435546875" lon="-74.107251428067684173583984375">
        <ele>2593.60009765625</ele>
        <time>2021-04-25T15:52:49.000Z</time>
      </trkpt>
      <trkpt lat="4.7229829989373683929443359375" lon="-74.1072477400302886962890625">
        <ele>2593.39990234375</ele>
        <time>2021-04-25T15:52:50.000Z</time>
      </trkpt>
      <trkpt lat="4.7229920513927936553955078125" lon="-74.10724581219255924224853515625">
        <ele>2593.39990234375</ele>
        <time>2021-04-25T15:52:51.000Z</time>
      </trkpt>
      <trkpt lat="4.723002277314662933349609375" lon="-74.1072438843548297882080078125">
        <ele>2593.39990234375</ele>
        <time>2021-04-25T15:52:52.000Z</time>
      </trkpt>
      <trkpt lat="4.72305382601916790008544921875" lon="-74.107219241559505462646484375">
        <ele>2593.199951171875</ele>
        <time>2021-04-25T15:52:58.000Z</time>
      </trkpt>
      <trkpt lat="4.7230758704245090484619140625" lon="-74.10720608197152614593505859375">
        <ele>2593.39990234375</ele>
        <time>2021-04-25T15:53:02.000Z</time>
      </trkpt>
      <trkpt lat="4.72308584488928318023681640625" lon="-74.1071996279060840606689453125">
        <ele>2593.199951171875</ele>
        <time>2021-04-25T15:53:07.000Z</time>
      </trkpt>
      <trkpt lat="4.72313739359378814697265625" lon="-74.10717020742595195770263671875">
        <ele>2592.800048828125</ele>
        <time>2021-04-25T15:53:16.000Z</time>
      </trkpt>
      <trkpt lat="4.72314200364053249359130859375" lon="-74.10716316662728786468505859375">
        <ele>2592.800048828125</ele>
        <time>2021-04-25T15:53:17.000Z</time>
      </trkpt>
      <trkpt lat="4.7231461107730865478515625" lon="-74.1071557067334651947021484375">
        <ele>2592.800048828125</ele>
        <time>2021-04-25T15:53:18.000Z</time>
      </trkpt>
      <trkpt lat="4.7231541574001312255859375" lon="-74.1071386076509952545166015625">
        <ele>2592.800048828125</ele>
        <time>2021-04-25T15:53:20.000Z</time>
      </trkpt>
      <trkpt lat="4.723177291452884674072265625" lon="-74.10708957351744174957275390625">
        <ele>2593</ele>
        <time>2021-04-25T15:53:26.000Z</time>
      </trkpt>
      <trkpt lat="4.72318223677575588226318359375" lon="-74.10708211362361907958984375">
        <ele>2593.199951171875</ele>
        <time>2021-04-25T15:53:27.000Z</time>
      </trkpt>
      <trkpt lat="4.7232099808752536773681640625" lon="-74.10704364068806171417236328125">
        <ele>2593.199951171875</ele>
        <time>2021-04-25T15:53:32.000Z</time>
      </trkpt>
      <trkpt lat="4.723232947289943695068359375" lon="-74.10700592212378978729248046875">
        <ele>2592.800048828125</ele>
        <time>2021-04-25T15:53:37.000Z</time>
      </trkpt>
      <trkpt lat="4.72323789261281490325927734375" lon="-74.106996618211269378662109375">
        <ele>2592.800048828125</ele>
        <time>2021-04-25T15:53:38.000Z</time>
      </trkpt>
      <trkpt lat="4.72326211631298065185546875" lon="-74.10695445723831653594970703125">
        <ele>2592.60009765625</ele>
        <time>2021-04-25T15:53:43.000Z</time>
      </trkpt>
      <trkpt lat="4.7232689894735813140869140625" lon="-74.10694775171577930450439453125">
        <ele>2592.60009765625</ele>
        <time>2021-04-25T15:53:44.000Z</time>
      </trkpt>
      <trkpt lat="4.7232867591083049774169921875" lon="-74.1069260425865650177001953125">
        <ele>2592.60009765625</ele>
        <time>2021-04-25T15:53:47.000Z</time>
      </trkpt>
      <trkpt lat="4.72329606302082538604736328125" lon="-74.10691170953214168548583984375">
        <ele>2592.39990234375</ele>
        <time>2021-04-25T15:53:49.000Z</time>
      </trkpt>
      <trkpt lat="4.72330109216272830963134765625" lon="-74.106905423104763031005859375">
        <ele>2592.39990234375</ele>
        <time>2021-04-25T15:53:50.000Z</time>
      </trkpt>
      <trkpt lat="4.7233313508331775665283203125" lon="-74.1068780981004238128662109375">
        <ele>2592.199951171875</ele>
        <time>2021-04-25T15:53:55.000Z</time>
      </trkpt>
      <trkpt lat="4.7233689017593860626220703125" lon="-74.1068452410399913787841796875">
        <ele>2591.800048828125</ele>
        <time>2021-04-25T15:54:01.000Z</time>
      </trkpt>
      <trkpt lat="4.72338709048926830291748046875" lon="-74.1068288125097751617431640625">
        <ele>2591.800048828125</ele>
        <time>2021-04-25T15:54:04.000Z</time>
      </trkpt>
      <trkpt lat="4.72343570552766323089599609375" lon="-74.106812886893749237060546875">
        <ele>2591.199951171875</ele>
        <time>2021-04-25T15:54:10.000Z</time>
      </trkpt>
      <trkpt lat="4.7234453447163105010986328125" lon="-74.106813557446002960205078125">
        <ele>2591</ele>
        <time>2021-04-25T15:54:11.000Z</time>
      </trkpt>
      <trkpt lat="4.7234902717173099517822265625" lon="-74.1068217717111110687255859375">
        <ele>2591.199951171875</ele>
        <time>2021-04-25T15:54:16.000Z</time>
      </trkpt>
      <trkpt lat="4.7235060296952724456787109375" lon="-74.10682730376720428466796875">
        <ele>2591.199951171875</ele>
        <time>2021-04-25T15:54:19.000Z</time>
      </trkpt>
      <trkpt lat="4.72351114265620708465576171875" lon="-74.10682219080626964569091796875">
        <ele>2591</ele>
        <time>2021-04-25T15:54:24.000Z</time>
      </trkpt>
      <trkpt lat="4.72356545738875865936279296875" lon="-74.10681330598890781402587890625">
        <ele>2590.60009765625</ele>
        <time>2021-04-25T15:54:39.000Z</time>
      </trkpt>
      <trkpt lat="4.72357266582548618316650390625" lon="-74.10681230016052722930908203125">
        <ele>2590.60009765625</ele>
        <time>2021-04-25T15:54:40.000Z</time>
      </trkpt>
      <trkpt lat="4.72360543906688690185546875" lon="-74.1067998111248016357421875">
        <ele>2590.39990234375</ele>
        <time>2021-04-25T15:54:45.000Z</time>
      </trkpt>
      <trkpt lat="4.72361189313232898712158203125" lon="-74.1068177483975887298583984375">
        <ele>2590.60009765625</ele>
        <time>2021-04-25T15:54:48.000Z</time>
      </trkpt>
      <trkpt lat="4.72361809574067592620849609375" lon="-74.106835015118122100830078125">
        <ele>2590.60009765625</ele>
        <time>2021-04-25T15:54:50.000Z</time>
      </trkpt>
      <trkpt lat="4.7236230410635471343994140625" lon="-74.10684213973581790924072265625">
        <ele>2590.800048828125</ele>
        <time>2021-04-25T15:54:51.000Z</time>
      </trkpt>
      <trkpt lat="4.72363150678575038909912109375" lon="-74.10685119219124317169189453125">
        <ele>2591</ele>
        <time>2021-04-25T15:54:52.000Z</time>
      </trkpt>
      <trkpt lat="4.723644666373729705810546875" lon="-74.106868207454681396484375">
        <ele>2591</ele>
        <time>2021-04-25T15:54:54.000Z</time>
      </trkpt>
      <trkpt lat="4.72364927642047405242919921875" lon="-74.1068730689585208892822265625">
        <ele>2591</ele>
        <time>2021-04-25T15:54:55.000Z</time>
      </trkpt>
      <trkpt lat="4.7236610949039459228515625" lon="-74.10688698291778564453125">
        <ele>2591.199951171875</ele>
        <time>2021-04-25T15:54:57.000Z</time>
      </trkpt>
      <trkpt lat="4.72367526032030582427978515625" lon="-74.1069183312356472015380859375">
        <ele>2591.39990234375</ele>
        <time>2021-04-25T15:55:01.000Z</time>
      </trkpt>
      <trkpt lat="4.72368079237639904022216796875" lon="-74.1069588996469974517822265625">
        <ele>2591.39990234375</ele>
        <time>2021-04-25T15:55:05.000Z</time>
      </trkpt>
      <trkpt lat="4.7236763499677181243896484375" lon="-74.10699703730642795562744140625">
        <ele>2591.39990234375</ele>
        <time>2021-04-25T15:55:09.000Z</time>
      </trkpt>
      <trkpt lat="4.723676182329654693603515625" lon="-74.1070036590099334716796875">
        <ele>2591.39990234375</ele>
        <time>2021-04-25T15:55:10.000Z</time>
      </trkpt>
      <trkpt lat="4.72367626614868640899658203125" lon="-74.10701883025467395782470703125">
        <ele>2591.39990234375</ele>
        <time>2021-04-25T15:55:12.000Z</time>
      </trkpt>
      <trkpt lat="4.72367626614868640899658203125" lon="-74.1070373542606830596923828125">
        <ele>2591.199951171875</ele>
        <time>2021-04-25T15:55:14.000Z</time>
      </trkpt>
      <trkpt lat="4.72368733026087284088134765625" lon="-74.10709007643163204193115234375">
        <ele>2591.199951171875</ele>
        <time>2021-04-25T15:55:20.000Z</time>
      </trkpt>
      <trkpt lat="4.72369638271629810333251953125" lon="-74.10710969008505344390869140625">
        <ele>2591.39990234375</ele>
        <time>2021-04-25T15:55:23.000Z</time>
      </trkpt>
      <trkpt lat="4.72370392642915248870849609375" lon="-74.10715629346668720245361328125">
        <ele>2591.60009765625</ele>
        <time>2021-04-25T15:55:28.000Z</time>
      </trkpt>
      <trkpt lat="4.7237102128565311431884765625" lon="-74.10716400481760501861572265625">
        <ele>2591.60009765625</ele>
        <time>2021-04-25T15:55:29.000Z</time>
      </trkpt>
      <trkpt lat="4.723719097673892974853515625" lon="-74.10717339254915714263916015625">
        <ele>2591.60009765625</ele>
        <time>2021-04-25T15:55:30.000Z</time>
      </trkpt>
      <trkpt lat="4.72372722811996936798095703125" lon="-74.10719074308872222900390625">
        <ele>2591.39990234375</ele>
        <time>2021-04-25T15:55:34.000Z</time>
      </trkpt>
      <trkpt lat="4.7237253002822399139404296875" lon="-74.10718806087970733642578125">
        <ele>2591.39990234375</ele>
        <time>2021-04-25T15:55:37.000Z</time>
      </trkpt>
      <trkpt lat="4.7237256355583667755126953125" lon="-74.10718764178454875946044921875">
        <ele>2591.39990234375</ele>
        <time>2021-04-25T15:55:38.000Z</time>
      </trkpt>
      <trkpt lat="4.72377617843449115753173828125" lon="-74.10725184716284275054931640625">
        <ele>2591.199951171875</ele>
        <time>2021-04-25T15:56:14.000Z</time>
      </trkpt>
      <trkpt lat="4.72377567552030086517333984375" lon="-74.107259809970855712890625">
        <ele>2591.199951171875</ele>
        <time>2021-04-25T15:56:15.000Z</time>
      </trkpt>
      <trkpt lat="4.72377165220677852630615234375" lon="-74.10728906281292438507080078125">
        <ele>2591</ele>
        <time>2021-04-25T15:56:18.000Z</time>
      </trkpt>
      <trkpt lat="4.72376729361712932586669921875" lon="-74.1073330678045749664306640625">
        <ele>2591.199951171875</ele>
        <time>2021-04-25T15:56:22.000Z</time>
      </trkpt>
      <trkpt lat="4.7237630188465118408203125" lon="-74.10739081911742687225341796875">
        <ele>2591.39990234375</ele>
        <time>2021-04-25T15:56:28.000Z</time>
      </trkpt>
      <trkpt lat="4.72376528196036815643310546875" lon="-74.1074199043214321136474609375">
        <ele>2591.39990234375</ele>
        <time>2021-04-25T15:56:31.000Z</time>
      </trkpt>
      <trkpt lat="4.7237645275890827178955078125" lon="-74.10742837004363536834716796875">
        <ele>2591.39990234375</ele>
        <time>2021-04-25T15:56:32.000Z</time>
      </trkpt>
      <trkpt lat="4.723765365779399871826171875" lon="-74.1074381768703460693359375">
        <ele>2591.39990234375</ele>
        <time>2021-04-25T15:56:33.000Z</time>
      </trkpt>
      <trkpt lat="4.7237670421600341796875" lon="-74.10744580440223217010498046875">
        <ele>2591.39990234375</ele>
        <time>2021-04-25T15:56:34.000Z</time>
      </trkpt>
      <trkpt lat="4.723778106272220611572265625" lon="-74.1074933297932147979736328125">
        <ele>2591.39990234375</ele>
        <time>2021-04-25T15:56:39.000Z</time>
      </trkpt>
      <trkpt lat="4.7237812913954257965087890625" lon="-74.1075105965137481689453125">
        <ele>2591.39990234375</ele>
        <time>2021-04-25T15:56:41.000Z</time>
      </trkpt>
      <trkpt lat="4.7238017432391643524169921875" lon="-74.10755845718085765838623046875">
        <ele>2591.800048828125</ele>
        <time>2021-04-25T15:56:46.000Z</time>
      </trkpt>
      <trkpt lat="4.723816998302936553955078125" lon="-74.107585363090038299560546875">
        <ele>2591.800048828125</ele>
        <time>2021-04-25T15:56:49.000Z</time>
      </trkpt>
      <trkpt lat="4.72382194362580776214599609375" lon="-74.10759617574512958526611328125">
        <ele>2591.800048828125</ele>
        <time>2021-04-25T15:56:50.000Z</time>
      </trkpt>
      <trkpt lat="4.723855219781398773193359375" lon="-74.1076539270579814910888671875">
        <ele>2592</ele>
        <time>2021-04-25T15:56:56.000Z</time>
      </trkpt>
      <trkpt lat="4.7238882444798946380615234375" lon="-74.107695333659648895263671875">
        <ele>2592</ele>
        <time>2021-04-25T15:57:01.000Z</time>
      </trkpt>
      <trkpt lat="4.7239016555249691009521484375" lon="-74.1077119298279285430908203125">
        <ele>2591.800048828125</ele>
        <time>2021-04-25T15:57:03.000Z</time>
      </trkpt>
      <trkpt lat="4.7239143960177898406982421875" lon="-74.10773112438619136810302734375">
        <ele>2592</ele>
        <time>2021-04-25T15:57:05.000Z</time>
      </trkpt>
      <trkpt lat="4.7239348478615283966064453125" lon="-74.1077665798366069793701171875">
        <ele>2592</ele>
        <time>2021-04-25T15:57:09.000Z</time>
      </trkpt>
      <trkpt lat="4.72393929027020931243896484375" lon="-74.1077763028442859649658203125">
        <ele>2592</ele>
        <time>2021-04-25T15:57:10.000Z</time>
      </trkpt>
      <trkpt lat="4.72397516481578350067138671875" lon="-74.107833467423915863037109375">
        <ele>2592</ele>
        <time>2021-04-25T15:57:16.000Z</time>
      </trkpt>
      <trkpt lat="4.72398354671895503997802734375" lon="-74.10784327425062656402587890625">
        <ele>2592.199951171875</ele>
        <time>2021-04-25T15:57:17.000Z</time>
      </trkpt>
      <trkpt lat="4.72400701604783535003662109375" lon="-74.10786892287433147430419921875">
        <ele>2592.199951171875</ele>
        <time>2021-04-25T15:57:20.000Z</time>
      </trkpt>
      <trkpt lat="4.72402981482446193695068359375" lon="-74.10789675079286098480224609375">
        <ele>2592.199951171875</ele>
        <time>2021-04-25T15:57:23.000Z</time>
      </trkpt>
      <trkpt lat="4.7240682877600193023681640625" lon="-74.1079449467360973358154296875">
        <ele>2592</ele>
        <time>2021-04-25T15:57:29.000Z</time>
      </trkpt>
      <trkpt lat="4.72408094443380832672119140625" lon="-74.107958190143108367919921875">
        <ele>2592</ele>
        <time>2021-04-25T15:57:31.000Z</time>
      </trkpt>
      <trkpt lat="4.72410474903881549835205078125" lon="-74.10798677243292331695556640625">
        <ele>2591.800048828125</ele>
        <time>2021-04-25T15:57:35.000Z</time>
      </trkpt>
      <trkpt lat="4.72413810901343822479248046875" lon="-74.10802298225462436676025390625">
        <ele>2592.199951171875</ele>
        <time>2021-04-25T15:57:40.000Z</time>
      </trkpt>
      <trkpt lat="4.724188148975372314453125" lon="-74.10806137137115001678466796875">
        <ele>2592.199951171875</ele>
        <time>2021-04-25T15:57:46.000Z</time>
      </trkpt>
      <trkpt lat="4.7242121212184429168701171875" lon="-74.1080743633210659027099609375">
        <ele>2592</ele>
        <time>2021-04-25T15:57:49.000Z</time>
      </trkpt>
      <trkpt lat="4.7242201678454875946044921875" lon="-74.10807788372039794921875">
        <ele>2592</ele>
        <time>2021-04-25T15:57:50.000Z</time>
      </trkpt>
      <trkpt lat="4.7242391109466552734375" lon="-74.10808316431939601898193359375">
        <ele>2592</ele>
        <time>2021-04-25T15:57:52.000Z</time>
      </trkpt>
      <trkpt lat="4.724300466477870941162109375" lon="-74.10809305496513843536376953125">
        <ele>2592</ele>
        <time>2021-04-25T15:57:58.000Z</time>
      </trkpt>
      <trkpt lat="4.724348075687885284423828125" lon="-74.108106382191181182861328125">
        <ele>2592.60009765625</ele>
        <time>2021-04-25T15:58:03.000Z</time>
      </trkpt>
      <trkpt lat="4.72440415062010288238525390625" lon="-74.10811878740787506103515625">
        <ele>2592</ele>
        <time>2021-04-25T15:58:09.000Z</time>
      </trkpt>
      <trkpt lat="4.7244206629693508148193359375" lon="-74.1081001795828342437744140625">
        <ele>2591.800048828125</ele>
        <time>2021-04-25T15:58:12.000Z</time>
      </trkpt>
      <trkpt lat="4.7244228422641754150390625" lon="-74.108092300593852996826171875">
        <ele>2591.800048828125</ele>
        <time>2021-04-25T15:58:13.000Z</time>
      </trkpt>
      <trkpt lat="4.72442342899739742279052734375" lon="-74.10805349238216876983642578125">
        <ele>2591.800048828125</ele>
        <time>2021-04-25T15:58:19.000Z</time>
      </trkpt>
      <trkpt lat="4.72442275844514369964599609375" lon="-74.10802314989268779754638671875">
        <ele>2591.800048828125</ele>
        <time>2021-04-25T15:58:23.000Z</time>
      </trkpt>
      <trkpt lat="4.7244223393499851226806640625" lon="-74.108017198741436004638671875">
        <ele>2591.800048828125</ele>
        <time>2021-04-25T15:58:24.000Z</time>
      </trkpt>
      <trkpt lat="4.724422506988048553466796875" lon="-74.1079687513411045074462890625">
        <ele>2591.800048828125</ele>
        <time>2021-04-25T15:58:30.000Z</time>
      </trkpt>
      <trkpt lat="4.7244216687977313995361328125" lon="-74.10790714435279369354248046875">
        <ele>2591.60009765625</ele>
        <time>2021-04-25T15:58:36.000Z</time>
      </trkpt>
      <trkpt lat="4.72442208789288997650146484375" lon="-74.1078859381377696990966796875">
        <ele>2591.800048828125</ele>
        <time>2021-04-25T15:58:38.000Z</time>
      </trkpt>
      <trkpt lat="4.72442644648253917694091796875" lon="-74.10784788429737091064453125">
        <ele>2591.800048828125</ele>
        <time>2021-04-25T15:58:41.000Z</time>
      </trkpt>
      <trkpt lat="4.72444094717502593994140625" lon="-74.10778753459453582763671875">
        <ele>2591.800048828125</ele>
        <time>2021-04-25T15:58:47.000Z</time>
      </trkpt>
      <trkpt lat="4.7244709543883800506591796875" lon="-74.10775803029537200927734375">
        <ele>2591.60009765625</ele>
        <time>2021-04-25T15:58:53.000Z</time>
      </trkpt>
      <trkpt lat="4.7244759835302829742431640625" lon="-74.107759706676006317138671875">
        <ele>2591.39990234375</ele>
        <time>2021-04-25T15:58:54.000Z</time>
      </trkpt>
      <trkpt lat="4.7244810126721858978271484375" lon="-74.1077707707881927490234375">
        <ele>2591.39990234375</ele>
        <time>2021-04-25T15:58:57.000Z</time>
      </trkpt>
      <trkpt lat="4.72449786029756069183349609375" lon="-74.10777672193944454193115234375">
        <ele>2591.39990234375</ele>
        <time>2021-04-25T15:59:02.000Z</time>
      </trkpt>
      <trkpt lat="4.72451965324580669403076171875" lon="-74.10779130645096302032470703125">
        <ele>2591.39990234375</ele>
        <time>2021-04-25T15:59:08.000Z</time>
      </trkpt>
      <trkpt lat="4.7245306335389614105224609375" lon="-74.107799269258975982666015625">
        <ele>2591.60009765625</ele>
        <time>2021-04-25T15:59:10.000Z</time>
      </trkpt>
      <trkpt lat="4.72455955110490322113037109375" lon="-74.1078011132776737213134765625">
        <ele>2591.60009765625</ele>
        <time>2021-04-25T15:59:14.000Z</time>
      </trkpt>
      <trkpt lat="4.72459190525114536285400390625" lon="-74.10779415629804134368896484375">
        <ele>2591.800048828125</ele>
        <time>2021-04-25T15:59:20.000Z</time>
      </trkpt>
      <trkpt lat="4.72460858523845672607421875" lon="-74.107783846557140350341796875">
        <ele>2592</ele>
        <time>2021-04-25T15:59:23.000Z</time>
      </trkpt>
      <trkpt lat="4.724624343216419219970703125" lon="-74.1077806614339351654052734375">
        <ele>2592</ele>
        <time>2021-04-25T15:59:25.000Z</time>
      </trkpt>
      <trkpt lat="4.7246801666915416717529296875" lon="-74.1077786497771739959716796875">
        <ele>2592</ele>
        <time>2021-04-25T15:59:31.000Z</time>
      </trkpt>
      <trkpt lat="4.72472802735865116119384765625" lon="-74.10778292454779148101806640625">
        <ele>2592</ele>
        <time>2021-04-25T15:59:37.000Z</time>
      </trkpt>
      <trkpt lat="4.72473858855664730072021484375" lon="-74.1077850200235843658447265625">
        <ele>2592.199951171875</ele>
        <time>2021-04-25T15:59:38.000Z</time>
      </trkpt>
      <trkpt lat="4.724786281585693359375" lon="-74.10779013298451900482177734375">
        <ele>2592.199951171875</ele>
        <time>2021-04-25T15:59:44.000Z</time>
      </trkpt>
      <trkpt lat="4.72480849362909793853759765625" lon="-74.10777504555881023406982421875">
        <ele>2592</ele>
        <time>2021-04-25T15:59:48.000Z</time>
      </trkpt>
      <trkpt lat="4.7248251736164093017578125" lon="-74.10777471028268337249755859375">
        <ele>2592</ele>
        <time>2021-04-25T15:59:51.000Z</time>
      </trkpt>
      <trkpt lat="4.72483330406248569488525390625" lon="-74.10776314325630664825439453125">
        <ele>2592</ele>
        <time>2021-04-25T15:59:53.000Z</time>
      </trkpt>
      <trkpt lat="4.72483866848051548004150390625" lon="-74.1077605448663234710693359375">
        <ele>2592.199951171875</ele>
        <time>2021-04-25T15:59:55.000Z</time>
      </trkpt>
      <trkpt lat="4.72483883611857891082763671875" lon="-74.107760377228260040283203125">
        <ele>2592.199951171875</ele>
        <time>2021-04-25T15:59:56.000Z</time>
      </trkpt>
      <trkpt lat="4.72484420053660869598388671875" lon="-74.1077585332095623016357421875">
        <ele>2592.199951171875</ele>
        <time>2021-04-25T16:00:00.000Z</time>
      </trkpt>
      <trkpt lat="4.7248474694788455963134765625" lon="-74.10775895230472087860107421875">
        <ele>2592.199951171875</ele>
        <time>2021-04-25T16:00:06.000Z</time>
      </trkpt>
      <trkpt lat="4.72484755329787731170654296875" lon="-74.107758365571498870849609375">
        <ele>2592.39990234375</ele>
        <time>2021-04-25T16:00:08.000Z</time>
      </trkpt>
      <trkpt lat="4.724847972393035888671875" lon="-74.10775844939053058624267578125">
        <ele>2592.39990234375</ele>
        <time>2021-04-25T16:00:09.000Z</time>
      </trkpt>
      <trkpt lat="4.72484956495463848114013671875" lon="-74.10775937139987945556640625">
        <ele>2592.199951171875</ele>
        <time>2021-04-25T16:00:10.000Z</time>
      </trkpt>
      <trkpt lat="4.72498853690922260284423828125" lon="-74.1077615506947040557861328125">
        <ele>2592.199951171875</ele>
        <time>2021-04-25T16:47:06.000Z</time>
      </trkpt>
      <trkpt lat="4.7249866090714931488037109375" lon="-74.1077573597431182861328125">
        <ele>2592.199951171875</ele>
        <time>2021-04-25T16:47:07.000Z</time>
      </trkpt>
      <trkpt lat="4.7249861061573028564453125" lon="-74.10775534808635711669921875">
        <ele>2592.199951171875</ele>
        <time>2021-04-25T16:47:10.000Z</time>
      </trkpt>
      <trkpt lat="4.72498753108084201812744140625" lon="-74.107757024466991424560546875">
        <ele>2592.39990234375</ele>
        <time>2021-04-25T16:47:11.000Z</time>
      </trkpt>
      <trkpt lat="4.7251056320965290069580078125" lon="-74.107844866812229156494140625">
        <ele>2592.800048828125</ele>
        <time>2021-04-25T16:47:37.000Z</time>
      </trkpt>
      <trkpt lat="4.72512063570320606231689453125" lon="-74.10785702057182788848876953125">
        <ele>2592.800048828125</ele>
        <time>2021-04-25T16:47:39.000Z</time>
      </trkpt>
      <trkpt lat="4.72513974644243717193603515625" lon="-74.10788786597549915313720703125">
        <ele>2592.800048828125</ele>
        <time>2021-04-25T16:47:43.000Z</time>
      </trkpt>
      <trkpt lat="4.72516514360904693603515625" lon="-74.10792768001556396484375">
        <ele>2592.60009765625</ele>
        <time>2021-04-25T16:47:48.000Z</time>
      </trkpt>
      <trkpt lat="4.72519339062273502349853515625" lon="-74.1079456172883510589599609375">
        <ele>2592.60009765625</ele>
        <time>2021-04-25T16:47:51.000Z</time>
      </trkpt>
      <trkpt lat="4.72522281110286712646484375" lon="-74.10795525647699832916259765625">
        <ele>2592.60009765625</ele>
        <time>2021-04-25T16:47:54.000Z</time>
      </trkpt>
      <trkpt lat="4.7252327017486095428466796875" lon="-74.10795777104794979095458984375">
        <ele>2592.39990234375</ele>
        <time>2021-04-25T16:47:55.000Z</time>
      </trkpt>
      <trkpt lat="4.7252370603382587432861328125" lon="-74.1079612076282501220703125">
        <ele>2592.39990234375</ele>
        <time>2021-04-25T16:47:56.000Z</time>
      </trkpt>
      <trkpt lat="4.725230522453784942626953125" lon="-74.1079610399901866912841796875">
        <ele>2592.39990234375</ele>
        <time>2021-04-25T16:47:58.000Z</time>
      </trkpt>
      <trkpt lat="4.7252114117145538330078125" lon="-74.107967577874660491943359375">
        <ele>2592.60009765625</ele>
        <time>2021-04-25T16:48:01.000Z</time>
      </trkpt>
      <trkpt lat="4.7252075560390949249267578125" lon="-74.1079799830913543701171875">
        <ele>2592.199951171875</ele>
        <time>2021-04-25T16:48:03.000Z</time>
      </trkpt>
      <trkpt lat="4.72520948387682437896728515625" lon="-74.1080089844763278961181640625">
        <ele>2591.60009765625</ele>
        <time>2021-04-25T16:48:08.000Z</time>
      </trkpt>
      <trkpt lat="4.72521250136196613311767578125" lon="-74.10803656093776226043701171875">
        <ele>2591.800048828125</ele>
        <time>2021-04-25T16:48:11.000Z</time>
      </trkpt>
      <trkpt lat="4.72521468065679073333740234375" lon="-74.108067490160465240478515625">
        <ele>2592</ele>
        <time>2021-04-25T16:48:15.000Z</time>
      </trkpt>
      <trkpt lat="4.72520981915295124053955078125" lon="-74.10809330642223358154296875">
        <ele>2592</ele>
        <time>2021-04-25T16:48:18.000Z</time>
      </trkpt>
      <trkpt lat="4.72519808448851108551025390625" lon="-74.10815105773508548736572265625">
        <ele>2591.800048828125</ele>
        <time>2021-04-25T16:48:24.000Z</time>
      </trkpt>
      <trkpt lat="4.7251988388597965240478515625" lon="-74.10815977491438388824462890625">
        <ele>2591.800048828125</ele>
        <time>2021-04-25T16:48:25.000Z</time>
      </trkpt>
      <trkpt lat="4.72519942559301853179931640625" lon="-74.108167402446269989013671875">
        <ele>2591.800048828125</ele>
        <time>2021-04-25T16:48:26.000Z</time>
      </trkpt>
      <trkpt lat="4.72520344890654087066650390625" lon="-74.10818307660520076751708984375">
        <ele>2591.800048828125</ele>
        <time>2021-04-25T16:48:28.000Z</time>
      </trkpt>
      <trkpt lat="4.72521233372390270233154296875" lon="-74.108206294476985931396484375">
        <ele>2591.800048828125</ele>
        <time>2021-04-25T16:48:30.000Z</time>
      </trkpt>
      <trkpt lat="4.72521744668483734130859375" lon="-74.10825750790536403656005859375">
        <ele>2591.60009765625</ele>
        <time>2021-04-25T16:48:34.000Z</time>
      </trkpt>
      <trkpt lat="4.7252303548157215118408203125" lon="-74.10832707770168781280517578125">
        <ele>2591.800048828125</ele>
        <time>2021-04-25T16:48:40.000Z</time>
      </trkpt>
      <trkpt lat="4.7252337075769901275634765625" lon="-74.108348451554775238037109375">
        <ele>2591.800048828125</ele>
        <time>2021-04-25T16:48:42.000Z</time>
      </trkpt>
      <trkpt lat="4.72523664124310016632080078125" lon="-74.1084093041718006134033203125">
        <ele>2591.800048828125</ele>
        <time>2021-04-25T16:48:48.000Z</time>
      </trkpt>
      <trkpt lat="4.725232534110546112060546875" lon="-74.1084428317844867706298828125">
        <ele>2592</ele>
        <time>2021-04-25T16:48:51.000Z</time>
      </trkpt>
      <trkpt lat="4.72522976808249950408935546875" lon="-74.108475856482982635498046875">
        <ele>2592.199951171875</ele>
        <time>2021-04-25T16:48:54.000Z</time>
      </trkpt>
      <trkpt lat="4.7252474538981914520263671875" lon="-74.108512066304683685302734375">
        <ele>2592.60009765625</ele>
        <time>2021-04-25T16:48:57.000Z</time>
      </trkpt>
      <trkpt lat="4.7252907045185565948486328125" lon="-74.1085615195333957672119140625">
        <ele>2592.800048828125</ele>
        <time>2021-04-25T16:49:03.000Z</time>
      </trkpt>
      <trkpt lat="4.7253208793699741363525390625" lon="-74.10861088894307613372802734375">
        <ele>2592.800048828125</ele>
        <time>2021-04-25T16:49:08.000Z</time>
      </trkpt>
      <trkpt lat="4.725325070321559906005859375" lon="-74.1086191870272159576416015625">
        <ele>2592.800048828125</ele>
        <time>2021-04-25T16:49:09.000Z</time>
      </trkpt>
      <trkpt lat="4.72533051855862140655517578125" lon="-74.10862681455910205841064453125">
        <ele>2592.800048828125</ele>
        <time>2021-04-25T16:49:10.000Z</time>
      </trkpt>
      <trkpt lat="4.72535968758165836334228515625" lon="-74.10865765996277332305908203125">
        <ele>2592.800048828125</ele>
        <time>2021-04-25T16:49:14.000Z</time>
      </trkpt>
      <trkpt lat="4.7253758646547794342041015625" lon="-74.108668975532054901123046875">
        <ele>2592.800048828125</ele>
        <time>2021-04-25T16:49:16.000Z</time>
      </trkpt>
      <trkpt lat="4.72540997900068759918212890625" lon="-74.108701832592487335205078125">
        <ele>2592.800048828125</ele>
        <time>2021-04-25T16:49:21.000Z</time>
      </trkpt>
      <trkpt lat="4.725453145802021026611328125" lon="-74.10874499939382076263427734375">
        <ele>2593</ele>
        <time>2021-04-25T16:49:27.000Z</time>
      </trkpt>
      <trkpt lat="4.7254581749439239501953125" lon="-74.10874843597412109375">
        <ele>2593</ele>
        <time>2021-04-25T16:49:28.000Z</time>
      </trkpt>
      <trkpt lat="4.7255032695829868316650390625" lon="-74.10878489725291728973388671875">
        <ele>2593</ele>
        <time>2021-04-25T16:49:34.000Z</time>
      </trkpt>
      <trkpt lat="4.72550871782004833221435546875" lon="-74.1087925247848033905029296875">
        <ele>2593</ele>
        <time>2021-04-25T16:49:35.000Z</time>
      </trkpt>
      <trkpt lat="4.72553939558565616607666015625" lon="-74.1088374517858028411865234375">
        <ele>2592.800048828125</ele>
        <time>2021-04-25T16:49:41.000Z</time>
      </trkpt>
      <trkpt lat="4.7255508787930011749267578125" lon="-74.10886201076209545135498046875">
        <ele>2592.800048828125</ele>
        <time>2021-04-25T16:49:44.000Z</time>
      </trkpt>
      <trkpt lat="4.72556973807513713836669921875" lon="-74.1088838875293731689453125">
        <ele>2592.800048828125</ele>
        <time>2021-04-25T16:49:47.000Z</time>
      </trkpt>
      <trkpt lat="4.72558247856795787811279296875" lon="-74.1089001484215259552001953125">
        <ele>2592.800048828125</ele>
        <time>2021-04-25T16:49:49.000Z</time>
      </trkpt>
      <trkpt lat="4.72562338225543498992919921875" lon="-74.1089440695941448211669921875">
        <ele>2592.800048828125</ele>
        <time>2021-04-25T16:49:55.000Z</time>
      </trkpt>
      <trkpt lat="4.72566747106611728668212890625" lon="-74.1089876554906368255615234375">
        <ele>2592.800048828125</ele>
        <time>2021-04-25T16:50:01.000Z</time>
      </trkpt>
      <trkpt lat="4.725687168538570404052734375" lon="-74.10900617949664592742919921875">
        <ele>2593</ele>
        <time>2021-04-25T16:50:03.000Z</time>
      </trkpt>
      <trkpt lat="4.72573234699666500091552734375" lon="-74.10905395634472370147705078125">
        <ele>2592.60009765625</ele>
        <time>2021-04-25T16:50:09.000Z</time>
      </trkpt>
      <trkpt lat="4.72573754377663135528564453125" lon="-74.10906116478145122528076171875">
        <ele>2592.800048828125</ele>
        <time>2021-04-25T16:50:10.000Z</time>
      </trkpt>
      <trkpt lat="4.72574584186077117919921875" lon="-74.10911397077143192291259765625">
        <ele>2592.60009765625</ele>
        <time>2021-04-25T16:50:15.000Z</time>
      </trkpt>
      <trkpt lat="4.7257456742227077484130859375" lon="-74.109123609960079193115234375">
        <ele>2592.60009765625</ele>
        <time>2021-04-25T16:50:16.000Z</time>
      </trkpt>
      <trkpt lat="4.7257678024470806121826171875" lon="-74.1091842949390411376953125">
        <ele>2592.800048828125</ele>
        <time>2021-04-25T16:50:22.000Z</time>
      </trkpt>
      <trkpt lat="4.72577710635960102081298828125" lon="-74.109236262738704681396484375">
        <ele>2592.800048828125</ele>
        <time>2021-04-25T16:50:28.000Z</time>
      </trkpt>
      <trkpt lat="4.72579370252788066864013671875" lon="-74.10926878452301025390625">
        <ele>2592.800048828125</ele>
        <time>2021-04-25T16:50:32.000Z</time>
      </trkpt>
      <trkpt lat="4.72581935115158557891845703125" lon="-74.10931999795138835906982421875">
        <ele>2592.60009765625</ele>
        <time>2021-04-25T16:50:38.000Z</time>
      </trkpt>
      <trkpt lat="4.72585086710751056671142578125" lon="-74.10936878062784671783447265625">
        <ele>2592.39990234375</ele>
        <time>2021-04-25T16:50:44.000Z</time>
      </trkpt>
      <trkpt lat="4.725862182676792144775390625" lon="-74.1093899868428707122802734375">
        <ele>2592.39990234375</ele>
        <time>2021-04-25T16:50:46.000Z</time>
      </trkpt>
      <trkpt lat="4.72587550990283489227294921875" lon="-74.1094124503433704376220703125">
        <ele>2592.39990234375</ele>
        <time>2021-04-25T16:50:48.000Z</time>
      </trkpt>
      <trkpt lat="4.7259126417338848114013671875" lon="-74.10946659743785858154296875">
        <ele>2592.39990234375</ele>
        <time>2021-04-25T16:50:54.000Z</time>
      </trkpt>
      <trkpt lat="4.72595429979264736175537109375" lon="-74.1095056571066379547119140625">
        <ele>2592.39990234375</ele>
        <time>2021-04-25T16:51:00.000Z</time>
      </trkpt>
      <trkpt lat="4.72598833031952381134033203125" lon="-74.109560139477252960205078125">
        <ele>2592.39990234375</ele>
        <time>2021-04-25T16:51:06.000Z</time>
      </trkpt>
      <trkpt lat="4.72601364366710186004638671875" lon="-74.10960875451564788818359375">
        <ele>2592.39990234375</ele>
        <time>2021-04-25T16:51:12.000Z</time>
      </trkpt>
      <trkpt lat="4.72602571360766887664794921875" lon="-74.109634570777416229248046875">
        <ele>2592.39990234375</ele>
        <time>2021-04-25T16:51:15.000Z</time>
      </trkpt>
      <trkpt lat="4.72603376023471355438232421875" lon="-74.10966650582849979400634765625">
        <ele>2592.199951171875</ele>
        <time>2021-04-25T16:51:18.000Z</time>
      </trkpt>
      <trkpt lat="4.7260601632297039031982421875" lon="-74.10972065292298793792724609375">
        <ele>2592.39990234375</ele>
        <time>2021-04-25T16:51:24.000Z</time>
      </trkpt>
      <trkpt lat="4.7260722331702709197998046875" lon="-74.1097487322986125946044921875">
        <ele>2592.39990234375</ele>
        <time>2021-04-25T16:51:27.000Z</time>
      </trkpt>
      <trkpt lat="4.726102240383625030517578125" lon="-74.10980455577373504638671875">
        <ele>2592.39990234375</ele>
        <time>2021-04-25T16:51:33.000Z</time>
      </trkpt>
      <trkpt lat="4.726124703884124755859375" lon="-74.109833724796772003173828125">
        <ele>2592.39990234375</ele>
        <time>2021-04-25T16:51:37.000Z</time>
      </trkpt>
      <trkpt lat="4.7261555492877960205078125" lon="-74.1098751313984394073486328125">
        <ele>2592.60009765625</ele>
        <time>2021-04-25T16:51:42.000Z</time>
      </trkpt>
      <trkpt lat="4.7261917591094970703125" lon="-74.10991980694234371185302734375">
        <ele>2592.39990234375</ele>
        <time>2021-04-25T16:51:48.000Z</time>
      </trkpt>
      <trkpt lat="4.72623911686241626739501953125" lon="-74.109961800277233123779296875">
        <ele>2592.199951171875</ele>
        <time>2021-04-25T16:51:54.000Z</time>
      </trkpt>
      <trkpt lat="4.726260490715503692626953125" lon="-74.10998753271996974945068359375">
        <ele>2592.199951171875</ele>
        <time>2021-04-25T16:51:57.000Z</time>
      </trkpt>
      <trkpt lat="4.72630902193486690521240234375" lon="-74.11003195680677890777587890625">
        <ele>2592.39990234375</ele>
        <time>2021-04-25T16:52:03.000Z</time>
      </trkpt>
      <trkpt lat="4.72634338773787021636962890625" lon="-74.11007235758006572723388671875">
        <ele>2592.39990234375</ele>
        <time>2021-04-25T16:52:08.000Z</time>
      </trkpt>
      <trkpt lat="4.72638244740664958953857421875" lon="-74.110119044780731201171875">
        <ele>2592.199951171875</ele>
        <time>2021-04-25T16:52:14.000Z</time>
      </trkpt>
      <trkpt lat="4.7264018096029758453369140625" lon="-74.110144861042499542236328125">
        <ele>2592.199951171875</ele>
        <time>2021-04-25T16:52:17.000Z</time>
      </trkpt>
      <trkpt lat="4.7264175675809383392333984375" lon="-74.1101695038378238677978515625">
        <ele>2592.39990234375</ele>
        <time>2021-04-25T16:52:20.000Z</time>
      </trkpt>
      <trkpt lat="4.72645352594554424285888671875" lon="-74.11021350882947444915771484375">
        <ele>2592.199951171875</ele>
        <time>2021-04-25T16:52:26.000Z</time>
      </trkpt>
      <trkpt lat="4.72647280432283878326416015625" lon="-74.110238738358020782470703125">
        <ele>2592.39990234375</ele>
        <time>2021-04-25T16:52:29.000Z</time>
      </trkpt>
      <trkpt lat="4.7265087626874446868896484375" lon="-74.11028358153998851776123046875">
        <ele>2592.199951171875</ele>
        <time>2021-04-25T16:52:35.000Z</time>
      </trkpt>
      <trkpt lat="4.726531393826007843017578125" lon="-74.11031442694365978240966796875">
        <ele>2592</ele>
        <time>2021-04-25T16:52:39.000Z</time>
      </trkpt>
      <trkpt lat="4.7265463136136531829833984375" lon="-74.1103321127593517303466796875">
        <ele>2592</ele>
        <time>2021-04-25T16:52:41.000Z</time>
      </trkpt>
      <trkpt lat="4.726580344140529632568359375" lon="-74.110376201570034027099609375">
        <ele>2592.60009765625</ele>
        <time>2021-04-25T16:52:47.000Z</time>
      </trkpt>
      <trkpt lat="4.72659333609044551849365234375" lon="-74.11039221100509166717529296875">
        <ele>2592.60009765625</ele>
        <time>2021-04-25T16:52:49.000Z</time>
      </trkpt>
      <trkpt lat="4.72661160863935947418212890625" lon="-74.11041651852428913116455078125">
        <ele>2592.199951171875</ele>
        <time>2021-04-25T16:52:52.000Z</time>
      </trkpt>
      <trkpt lat="4.72662149928510189056396484375" lon="-74.11044434644281864166259765625">
        <ele>2592</ele>
        <time>2021-04-25T16:52:55.000Z</time>
      </trkpt>
      <trkpt lat="4.726628959178924560546875" lon="-74.11046144552528858184814453125">
        <ele>2592</ele>
        <time>2021-04-25T16:52:57.000Z</time>
      </trkpt>
      <trkpt lat="4.7266727127134799957275390625" lon="-74.11051307804882526397705078125">
        <ele>2592</ele>
        <time>2021-04-25T16:53:03.000Z</time>
      </trkpt>
      <trkpt lat="4.7266971878707408905029296875" lon="-74.110537469387054443359375">
        <ele>2592.199951171875</ele>
        <time>2021-04-25T16:53:06.000Z</time>
      </trkpt>
      <trkpt lat="4.72674823366105556488037109375" lon="-74.11057610996067523956298828125">
        <ele>2592</ele>
        <time>2021-04-25T16:53:12.000Z</time>
      </trkpt>
      <trkpt lat="4.72677589394152164459228515625" lon="-74.1105979867279529571533203125">
        <ele>2591.800048828125</ele>
        <time>2021-04-25T16:53:16.000Z</time>
      </trkpt>
      <trkpt lat="4.72681042738258838653564453125" lon="-74.11063562147319316864013671875">
        <ele>2592.199951171875</ele>
        <time>2021-04-25T16:53:22.000Z</time>
      </trkpt>
      <trkpt lat="4.7268366627395153045654296875" lon="-74.110646434128284454345703125">
        <ele>2592.199951171875</ele>
        <time>2021-04-25T16:53:25.000Z</time>
      </trkpt>
      <trkpt lat="4.72688569687306880950927734375" lon="-74.11067233420908451080322265625">
        <ele>2592.199951171875</ele>
        <time>2021-04-25T16:53:31.000Z</time>
      </trkpt>
      <trkpt lat="4.7269027121365070343017578125" lon="-74.1106801293790340423583984375">
        <ele>2592.39990234375</ele>
        <time>2021-04-25T16:53:33.000Z</time>
      </trkpt>
      <trkpt lat="4.72695409320294857025146484375" lon="-74.11070267669856548309326171875">
        <ele>2592.39990234375</ele>
        <time>2021-04-25T16:53:39.000Z</time>
      </trkpt>
      <trkpt lat="4.7269709408283233642578125" lon="-74.11071323789656162261962890625">
        <ele>2592.39990234375</ele>
        <time>2021-04-25T16:53:41.000Z</time>
      </trkpt>
      <trkpt lat="4.72699549980461597442626953125" lon="-74.110723547637462615966796875">
        <ele>2592.39990234375</ele>
        <time>2021-04-25T16:53:44.000Z</time>
      </trkpt>
      <trkpt lat="4.727047383785247802734375" lon="-74.1107498668134212493896484375">
        <ele>2592.39990234375</ele>
        <time>2021-04-25T16:53:50.000Z</time>
      </trkpt>
      <trkpt lat="4.72709557972848415374755859375" lon="-74.1107810474932193756103515625">
        <ele>2592.39990234375</ele>
        <time>2021-04-25T16:53:56.000Z</time>
      </trkpt>
      <trkpt lat="4.72713732160627841949462890625" lon="-74.11081097088754177093505859375">
        <ele>2592.39990234375</ele>
        <time>2021-04-25T16:54:01.000Z</time>
      </trkpt>
      <trkpt lat="4.72717269323766231536865234375" lon="-74.11083276383578777313232421875">
        <ele>2592.60009765625</ele>
        <time>2021-04-25T16:54:05.000Z</time>
      </trkpt>
      <trkpt lat="4.72720655612647533416748046875" lon="-74.1108531318604946136474609375">
        <ele>2592.800048828125</ele>
        <time>2021-04-25T16:54:09.000Z</time>
      </trkpt>
      <trkpt lat="4.72721376456320285797119140625" lon="-74.11085740663111209869384765625">
        <ele>2592.60009765625</ele>
        <time>2021-04-25T16:54:10.000Z</time>
      </trkpt>
      <trkpt lat="4.72722181119024753570556640625" lon="-74.11086126230657100677490234375">
        <ele>2592.60009765625</ele>
        <time>2021-04-25T16:54:11.000Z</time>
      </trkpt>
      <trkpt lat="4.72726665437221527099609375" lon="-74.11087987013161182403564453125">
        <ele>2592.39990234375</ele>
        <time>2021-04-25T16:54:16.000Z</time>
      </trkpt>
      <trkpt lat="4.72731082700192928314208984375" lon="-74.110903255641460418701171875">
        <ele>2592.39990234375</ele>
        <time>2021-04-25T16:54:21.000Z</time>
      </trkpt>
      <trkpt lat="4.72736262716352939605712890625" lon="-74.1109335981309413909912109375">
        <ele>2592.199951171875</ele>
        <time>2021-04-25T16:54:27.000Z</time>
      </trkpt>
      <trkpt lat="4.7273965738713741302490234375" lon="-74.11095648072659969329833984375">
        <ele>2592.199951171875</ele>
        <time>2021-04-25T16:54:31.000Z</time>
      </trkpt>
      <trkpt lat="4.72745046950876712799072265625" lon="-74.11098833195865154266357421875">
        <ele>2592.39990234375</ele>
        <time>2021-04-25T16:54:37.000Z</time>
      </trkpt>
      <trkpt lat="4.72746840678155422210693359375" lon="-74.11099419929087162017822265625">
        <ele>2592.39990234375</ele>
        <time>2021-04-25T16:54:39.000Z</time>
      </trkpt>
      <trkpt lat="4.727514088153839111328125" lon="-74.111021943390369415283203125">
        <ele>2592</ele>
        <time>2021-04-25T16:54:45.000Z</time>
      </trkpt>
      <trkpt lat="4.72756035625934600830078125" lon="-74.11104851402342319488525390625">
        <ele>2591.800048828125</ele>
        <time>2021-04-25T16:54:51.000Z</time>
      </trkpt>
      <trkpt lat="4.72761224023997783660888671875" lon="-74.111072234809398651123046875">
        <ele>2591.800048828125</ele>
        <time>2021-04-25T16:54:57.000Z</time>
      </trkpt>
      <trkpt lat="4.72765163518488407135009765625" lon="-74.11109729669988155364990234375">
        <ele>2591.800048828125</ele>
        <time>2021-04-25T16:55:02.000Z</time>
      </trkpt>
      <trkpt lat="4.72769589163362979888916015625" lon="-74.111125878989696502685546875">
        <ele>2592.39990234375</ele>
        <time>2021-04-25T16:55:08.000Z</time>
      </trkpt>
      <trkpt lat="4.72773076035082340240478515625" lon="-74.11114708520472049713134765625">
        <ele>2592.39990234375</ele>
        <time>2021-04-25T16:55:12.000Z</time>
      </trkpt>
      <trkpt lat="4.7277697362005710601806640625" lon="-74.111172147095203399658203125">
        <ele>2592.39990234375</ele>
        <time>2021-04-25T16:55:17.000Z</time>
      </trkpt>
      <trkpt lat="4.7278009168803691864013671875" lon="-74.11119737662374973297119140625">
        <ele>2592.199951171875</ele>
        <time>2021-04-25T16:55:21.000Z</time>
      </trkpt>
      <trkpt lat="4.727825224399566650390625" lon="-74.11121497862040996551513671875">
        <ele>2592.39990234375</ele>
        <time>2021-04-25T16:55:24.000Z</time>
      </trkpt>
      <trkpt lat="4.72784064710140228271484375" lon="-74.11122386343777179718017578125">
        <ele>2592.199951171875</ele>
        <time>2021-04-25T16:55:26.000Z</time>
      </trkpt>
      <trkpt lat="4.72784726880490779876708984375" lon="-74.11122771911323070526123046875">
        <ele>2592.199951171875</ele>
        <time>2021-04-25T16:55:27.000Z</time>
      </trkpt>
      <trkpt lat="4.7278689779341220855712890625" lon="-74.111235849559307098388671875">
        <ele>2592.199951171875</ele>
        <time>2021-04-25T16:55:30.000Z</time>
      </trkpt>
      <trkpt lat="4.72791315056383609771728515625" lon="-74.1112635098397731781005859375">
        <ele>2592.60009765625</ele>
        <time>2021-04-25T16:55:36.000Z</time>
      </trkpt>
      <trkpt lat="4.72793209366500377655029296875" lon="-74.11127449013292789459228515625">
        <ele>2592.800048828125</ele>
        <time>2021-04-25T16:55:39.000Z</time>
      </trkpt>
      <trkpt lat="4.72796428017318248748779296875" lon="-74.11129779182374477386474609375">
        <ele>2592.800048828125</ele>
        <time>2021-04-25T16:55:44.000Z</time>
      </trkpt>
      <trkpt lat="4.7280074469745159149169921875" lon="-74.11132813431322574615478515625">
        <ele>2592.800048828125</ele>
        <time>2021-04-25T16:55:50.000Z</time>
      </trkpt>
      <trkpt lat="4.72802462987601757049560546875" lon="-74.1113459877669811248779296875">
        <ele>2592.800048828125</ele>
        <time>2021-04-25T16:55:53.000Z</time>
      </trkpt>
      <trkpt lat="4.72803602926433086395263671875" lon="-74.1113620810210704803466796875">
        <ele>2592.800048828125</ele>
        <time>2021-04-25T16:55:55.000Z</time>
      </trkpt>
      <trkpt lat="4.7280771844089031219482421875" lon="-74.1113984584808349609375">
        <ele>2592.800048828125</ele>
        <time>2021-04-25T16:56:01.000Z</time>
      </trkpt>
      <trkpt lat="4.72811448387801647186279296875" lon="-74.11143844015896320343017578125">
        <ele>2592.800048828125</ele>
        <time>2021-04-25T16:56:07.000Z</time>
      </trkpt>
      <trkpt lat="4.72812990657985210418701171875" lon="-74.11144933663308620452880859375">
        <ele>2592.800048828125</ele>
        <time>2021-04-25T16:56:09.000Z</time>
      </trkpt>
      <trkpt lat="4.7281821258366107940673828125" lon="-74.11147045902907848358154296875">
        <ele>2593.39990234375</ele>
        <time>2021-04-25T16:56:15.000Z</time>
      </trkpt>
      <trkpt lat="4.72822411917150020599365234375" lon="-74.11149493418633937835693359375">
        <ele>2593</ele>
        <time>2021-04-25T16:56:21.000Z</time>
      </trkpt>
      <trkpt lat="4.7282756678760051727294921875" lon="-74.1115132905542850494384765625">
        <ele>2592.800048828125</ele>
        <time>2021-04-25T16:56:27.000Z</time>
      </trkpt>
      <trkpt lat="4.728293605148792266845703125" lon="-74.11153181456029415130615234375">
        <ele>2592.800048828125</ele>
        <time>2021-04-25T16:56:29.000Z</time>
      </trkpt>
      <trkpt lat="4.7283162362873554229736328125" lon="-74.11156265996396541595458984375">
        <ele>2592.800048828125</ele>
        <time>2021-04-25T16:56:32.000Z</time>
      </trkpt>
      <trkpt lat="4.728338532149791717529296875" lon="-74.11157825030386447906494140625">
        <ele>2592.800048828125</ele>
        <time>2021-04-25T16:56:35.000Z</time>
      </trkpt>
      <trkpt lat="4.7283876501023769378662109375" lon="-74.111603982746601104736328125">
        <ele>2592.60009765625</ele>
        <time>2021-04-25T16:56:41.000Z</time>
      </trkpt>
      <trkpt lat="4.72843785770237445831298828125" lon="-74.11162518896162509918212890625">
        <ele>2592.60009765625</ele>
        <time>2021-04-25T16:56:47.000Z</time>
      </trkpt>
      <trkpt lat="4.72846694290637969970703125" lon="-74.111647568643093109130859375">
        <ele>2592.800048828125</ele>
        <time>2021-04-25T16:56:51.000Z</time>
      </trkpt>
      <trkpt lat="4.72850893624126911163330078125" lon="-74.111687801778316497802734375">
        <ele>2592.39990234375</ele>
        <time>2021-04-25T16:56:57.000Z</time>
      </trkpt>
      <trkpt lat="4.72854916937649250030517578125" lon="-74.11174169741570949554443359375">
        <ele>2592.60009765625</ele>
        <time>2021-04-25T16:57:03.000Z</time>
      </trkpt>
      <trkpt lat="4.72856056876480579376220703125" lon="-74.1117583774030208587646484375">
        <ele>2592.60009765625</ele>
        <time>2021-04-25T16:57:05.000Z</time>
      </trkpt>
      <trkpt lat="4.7285676933825016021728515625" lon="-74.11176390945911407470703125">
        <ele>2592.60009765625</ele>
        <time>2021-04-25T16:57:06.000Z</time>
      </trkpt>
      <trkpt lat="4.72861203365027904510498046875" lon="-74.11179819144308567047119140625">
        <ele>2592.60009765625</ele>
        <time>2021-04-25T16:57:12.000Z</time>
      </trkpt>
      <trkpt lat="4.7286256961524486541748046875" lon="-74.11181009374558925628662109375">
        <ele>2592.800048828125</ele>
        <time>2021-04-25T16:57:14.000Z</time>
      </trkpt>
      <trkpt lat="4.7286722995340824127197265625" lon="-74.111844040453433990478515625">
        <ele>2592.39990234375</ele>
        <time>2021-04-25T16:57:20.000Z</time>
      </trkpt>
      <trkpt lat="4.72870691679418087005615234375" lon="-74.111852757632732391357421875">
        <ele>2592.39990234375</ele>
        <time>2021-04-25T16:57:24.000Z</time>
      </trkpt>
      <trkpt lat="4.72875905223190784454345703125" lon="-74.1118611395359039306640625">
        <ele>2592.800048828125</ele>
        <time>2021-04-25T16:57:30.000Z</time>
      </trkpt>
      <trkpt lat="4.72877564840018749237060546875" lon="-74.11186507903039455413818359375">
        <ele>2593</ele>
        <time>2021-04-25T16:57:32.000Z</time>
      </trkpt>
      <trkpt lat="4.72880716435611248016357421875" lon="-74.11187597550451755523681640625">
        <ele>2592.800048828125</ele>
        <time>2021-04-25T16:57:36.000Z</time>
      </trkpt>
      <trkpt lat="4.7288563661277294158935546875" lon="-74.11189240403473377227783203125">
        <ele>2592.800048828125</ele>
        <time>2021-04-25T16:57:42.000Z</time>
      </trkpt>
      <trkpt lat="4.72888402640819549560546875" lon="-74.1119147837162017822265625">
        <ele>2592.800048828125</ele>
        <time>2021-04-25T16:57:46.000Z</time>
      </trkpt>
      <trkpt lat="4.72890657372772693634033203125" lon="-74.11194638349115848541259765625">
        <ele>2592.60009765625</ele>
        <time>2021-04-25T16:57:50.000Z</time>
      </trkpt>
      <trkpt lat="4.728918559849262237548828125" lon="-74.11196012981235980987548828125">
        <ele>2592.60009765625</ele>
        <time>2021-04-25T16:57:52.000Z</time>
      </trkpt>
      <trkpt lat="4.72893339581787586212158203125" lon="-74.11198711954057216644287109375">
        <ele>2592.60009765625</ele>
        <time>2021-04-25T16:57:55.000Z</time>
      </trkpt>
      <trkpt lat="4.72897195257246494293212890625" lon="-74.11203171126544475555419921875">
        <ele>2592.60009765625</ele>
        <time>2021-04-25T16:58:01.000Z</time>
      </trkpt>
      <trkpt lat="4.72901436500251293182373046875" lon="-74.1120638139545917510986328125">
        <ele>2592.39990234375</ele>
        <time>2021-04-25T16:58:07.000Z</time>
      </trkpt>
      <trkpt lat="4.7290568612515926361083984375" lon="-74.11210052669048309326171875">
        <ele>2592.800048828125</ele>
        <time>2021-04-25T16:58:13.000Z</time>
      </trkpt>
      <trkpt lat="4.72908963449299335479736328125" lon="-74.112130366265773773193359375">
        <ele>2592.60009765625</ele>
        <time>2021-04-25T16:58:18.000Z</time>
      </trkpt>
      <trkpt lat="4.72909466363489627838134765625" lon="-74.11213564686477184295654296875">
        <ele>2592.39990234375</ele>
        <time>2021-04-25T16:58:19.000Z</time>
      </trkpt>
      <trkpt lat="4.72912802360951900482177734375" lon="-74.1121910512447357177734375">
        <ele>2592.39990234375</ele>
        <time>2021-04-25T16:58:25.000Z</time>
      </trkpt>
      <trkpt lat="4.72915333695709705352783203125" lon="-74.1122220642864704132080078125">
        <ele>2592.39990234375</ele>
        <time>2021-04-25T16:58:29.000Z</time>
      </trkpt>
      <trkpt lat="4.72915953956544399261474609375" lon="-74.11222927272319793701171875">
        <ele>2592.39990234375</ele>
        <time>2021-04-25T16:58:30.000Z</time>
      </trkpt>
      <trkpt lat="4.72918032668530941009521484375" lon="-74.11225869320333003997802734375">
        <ele>2592.39990234375</ele>
        <time>2021-04-25T16:58:34.000Z</time>
      </trkpt>
      <trkpt lat="4.7291909717023372650146484375" lon="-74.11227763630449771881103515625">
        <ele>2592.39990234375</ele>
        <time>2021-04-25T16:58:36.000Z</time>
      </trkpt>
      <trkpt lat="4.7292167879641056060791015625" lon="-74.112323485314846038818359375">
        <ele>2592.39990234375</ele>
        <time>2021-04-25T16:58:42.000Z</time>
      </trkpt>
      <trkpt lat="4.72922064363956451416015625" lon="-74.1123313643038272857666015625">
        <ele>2592.199951171875</ele>
        <time>2021-04-25T16:58:43.000Z</time>
      </trkpt>
      <trkpt lat="4.729248471558094024658203125" lon="-74.1123866848647594451904296875">
        <ele>2592.60009765625</ele>
        <time>2021-04-25T16:58:49.000Z</time>
      </trkpt>
      <trkpt lat="4.7292637266218662261962890625" lon="-74.1124128364026546478271484375">
        <ele>2592.800048828125</ele>
        <time>2021-04-25T16:58:52.000Z</time>
      </trkpt>
      <trkpt lat="4.72927537746727466583251953125" lon="-74.11243312060832977294921875">
        <ele>2592.800048828125</ele>
        <time>2021-04-25T16:58:55.000Z</time>
      </trkpt>
      <trkpt lat="4.72927973605692386627197265625" lon="-74.11244158633053302764892578125">
        <ele>2592.800048828125</ele>
        <time>2021-04-25T16:58:56.000Z</time>
      </trkpt>
      <trkpt lat="4.7293110005557537078857421875" lon="-74.112493135035037994384765625">
        <ele>2592.800048828125</ele>
        <time>2021-04-25T16:59:02.000Z</time>
      </trkpt>
      <trkpt lat="4.72933304496109485626220703125" lon="-74.1125248186290264129638671875">
        <ele>2592.800048828125</ele>
        <time>2021-04-25T16:59:06.000Z</time>
      </trkpt>
      <trkpt lat="4.729338325560092926025390625" lon="-74.11253261379897594451904296875">
        <ele>2592.800048828125</ele>
        <time>2021-04-25T16:59:07.000Z</time>
      </trkpt>
      <trkpt lat="4.72935550846159458160400390625" lon="-74.11256253719329833984375">
        <ele>2592.800048828125</ele>
        <time>2021-04-25T16:59:11.000Z</time>
      </trkpt>
      <trkpt lat="4.7293822467327117919921875" lon="-74.11258810199797153472900390625">
        <ele>2592.800048828125</ele>
        <time>2021-04-25T16:59:15.000Z</time>
      </trkpt>
      <trkpt lat="4.7293995134532451629638671875" lon="-74.11262246780097484588623046875">
        <ele>2592.60009765625</ele>
        <time>2021-04-25T16:59:19.000Z</time>
      </trkpt>
      <trkpt lat="4.72942021675407886505126953125" lon="-74.11265482194721698760986328125">
        <ele>2592.60009765625</ele>
        <time>2021-04-25T16:59:24.000Z</time>
      </trkpt>
      <trkpt lat="4.7294524870812892913818359375" lon="-74.11269195377826690673828125">
        <ele>2592.39990234375</ele>
        <time>2021-04-25T16:59:29.000Z</time>
      </trkpt>
      <trkpt lat="4.72947821952402591705322265625" lon="-74.11271207034587860107421875">
        <ele>2592.60009765625</ele>
        <time>2021-04-25T16:59:33.000Z</time>
      </trkpt>
      <trkpt lat="4.72949313931167125701904296875" lon="-74.1127274930477142333984375">
        <ele>2592.39990234375</ele>
        <time>2021-04-25T16:59:36.000Z</time>
      </trkpt>
      <trkpt lat="4.7295249067246913909912109375" lon="-74.1127601824700832366943359375">
        <ele>2592.60009765625</ele>
        <time>2021-04-25T16:59:42.000Z</time>
      </trkpt>
      <trkpt lat="4.72954611293971538543701171875" lon="-74.1127752698957920074462890625">
        <ele>2592.60009765625</ele>
        <time>2021-04-25T16:59:45.000Z</time>
      </trkpt>
      <trkpt lat="4.72956237383186817169189453125" lon="-74.1127863340079784393310546875">
        <ele>2592.800048828125</ele>
        <time>2021-04-25T16:59:47.000Z</time>
      </trkpt>
      <trkpt lat="4.729601852595806121826171875" lon="-74.11282748915255069732666015625">
        <ele>2592.60009765625</ele>
        <time>2021-04-25T16:59:53.000Z</time>
      </trkpt>
      <trkpt lat="4.7296435944736003875732421875" lon="-74.11286788992583751678466796875">
        <ele>2592.39990234375</ele>
        <time>2021-04-25T16:59:59.000Z</time>
      </trkpt>
      <trkpt lat="4.72965004853904247283935546875" lon="-74.11287375725805759429931640625">
        <ele>2592.199951171875</ele>
        <time>2021-04-25T17:00:00.000Z</time>
      </trkpt>
      <trkpt lat="4.7296901978552341461181640625" lon="-74.11290979944169521331787109375">
        <ele>2592.800048828125</ele>
        <time>2021-04-25T17:00:06.000Z</time>
      </trkpt>
      <trkpt lat="4.7297277487814426422119140625" lon="-74.11294600926339626312255859375">
        <ele>2592.800048828125</ele>
        <time>2021-04-25T17:00:12.000Z</time>
      </trkpt>
      <trkpt lat="4.72973353229463100433349609375" lon="-74.11295221187174320220947265625">
        <ele>2592.800048828125</ele>
        <time>2021-04-25T17:00:13.000Z</time>
      </trkpt>
      <trkpt lat="4.729768820106983184814453125" lon="-74.112985990941524505615234375">
        <ele>2592.60009765625</ele>
        <time>2021-04-25T17:00:19.000Z</time>
      </trkpt>
      <trkpt lat="4.7297837398946285247802734375" lon="-74.11300132982432842254638671875">
        <ele>2592.60009765625</ele>
        <time>2021-04-25T17:00:22.000Z</time>
      </trkpt>
      <trkpt lat="4.72978935576975345611572265625" lon="-74.1130066104233264923095703125">
        <ele>2592.60009765625</ele>
        <time>2021-04-25T17:00:23.000Z</time>
      </trkpt>
      <trkpt lat="4.72981014288961887359619140625" lon="-74.11303150467574596405029296875">
        <ele>2592.60009765625</ele>
        <time>2021-04-25T17:00:27.000Z</time>
      </trkpt>
      <trkpt lat="4.72985138185322284698486328125" lon="-74.11306318826973438262939453125">
        <ele>2592.800048828125</ele>
        <time>2021-04-25T17:00:33.000Z</time>
      </trkpt>
      <trkpt lat="4.7298953868448734283447265625" lon="-74.11310157738626003265380859375">
        <ele>2592.60009765625</ele>
        <time>2021-04-25T17:00:39.000Z</time>
      </trkpt>
      <trkpt lat="4.72991659305989742279052734375" lon="-74.11312043666839599609375">
        <ele>2592.60009765625</ele>
        <time>2021-04-25T17:00:42.000Z</time>
      </trkpt>
      <trkpt lat="4.729952551424503326416015625" lon="-74.11315974779427051544189453125">
        <ele>2592.60009765625</ele>
        <time>2021-04-25T17:00:48.000Z</time>
      </trkpt>
      <trkpt lat="4.7299725003540515899658203125" lon="-74.11318279802799224853515625">
        <ele>2592.60009765625</ele>
        <time>2021-04-25T17:00:51.000Z</time>
      </trkpt>
      <trkpt lat="4.7299782000482082366943359375" lon="-74.1131906770169734954833984375">
        <ele>2592.60009765625</ele>
        <time>2021-04-25T17:00:52.000Z</time>
      </trkpt>
      <trkpt lat="4.72999035380780696868896484375" lon="-74.11320484243333339691162109375">
        <ele>2592.60009765625</ele>
        <time>2021-04-25T17:00:54.000Z</time>
      </trkpt>
      <trkpt lat="4.73000577650964260101318359375" lon="-74.1132290661334991455078125">
        <ele>2592.39990234375</ele>
        <time>2021-04-25T17:00:57.000Z</time>
      </trkpt>
      <trkpt lat="4.7300097160041332244873046875" lon="-74.1132372803986072540283203125">
        <ele>2592.39990234375</ele>
        <time>2021-04-25T17:00:58.000Z</time>
      </trkpt>
      <trkpt lat="4.73001617006957530975341796875" lon="-74.1132744960486888885498046875">
        <ele>2592.39990234375</ele>
        <time>2021-04-25T17:01:02.000Z</time>
      </trkpt>
      <trkpt lat="4.7300033457577228546142578125" lon="-74.11331690847873687744140625">
        <ele>2592.60009765625</ele>
        <time>2021-04-25T17:01:08.000Z</time>
      </trkpt>
      <trkpt lat="4.72999437712132930755615234375" lon="-74.11334347911179065704345703125">
        <ele>2592.60009765625</ele>
        <time>2021-04-25T17:01:12.000Z</time>
      </trkpt>
      <trkpt lat="4.729994125664234161376953125" lon="-74.11336979828774929046630859375">
        <ele>2592.60009765625</ele>
        <time>2021-04-25T17:01:15.000Z</time>
      </trkpt>
      <trkpt lat="4.7299964725971221923828125" lon="-74.113405086100101470947265625">
        <ele>2592.60009765625</ele>
        <time>2021-04-25T17:01:19.000Z</time>
      </trkpt>
      <trkpt lat="4.73000879399478435516357421875" lon="-74.11345831118524074554443359375">
        <ele>2592.60009765625</ele>
        <time>2021-04-25T17:01:25.000Z</time>
      </trkpt>
      <trkpt lat="4.7300087101757526397705078125" lon="-74.113472141325473785400390625">
        <ele>2592.39990234375</ele>
        <time>2021-04-25T17:01:27.000Z</time>
      </trkpt>
      <trkpt lat="4.73000577650964260101318359375" lon="-74.113482534885406494140625">
        <ele>2592.199951171875</ele>
        <time>2021-04-25T17:01:29.000Z</time>
      </trkpt>
      <trkpt lat="4.7299983166158199310302734375" lon="-74.11349519155919551849365234375">
        <ele>2592.199951171875</ele>
        <time>2021-04-25T17:01:31.000Z</time>
      </trkpt>
      <trkpt lat="4.72999588586390018463134765625" lon="-74.11350457929074764251708984375">
        <ele>2592.60009765625</ele>
        <time>2021-04-25T17:01:37.000Z</time>
      </trkpt>
      <trkpt lat="4.729997478425502777099609375" lon="-74.1135034896433353424072265625">
        <ele>2592.60009765625</ele>
        <time>2021-04-25T17:01:39.000Z</time>
      </trkpt>
      <trkpt lat="4.73002396523952484130859375" lon="-74.11359175108373165130615234375">
        <ele>2592.60009765625</ele>
        <time>2021-04-25T17:02:14.000Z</time>
      </trkpt>
      <trkpt lat="4.73003528080880641937255859375" lon="-74.1136453114449977874755859375">
        <ele>2592.60009765625</ele>
        <time>2021-04-25T17:02:20.000Z</time>
      </trkpt>
      <trkpt lat="4.73003544844686985015869140625" lon="-74.11367900669574737548828125">
        <ele>2592.800048828125</ele>
        <time>2021-04-25T17:02:25.000Z</time>
      </trkpt>
      <trkpt lat="4.73003662191331386566162109375" lon="-74.11368814297020435333251953125">
        <ele>2592.800048828125</ele>
        <time>2021-04-25T17:02:27.000Z</time>
      </trkpt>
      <trkpt lat="4.730037041008472442626953125" lon="-74.11369509994983673095703125">
        <ele>2592.60009765625</ele>
        <time>2021-04-25T17:02:33.000Z</time>
      </trkpt>
      <trkpt lat="4.73003829829394817352294921875" lon="-74.11369468085467815399169921875">
        <ele>2592.60009765625</ele>
        <time>2021-04-25T17:02:39.000Z</time>
      </trkpt>
      <trkpt lat="4.73003813065588474273681640625" lon="-74.113695435225963592529296875">
        <ele>2592.39990234375</ele>
        <time>2021-04-25T17:02:41.000Z</time>
      </trkpt>
      <trkpt lat="4.73001600243151187896728515625" lon="-74.1136342473328113555908203125">
        <ele>2592.199951171875</ele>
        <time>2021-04-25T17:04:08.000Z</time>
      </trkpt>
      <trkpt lat="4.730006866157054901123046875" lon="-74.11361773498356342315673828125">
        <ele>2592.199951171875</ele>
        <time>2021-04-25T17:04:10.000Z</time>
      </trkpt>
      <trkpt lat="4.72999806515872478485107421875" lon="-74.11360382102429866790771484375">
        <ele>2592.199951171875</ele>
        <time>2021-04-25T17:04:12.000Z</time>
      </trkpt>
      <trkpt lat="4.7299808822572231292724609375" lon="-74.11357029341161251068115234375">
        <ele>2592.199951171875</ele>
        <time>2021-04-25T17:04:16.000Z</time>
      </trkpt>
      <trkpt lat="4.72998348064720630645751953125" lon="-74.11354933865368366241455078125">
        <ele>2592.39990234375</ele>
        <time>2021-04-25T17:04:19.000Z</time>
      </trkpt>
      <trkpt lat="4.72998348064720630645751953125" lon="-74.11353643052279949188232421875">
        <ele>2592.60009765625</ele>
        <time>2021-04-25T17:04:22.000Z</time>
      </trkpt>
      <trkpt lat="4.7299986518919467926025390625" lon="-74.11354011856019496917724609375">
        <ele>2592.39990234375</ele>
        <time>2021-04-25T17:04:26.000Z</time>
      </trkpt>
      <trkpt lat="4.73002396523952484130859375" lon="-74.11357364617288112640380859375">
        <ele>2591.800048828125</ele>
        <time>2021-04-25T17:04:54.000Z</time>
      </trkpt>
      <trkpt lat="4.73002664744853973388671875" lon="-74.1135933436453342437744140625">
        <ele>2592.800048828125</ele>
        <time>2021-04-25T17:04:56.000Z</time>
      </trkpt>
      <trkpt lat="4.73003595136106014251708984375" lon="-74.11365092732012271881103515625">
        <ele>2592</ele>
        <time>2021-04-25T17:05:02.000Z</time>
      </trkpt>
      <trkpt lat="4.73004802130162715911865234375" lon="-74.11366517655551433563232421875">
        <ele>2592</ele>
        <time>2021-04-25T17:05:04.000Z</time>
      </trkpt>
      <trkpt lat="4.7300603426992893218994140625" lon="-74.11368378438055515289306640625">
        <ele>2592.199951171875</ele>
        <time>2021-04-25T17:05:07.000Z</time>
      </trkpt>
      <trkpt lat="4.73006713204085826873779296875" lon="-74.113704152405261993408203125">
        <ele>2592.199951171875</ele>
        <time>2021-04-25T17:05:10.000Z</time>
      </trkpt>
      <trkpt lat="4.7300653718411922454833984375" lon="-74.1137264482676982879638671875">
        <ele>2592.39990234375</ele>
        <time>2021-04-25T17:05:13.000Z</time>
      </trkpt>
      <trkpt lat="4.7300506196916103363037109375" lon="-74.11375586874783039093017578125">
        <ele>2592.199951171875</ele>
        <time>2021-04-25T17:05:19.000Z</time>
      </trkpt>
      <trkpt lat="4.730046428740024566650390625" lon="-74.1137636639177799224853515625">
        <ele>2591.800048828125</ele>
        <time>2021-04-25T17:05:25.000Z</time>
      </trkpt>
      <trkpt lat="4.73004634492099285125732421875" lon="-74.113765843212604522705078125">
        <ele>2592</ele>
        <time>2021-04-25T17:05:31.000Z</time>
      </trkpt>
      <trkpt lat="4.73004668019711971282958984375" lon="-74.11376609466969966888427734375">
        <ele>2592</ele>
        <time>2021-04-25T17:05:32.000Z</time>
      </trkpt>
      <trkpt lat="4.7300474345684051513671875" lon="-74.11376760341227054595947265625">
        <ele>2592</ele>
        <time>2021-04-25T17:05:34.000Z</time>
      </trkpt>
      <trkpt lat="4.73005506210029125213623046875" lon="-74.1137049905955791473388671875">
        <ele>2591.60009765625</ele>
        <time>2021-04-25T17:10:40.000Z</time>
      </trkpt>
      <trkpt lat="4.730059839785099029541015625" lon="-74.11368646658957004547119140625">
        <ele>2591.60009765625</ele>
        <time>2021-04-25T17:10:42.000Z</time>
      </trkpt>
      <trkpt lat="4.73004852421581745147705078125" lon="-74.11365411244332790374755859375">
        <ele>2593.60009765625</ele>
        <time>2021-04-25T17:10:46.000Z</time>
      </trkpt>
      <trkpt lat="4.73004198633134365081787109375" lon="-74.11365008912980556488037109375">
        <ele>2592</ele>
        <time>2021-04-25T17:10:47.000Z</time>
      </trkpt>
      <trkpt lat="4.73003796301782131195068359375" lon="-74.1136479936540126800537109375">
        <ele>2592.39990234375</ele>
        <time>2021-04-25T17:10:48.000Z</time>
      </trkpt>
      <trkpt lat="4.73003603518009185791015625" lon="-74.11364053376019001007080078125">
        <ele>2592.39990234375</ele>
        <time>2021-04-25T17:10:53.000Z</time>
      </trkpt>
      <trkpt lat="4.73003544844686985015869140625" lon="-74.11363768391311168670654296875">
        <ele>2592.39990234375</ele>
        <time>2021-04-25T17:10:54.000Z</time>
      </trkpt>
      <trkpt lat="4.73000611178576946258544921875" lon="-74.11360180936753749847412109375">
        <ele>2592</ele>
        <time>2021-04-25T17:11:03.000Z</time>
      </trkpt>
      <trkpt lat="4.7300030104815959930419921875" lon="-74.11359778605401515960693359375">
        <ele>2592</ele>
        <time>2021-04-25T17:11:04.000Z</time>
      </trkpt>
      <trkpt lat="4.72999722696840763092041015625" lon="-74.11358781158924102783203125">
        <ele>2591.800048828125</ele>
        <time>2021-04-25T17:11:06.000Z</time>
      </trkpt>
      <trkpt lat="4.72999186255037784576416015625" lon="-74.11357565782964229583740234375">
        <ele>2592</ele>
        <time>2021-04-25T17:11:09.000Z</time>
      </trkpt>
      <trkpt lat="4.7299909405410289764404296875" lon="-74.11357297562062740325927734375">
        <ele>2592.199951171875</ele>
        <time>2021-04-25T17:11:10.000Z</time>
      </trkpt>
      <trkpt lat="4.7299822233617305755615234375" lon="-74.11350105889141559600830078125">
        <ele>2592.800048828125</ele>
        <time>2021-04-25T17:11:25.000Z</time>
      </trkpt>
      <trkpt lat="4.72998582758009433746337890625" lon="-74.1134937666356563568115234375">
        <ele>2592.800048828125</ele>
        <time>2021-04-25T17:11:29.000Z</time>
      </trkpt>
      <trkpt lat="4.7300241328775882720947265625" lon="-74.1135671921074390411376953125">
        <ele>2591.60009765625</ele>
        <time>2021-04-25T17:21:42.000Z</time>
      </trkpt>
      <trkpt lat="4.73002756945788860321044921875" lon="-74.11357331089675426483154296875">
        <ele>2591.60009765625</ele>
        <time>2021-04-25T17:21:43.000Z</time>
      </trkpt>
      <trkpt lat="4.7300315089523792266845703125" lon="-74.113600552082061767578125">
        <ele>2592.199951171875</ele>
        <time>2021-04-25T17:21:47.000Z</time>
      </trkpt>
      <trkpt lat="4.73003159277141094207763671875" lon="-74.11360817961394786834716796875">
        <ele>2592.39990234375</ele>
        <time>2021-04-25T17:21:48.000Z</time>
      </trkpt>
      <trkpt lat="4.730030000209808349609375" lon="-74.11365092732012271881103515625">
        <ele>2592.800048828125</ele>
        <time>2021-04-25T17:21:54.000Z</time>
      </trkpt>
      <trkpt lat="4.7300288267433643341064453125" lon="-74.11366333253681659698486328125">
        <ele>2592.800048828125</ele>
        <time>2021-04-25T17:21:56.000Z</time>
      </trkpt>
      <trkpt lat="4.73002396523952484130859375" lon="-74.1136855445802211761474609375">
        <ele>2592.800048828125</ele>
        <time>2021-04-25T17:22:01.000Z</time>
      </trkpt>
      <trkpt lat="4.73001767881214618682861328125" lon="-74.113661907613277435302734375">
        <ele>2592.60009765625</ele>
        <time>2021-04-25T17:22:07.000Z</time>
      </trkpt>
      <trkpt lat="4.730011560022830963134765625" lon="-74.11364170722663402557373046875">
        <ele>2592.39990234375</ele>
        <time>2021-04-25T17:22:10.000Z</time>
      </trkpt>
      <trkpt lat="4.73000443540513515472412109375" lon="-74.1136044077575206756591796875">
        <ele>2592.60009765625</ele>
        <time>2021-04-25T17:22:15.000Z</time>
      </trkpt>
      <trkpt lat="4.7299802117049694061279296875" lon="-74.11357716657221317291259765625">
        <ele>2592.800048828125</ele>
        <time>2021-04-25T17:22:21.000Z</time>
      </trkpt>
      <trkpt lat="4.72997643984854221343994140625" lon="-74.11357834003865718841552734375">
        <ele>2592.800048828125</ele>
        <time>2021-04-25T17:22:22.000Z</time>
      </trkpt>
      <trkpt lat="4.72997157834470272064208984375" lon="-74.11357968114316463470458984375">
        <ele>2592.800048828125</ele>
        <time>2021-04-25T17:22:23.000Z</time>
      </trkpt>
      <trkpt lat="4.7299668006598949432373046875" lon="-74.11358068697154521942138671875">
        <ele>2593</ele>
        <time>2021-04-25T17:22:24.000Z</time>
      </trkpt>
      <trkpt lat="4.7299617715179920196533203125" lon="-74.1135816089808940887451171875">
        <ele>2592.800048828125</ele>
        <time>2021-04-25T17:22:29.000Z</time>
      </trkpt>
      <trkpt lat="4.7299616038799285888671875" lon="-74.1135832853615283966064453125">
        <ele>2592.800048828125</ele>
        <time>2021-04-25T17:22:31.000Z</time>
      </trkpt>
      <trkpt lat="4.72996294498443603515625" lon="-74.113584123551845550537109375">
        <ele>2592.60009765625</ele>
        <time>2021-04-25T17:22:32.000Z</time>
      </trkpt>
      <trkpt lat="4.72997878678143024444580078125" lon="-74.113522432744503021240234375">
        <ele>2592.800048828125</ele>
        <time>2021-04-25T17:22:48.000Z</time>
      </trkpt>
      <trkpt lat="4.7299842350184917449951171875" lon="-74.11351094953715801239013671875">
        <ele>2593</ele>
        <time>2021-04-25T17:22:50.000Z</time>
      </trkpt>
      <trkpt lat="4.72998641431331634521484375" lon="-74.11350776441395282745361328125">
        <ele>2593</ele>
        <time>2021-04-25T17:22:51.000Z</time>
      </trkpt>
      <trkpt lat="4.72998817451298236846923828125" lon="-74.11350139416754245758056640625">
        <ele>2592.39990234375</ele>
        <time>2021-04-25T17:22:54.000Z</time>
      </trkpt>
      <trkpt lat="4.72998968325555324554443359375" lon="-74.11350239999592304229736328125">
        <ele>2592.60009765625</ele>
        <time>2021-04-25T17:22:55.000Z</time>
      </trkpt>
      <trkpt lat="4.7300526313483715057373046875" lon="-74.113433249294757843017578125">
        <ele>2593.199951171875</ele>
        <time>2021-04-25T17:37:35.000Z</time>
      </trkpt>
      <trkpt lat="4.73005950450897216796875" lon="-74.113430567085742950439453125">
        <ele>2593.199951171875</ele>
        <time>2021-04-25T17:37:36.000Z</time>
      </trkpt>
      <trkpt lat="4.73009395413100719451904296875" lon="-74.11340282298624515533447265625">
        <ele>2592.39990234375</ele>
        <time>2021-04-25T17:37:42.000Z</time>
      </trkpt>
      <trkpt lat="4.73010065965354442596435546875" lon="-74.11340030841529369354248046875">
        <ele>2592.39990234375</ele>
        <time>2021-04-25T17:37:43.000Z</time>
      </trkpt>
      <trkpt lat="4.73014122806489467620849609375" lon="-74.11337231285870075225830078125">
        <ele>2592.39990234375</ele>
        <time>2021-04-25T17:37:49.000Z</time>
      </trkpt>
      <trkpt lat="4.73018129356205463409423828125" lon="-74.113346077501773834228515625">
        <ele>2592.60009765625</ele>
        <time>2021-04-25T17:37:55.000Z</time>
      </trkpt>
      <trkpt lat="4.73018598742783069610595703125" lon="-74.1133403778076171875">
        <ele>2592.60009765625</ele>
        <time>2021-04-25T17:37:56.000Z</time>
      </trkpt>
      <trkpt lat="4.73020258359611034393310546875" lon="-74.1133283078670501708984375">
        <ele>2592.199951171875</ele>
        <time>2021-04-25T17:38:02.000Z</time>
      </trkpt>
      <trkpt lat="4.7302048467099666595458984375" lon="-74.113328643143177032470703125">
        <ele>2592.199951171875</ele>
        <time>2021-04-25T17:38:04.000Z</time>
      </trkpt>
      <trkpt lat="4.730204679071903228759765625" lon="-74.11332805640995502471923828125">
        <ele>2592.199951171875</ele>
        <time>2021-04-25T17:38:08.000Z</time>
      </trkpt>
      <trkpt lat="4.73010736517608165740966796875" lon="-74.11330492235720157623291015625">
        <ele>2593.199951171875</ele>
        <time>2021-04-25T17:38:36.000Z</time>
      </trkpt>
      <trkpt lat="4.7300921939313411712646484375" lon="-74.11329989321529865264892578125">
        <ele>2593.199951171875</ele>
        <time>2021-04-25T17:38:38.000Z</time>
      </trkpt>
      <trkpt lat="4.73006151616573333740234375" lon="-74.1132694669067859649658203125">
        <ele>2593</ele>
        <time>2021-04-25T17:38:44.000Z</time>
      </trkpt>
      <trkpt lat="4.73005422390997409820556640625" lon="-74.113260917365550994873046875">
        <ele>2592.800048828125</ele>
        <time>2021-04-25T17:38:45.000Z</time>
      </trkpt>
      <trkpt lat="4.73004668019711971282958984375" lon="-74.1132537089288234710693359375">
        <ele>2592.800048828125</ele>
        <time>2021-04-25T17:38:46.000Z</time>
      </trkpt>
      <trkpt lat="4.73003963939845561981201171875" lon="-74.11324591375887393951416015625">
        <ele>2592.800048828125</ele>
        <time>2021-04-25T17:38:47.000Z</time>
      </trkpt>
      <trkpt lat="4.7300268150866031646728515625" lon="-74.113236106932163238525390625">
        <ele>2592.60009765625</ele>
        <time>2021-04-25T17:38:49.000Z</time>
      </trkpt>
      <trkpt lat="4.730021953582763671875" lon="-74.11323049105703830718994140625">
        <ele>2592.39990234375</ele>
        <time>2021-04-25T17:38:51.000Z</time>
      </trkpt>
      <trkpt lat="4.73002186976373195648193359375" lon="-74.1132255457341670989990234375">
        <ele>2592.39990234375</ele>
        <time>2021-04-25T17:38:53.000Z</time>
      </trkpt>
      <trkpt lat="4.7300206124782562255859375" lon="-74.1132272221148014068603515625">
        <ele>2592.60009765625</ele>
        <time>2021-04-25T17:38:55.000Z</time>
      </trkpt>
      <trkpt lat="4.7300206124782562255859375" lon="-74.1132290661334991455078125">
        <ele>2592.60009765625</ele>
        <time>2021-04-25T17:38:57.000Z</time>
      </trkpt>
      <trkpt lat="4.729987420141696929931640625" lon="-74.11318958736956119537353515625">
        <ele>2592.800048828125</ele>
        <time>2021-04-25T17:39:08.000Z</time>
      </trkpt>
      <trkpt lat="4.72998515702784061431884765625" lon="-74.11318589933216571807861328125">
        <ele>2592.800048828125</ele>
        <time>2021-04-25T17:39:09.000Z</time>
      </trkpt>
      <trkpt lat="4.72998247481882572174072265625" lon="-74.11318120546638965606689453125">
        <ele>2592.800048828125</ele>
        <time>2021-04-25T17:39:10.000Z</time>
      </trkpt>
      <trkpt lat="4.7299634478986263275146484375" lon="-74.11315924488008022308349609375">
        <ele>2592.60009765625</ele>
        <time>2021-04-25T17:39:14.000Z</time>
      </trkpt>
      <trkpt lat="4.72994827665388584136962890625" lon="-74.113140217959880828857421875">
        <ele>2593</ele>
        <time>2021-04-25T17:39:17.000Z</time>
      </trkpt>
      <trkpt lat="4.72993587143719196319580078125" lon="-74.1131279803812503814697265625">
        <ele>2593</ele>
        <time>2021-04-25T17:39:19.000Z</time>
      </trkpt>
      <trkpt lat="4.7299309261143207550048828125" lon="-74.11311901174485683441162109375">
        <ele>2593</ele>
        <time>2021-04-25T17:39:21.000Z</time>
      </trkpt>
      <trkpt lat="4.72993067465722560882568359375" lon="-74.1131179220974445343017578125">
        <ele>2593</ele>
        <time>2021-04-25T17:39:23.000Z</time>
      </trkpt>
      <trkpt lat="4.729923047125339508056640625" lon="-74.1131078638136386871337890625">
        <ele>2593</ele>
        <time>2021-04-25T17:39:25.000Z</time>
      </trkpt>
      <trkpt lat="4.729917682707309722900390625" lon="-74.11310425959527492523193359375">
        <ele>2593</ele>
        <time>2021-04-25T17:39:26.000Z</time>
      </trkpt>
      <trkpt lat="4.729877449572086334228515625" lon="-74.1130756773054599761962890625">
        <ele>2593.199951171875</ele>
        <time>2021-04-25T17:39:32.000Z</time>
      </trkpt>
      <trkpt lat="4.72984501160681247711181640625" lon="-74.11304642446339130401611328125">
        <ele>2592.800048828125</ele>
        <time>2021-04-25T17:39:37.000Z</time>
      </trkpt>
      <trkpt lat="4.72984082065522670745849609375" lon="-74.11304198205471038818359375">
        <ele>2592.39990234375</ele>
        <time>2021-04-25T17:39:38.000Z</time>
      </trkpt>
      <trkpt lat="4.72980729304254055023193359375" lon="-74.1130045987665653228759765625">
        <ele>2592.39990234375</ele>
        <time>2021-04-25T17:39:44.000Z</time>
      </trkpt>
      <trkpt lat="4.72976873628795146942138671875" lon="-74.11297752521932125091552734375">
        <ele>2592.60009765625</ele>
        <time>2021-04-25T17:39:50.000Z</time>
      </trkpt>
      <trkpt lat="4.72975532524287700653076171875" lon="-74.1129670478403568267822265625">
        <ele>2592.60009765625</ele>
        <time>2021-04-25T17:39:52.000Z</time>
      </trkpt>
      <trkpt lat="4.72972213290631771087646484375" lon="-74.11292891018092632293701171875">
        <ele>2592.800048828125</ele>
        <time>2021-04-25T17:39:58.000Z</time>
      </trkpt>
      <trkpt lat="4.72970671020448207855224609375" lon="-74.112912230193614959716796875">
        <ele>2593</ele>
        <time>2021-04-25T17:40:01.000Z</time>
      </trkpt>
      <trkpt lat="4.729670919477939605712890625" lon="-74.1128771938383579254150390625">
        <ele>2592.800048828125</ele>
        <time>2021-04-25T17:40:07.000Z</time>
      </trkpt>
      <trkpt lat="4.729667566716670989990234375" lon="-74.1128735058009624481201171875">
        <ele>2592.800048828125</ele>
        <time>2021-04-25T17:40:08.000Z</time>
      </trkpt>
      <trkpt lat="4.72963596694171428680419921875" lon="-74.11283788271248340606689453125">
        <ele>2592.60009765625</ele>
        <time>2021-04-25T17:40:14.000Z</time>
      </trkpt>
      <trkpt lat="4.72959673963487148284912109375" lon="-74.11280536092817783355712890625">
        <ele>2592.39990234375</ele>
        <time>2021-04-25T17:40:20.000Z</time>
      </trkpt>
      <trkpt lat="4.729584753513336181640625" lon="-74.11279044114053249359130859375">
        <ele>2592.39990234375</ele>
        <time>2021-04-25T17:40:22.000Z</time>
      </trkpt>
      <trkpt lat="4.7295497171580791473388671875" lon="-74.1127541474997997283935546875">
        <ele>2592.39990234375</ele>
        <time>2021-04-25T17:40:28.000Z</time>
      </trkpt>
      <trkpt lat="4.72951744683086872100830078125" lon="-74.1127182729542255401611328125">
        <ele>2592.39990234375</ele>
        <time>2021-04-25T17:40:34.000Z</time>
      </trkpt>
      <trkpt lat="4.7295002639293670654296875" lon="-74.112698994576930999755859375">
        <ele>2592.39990234375</ele>
        <time>2021-04-25T17:40:37.000Z</time>
      </trkpt>
      <trkpt lat="4.72949288785457611083984375" lon="-74.1126911155879497528076171875">
        <ele>2592.39990234375</ele>
        <time>2021-04-25T17:40:38.000Z</time>
      </trkpt>
      <trkpt lat="4.72948559559881687164306640625" lon="-74.11268348805606365203857421875">
        <ele>2592.39990234375</ele>
        <time>2021-04-25T17:40:39.000Z</time>
      </trkpt>
      <trkpt lat="4.72946095280349254608154296875" lon="-74.11266085691750049591064453125">
        <ele>2592.60009765625</ele>
        <time>2021-04-25T17:40:43.000Z</time>
      </trkpt>
      <trkpt lat="4.72945307381451129913330078125" lon="-74.1126555763185024261474609375">
        <ele>2592.60009765625</ele>
        <time>2021-04-25T17:40:45.000Z</time>
      </trkpt>
      <trkpt lat="4.7294464521110057830810546875" lon="-74.1126538999378681182861328125">
        <ele>2592.60009765625</ele>
        <time>2021-04-25T17:40:47.000Z</time>
      </trkpt>
      <trkpt lat="4.729429185390472412109375" lon="-74.11264241673052310943603515625">
        <ele>2592.60009765625</ele>
        <time>2021-04-25T17:40:50.000Z</time>
      </trkpt>
      <trkpt lat="4.7294021956622600555419921875" lon="-74.112610481679439544677734375">
        <ele>2592.199951171875</ele>
        <time>2021-04-25T17:40:58.000Z</time>
      </trkpt>
      <trkpt lat="4.7293956577777862548828125" lon="-74.11260251887142658233642578125">
        <ele>2592.199951171875</ele>
        <time>2021-04-25T17:41:00.000Z</time>
      </trkpt>
      <trkpt lat="4.72937847487628459930419921875" lon="-74.1125811450183391571044921875">
        <ele>2591.800048828125</ele>
        <time>2021-04-25T17:41:04.000Z</time>
      </trkpt>
      <trkpt lat="4.72937428392469882965087890625" lon="-74.1125746071338653564453125">
        <ele>2591.800048828125</ele>
        <time>2021-04-25T17:41:05.000Z</time>
      </trkpt>
      <trkpt lat="4.7293674945831298828125" lon="-74.1125637106597423553466796875">
        <ele>2591.800048828125</ele>
        <time>2021-04-25T17:41:07.000Z</time>
      </trkpt>
      <trkpt lat="4.729359783232212066650390625" lon="-74.11254920996725559234619140625">
        <ele>2592</ele>
        <time>2021-04-25T17:41:09.000Z</time>
      </trkpt>
      <trkpt lat="4.72935517318546772003173828125" lon="-74.1125405766069889068603515625">
        <ele>2592</ele>
        <time>2021-04-25T17:41:11.000Z</time>
      </trkpt>
      <trkpt lat="4.7293465398252010345458984375" lon="-74.1125315241515636444091796875">
        <ele>2592</ele>
        <time>2021-04-25T17:41:14.000Z</time>
      </trkpt>
      <trkpt lat="4.72932927310466766357421875" lon="-74.1125063784420490264892578125">
        <ele>2592.199951171875</ele>
        <time>2021-04-25T17:41:19.000Z</time>
      </trkpt>
      <trkpt lat="4.72931443713605403900146484375" lon="-74.11248165182769298553466796875">
        <ele>2592.39990234375</ele>
        <time>2021-04-25T17:41:23.000Z</time>
      </trkpt>
      <trkpt lat="4.7292949073016643524169921875" lon="-74.11244879476726055145263671875">
        <ele>2592.39990234375</ele>
        <time>2021-04-25T17:41:29.000Z</time>
      </trkpt>
      <trkpt lat="4.7292803227901458740234375" lon="-74.11242314614355564117431640625">
        <ele>2592.199951171875</ele>
        <time>2021-04-25T17:41:34.000Z</time>
      </trkpt>
      <trkpt lat="4.72925459034740924835205078125" lon="-74.1123843379318714141845703125">
        <ele>2592</ele>
        <time>2021-04-25T17:41:40.000Z</time>
      </trkpt>
      <trkpt lat="4.72924034111201763153076171875" lon="-74.11236070096492767333984375">
        <ele>2592.60009765625</ele>
        <time>2021-04-25T17:41:43.000Z</time>
      </trkpt>
      <trkpt lat="4.7292358987033367156982421875" lon="-74.11235399544239044189453125">
        <ele>2592.39990234375</ele>
        <time>2021-04-25T17:41:44.000Z</time>
      </trkpt>
      <trkpt lat="4.7292132675647735595703125" lon="-74.11231585778295993804931640625">
        <ele>2592.39990234375</ele>
        <time>2021-04-25T17:41:49.000Z</time>
      </trkpt>
      <trkpt lat="4.7291783988475799560546875" lon="-74.1122720204293727874755859375">
        <ele>2592.39990234375</ele>
        <time>2021-04-25T17:41:55.000Z</time>
      </trkpt>
      <trkpt lat="4.72914378158748149871826171875" lon="-74.11222164519131183624267578125">
        <ele>2592.39990234375</ele>
        <time>2021-04-25T17:42:01.000Z</time>
      </trkpt>
      <trkpt lat="4.72912810742855072021484375" lon="-74.11219867877662181854248046875">
        <ele>2592.39990234375</ele>
        <time>2021-04-25T17:42:04.000Z</time>
      </trkpt>
      <trkpt lat="4.72912768833339214324951171875" lon="-74.11219465546309947967529296875">
        <ele>2592.39990234375</ele>
        <time>2021-04-25T17:42:05.000Z</time>
      </trkpt>
      <trkpt lat="4.72910522483289241790771484375" lon="-74.11217085085809230804443359375">
        <ele>2592.39990234375</ele>
        <time>2021-04-25T17:42:11.000Z</time>
      </trkpt>
      <trkpt lat="4.7290810011327266693115234375" lon="-74.11214000545442104339599609375">
        <ele>2592.39990234375</ele>
        <time>2021-04-25T17:42:16.000Z</time>
      </trkpt>
      <trkpt lat="4.72904504276812076568603515625" lon="-74.11210362799465656280517578125">
        <ele>2592.60009765625</ele>
        <time>2021-04-25T17:42:22.000Z</time>
      </trkpt>
      <trkpt lat="4.72902878187596797943115234375" lon="-74.11208619363605976104736328125">
        <ele>2592.60009765625</ele>
        <time>2021-04-25T17:42:25.000Z</time>
      </trkpt>
      <trkpt lat="4.7290099225938320159912109375" lon="-74.11207328550517559051513671875">
        <ele>2592.60009765625</ele>
        <time>2021-04-25T17:42:28.000Z</time>
      </trkpt>
      <trkpt lat="4.7290028817951679229736328125" lon="-74.11206641234457492828369140625">
        <ele>2592.60009765625</ele>
        <time>2021-04-25T17:42:31.000Z</time>
      </trkpt>
      <trkpt lat="4.729001708328723907470703125" lon="-74.1120607964694499969482421875">
        <ele>2592.60009765625</ele>
        <time>2021-04-25T17:42:33.000Z</time>
      </trkpt>
      <trkpt lat="4.72899793647229671478271484375" lon="-74.1120567731559276580810546875">
        <ele>2592.60009765625</ele>
        <time>2021-04-25T17:42:34.000Z</time>
      </trkpt>
      <trkpt lat="4.7289240919053554534912109375" lon="-74.11199650727212429046630859375">
        <ele>2592</ele>
        <time>2021-04-25T17:42:48.000Z</time>
      </trkpt>
      <trkpt lat="4.7288895584642887115478515625" lon="-74.11196951754391193389892578125">
        <ele>2592.800048828125</ele>
        <time>2021-04-25T17:42:54.000Z</time>
      </trkpt>
      <trkpt lat="4.728882014751434326171875" lon="-74.111964404582977294921875">
        <ele>2593</ele>
        <time>2021-04-25T17:42:55.000Z</time>
      </trkpt>
      <trkpt lat="4.728834740817546844482421875" lon="-74.11194018088281154632568359375">
        <ele>2593</ele>
        <time>2021-04-25T17:43:01.000Z</time>
      </trkpt>
      <trkpt lat="4.7287789173424243927001953125" lon="-74.11191989667713642120361328125">
        <ele>2593</ele>
        <time>2021-04-25T17:43:07.000Z</time>
      </trkpt>
      <trkpt lat="4.7287708707153797149658203125" lon="-74.11191805265843868255615234375">
        <ele>2593</ele>
        <time>2021-04-25T17:43:08.000Z</time>
      </trkpt>
      <trkpt lat="4.7287519276142120361328125" lon="-74.11191352643072605133056640625">
        <ele>2593.199951171875</ele>
        <time>2021-04-25T17:43:10.000Z</time>
      </trkpt>
      <trkpt lat="4.7287346608936786651611328125" lon="-74.11190648563206195831298828125">
        <ele>2593.199951171875</ele>
        <time>2021-04-25T17:43:12.000Z</time>
      </trkpt>
      <trkpt lat="4.728694595396518707275390625" lon="-74.11189106293022632598876953125">
        <ele>2593.199951171875</ele>
        <time>2021-04-25T17:43:17.000Z</time>
      </trkpt>
      <trkpt lat="4.72867322154343128204345703125" lon="-74.1118784062564373016357421875">
        <ele>2593.199951171875</ele>
        <time>2021-04-25T17:43:20.000Z</time>
      </trkpt>
      <trkpt lat="4.7286444716155529022216796875" lon="-74.11185401491820812225341796875">
        <ele>2593.199951171875</ele>
        <time>2021-04-25T17:43:24.000Z</time>
      </trkpt>
      <trkpt lat="4.72860465757548809051513671875" lon="-74.11181579343974590301513671875">
        <ele>2593.199951171875</ele>
        <time>2021-04-25T17:43:30.000Z</time>
      </trkpt>
      <trkpt lat="4.72859711386263370513916015625" lon="-74.11180975846946239471435546875">
        <ele>2593.199951171875</ele>
        <time>2021-04-25T17:43:31.000Z</time>
      </trkpt>
      <trkpt lat="4.72859024070203304290771484375" lon="-74.1118022985756397247314453125">
        <ele>2593.39990234375</ele>
        <time>2021-04-25T17:43:32.000Z</time>
      </trkpt>
      <trkpt lat="4.7285462357103824615478515625" lon="-74.1117647476494312286376953125">
        <ele>2592.60009765625</ele>
        <time>2021-04-25T17:43:38.000Z</time>
      </trkpt>
      <trkpt lat="4.7285368479788303375244140625" lon="-74.11175862886011600494384765625">
        <ele>2592.60009765625</ele>
        <time>2021-04-25T17:43:39.000Z</time>
      </trkpt>
      <trkpt lat="4.72849669866263866424560546875" lon="-74.1117218323051929473876953125">
        <ele>2592.60009765625</ele>
        <time>2021-04-25T17:43:45.000Z</time>
      </trkpt>
      <trkpt lat="4.7284547053277492523193359375" lon="-74.1116896457970142364501953125">
        <ele>2592.60009765625</ele>
        <time>2021-04-25T17:43:51.000Z</time>
      </trkpt>
      <trkpt lat="4.72844741307199001312255859375" lon="-74.111685119569301605224609375">
        <ele>2592.60009765625</ele>
        <time>2021-04-25T17:43:52.000Z</time>
      </trkpt>
      <trkpt lat="4.72841975279152393341064453125" lon="-74.111660979688167572021484375">
        <ele>2592.39990234375</ele>
        <time>2021-04-25T17:43:56.000Z</time>
      </trkpt>
      <trkpt lat="4.72837348468601703643798828125" lon="-74.11162418313324451446533203125">
        <ele>2592.60009765625</ele>
        <time>2021-04-25T17:44:02.000Z</time>
      </trkpt>
      <trkpt lat="4.72834347747266292572021484375" lon="-74.11159903742372989654541015625">
        <ele>2592.60009765625</ele>
        <time>2021-04-25T17:44:06.000Z</time>
      </trkpt>
      <trkpt lat="4.72833526320755481719970703125" lon="-74.11159568466246128082275390625">
        <ele>2592.60009765625</ele>
        <time>2021-04-25T17:44:07.000Z</time>
      </trkpt>
      <trkpt lat="4.72832671366631984710693359375" lon="-74.11159032024443149566650390625">
        <ele>2592.60009765625</ele>
        <time>2021-04-25T17:44:08.000Z</time>
      </trkpt>
      <trkpt lat="4.7283041663467884063720703125" lon="-74.111573807895183563232421875">
        <ele>2592.60009765625</ele>
        <time>2021-04-25T17:44:11.000Z</time>
      </trkpt>
      <trkpt lat="4.72825110889971256256103515625" lon="-74.1115508414804935455322265625">
        <ele>2592.60009765625</ele>
        <time>2021-04-25T17:44:17.000Z</time>
      </trkpt>
      <trkpt lat="4.72821875475347042083740234375" lon="-74.1115360893309116363525390625">
        <ele>2592.60009765625</ele>
        <time>2021-04-25T17:44:21.000Z</time>
      </trkpt>
      <trkpt lat="4.728167541325092315673828125" lon="-74.1115169785916805267333984375">
        <ele>2592.60009765625</ele>
        <time>2021-04-25T17:44:27.000Z</time>
      </trkpt>
      <trkpt lat="4.7281244583427906036376953125" lon="-74.1114978678524494171142578125">
        <ele>2592.800048828125</ele>
        <time>2021-04-25T17:44:33.000Z</time>
      </trkpt>
      <trkpt lat="4.7281090356409549713134765625" lon="-74.11148521117866039276123046875">
        <ele>2592.60009765625</ele>
        <time>2021-04-25T17:44:35.000Z</time>
      </trkpt>
      <trkpt lat="4.72810216248035430908203125" lon="-74.11147691309452056884765625">
        <ele>2592.60009765625</ele>
        <time>2021-04-25T17:44:36.000Z</time>
      </trkpt>
      <trkpt lat="4.7280627675354480743408203125" lon="-74.1114288009703159332275390625">
        <ele>2592.60009765625</ele>
        <time>2021-04-25T17:44:42.000Z</time>
      </trkpt>
      <trkpt lat="4.72802144475281238555908203125" lon="-74.1113939322531223297119140625">
        <ele>2592.800048828125</ele>
        <time>2021-04-25T17:44:48.000Z</time>
      </trkpt>
      <trkpt lat="4.727977104485034942626953125" lon="-74.11135110072791576385498046875">
        <ele>2593.199951171875</ele>
        <time>2021-04-25T17:44:54.000Z</time>
      </trkpt>
      <trkpt lat="4.72794332541525363922119140625" lon="-74.11131857894361019134521484375">
        <ele>2592.800048828125</ele>
        <time>2021-04-25T17:44:59.000Z</time>
      </trkpt>
      <trkpt lat="4.7279004938900470733642578125" lon="-74.11128940992057323455810546875">
        <ele>2593</ele>
        <time>2021-04-25T17:45:05.000Z</time>
      </trkpt>
      <trkpt lat="4.727861098945140838623046875" lon="-74.111267030239105224609375">
        <ele>2593</ele>
        <time>2021-04-25T17:45:10.000Z</time>
      </trkpt>
      <trkpt lat="4.7278139926493167877197265625" lon="-74.1112386994063854217529296875">
        <ele>2593</ele>
        <time>2021-04-25T17:45:16.000Z</time>
      </trkpt>
      <trkpt lat="4.72777434624731540679931640625" lon="-74.111213721334934234619140625">
        <ele>2592.800048828125</ele>
        <time>2021-04-25T17:45:21.000Z</time>
      </trkpt>
      <trkpt lat="4.72772262990474700927734375" lon="-74.1111820377409458160400390625">
        <ele>2593</ele>
        <time>2021-04-25T17:45:27.000Z</time>
      </trkpt>
      <trkpt lat="4.72768507897853851318359375" lon="-74.111156053841114044189453125">
        <ele>2593</ele>
        <time>2021-04-25T17:45:32.000Z</time>
      </trkpt>
      <trkpt lat="4.7276493720710277557373046875" lon="-74.111133255064487457275390625">
        <ele>2592.800048828125</ele>
        <time>2021-04-25T17:45:37.000Z</time>
      </trkpt>
      <trkpt lat="4.7276346199214458465576171875" lon="-74.11112277768552303314208984375">
        <ele>2592.60009765625</ele>
        <time>2021-04-25T17:45:39.000Z</time>
      </trkpt>
      <trkpt lat="4.72760771401226520538330078125" lon="-74.1111099533736705780029296875">
        <ele>2592.60009765625</ele>
        <time>2021-04-25T17:45:42.000Z</time>
      </trkpt>
      <trkpt lat="4.72755901515483856201171875" lon="-74.1110858134925365447998046875">
        <ele>2592.800048828125</ele>
        <time>2021-04-25T17:45:48.000Z</time>
      </trkpt>
      <trkpt lat="4.72751702181994915008544921875" lon="-74.111063182353973388671875">
        <ele>2592.800048828125</ele>
        <time>2021-04-25T17:45:53.000Z</time>
      </trkpt>
      <trkpt lat="4.727468155324459075927734375" lon="-74.1110291518270969390869140625">
        <ele>2592.800048828125</ele>
        <time>2021-04-25T17:45:59.000Z</time>
      </trkpt>
      <trkpt lat="4.72742230631411075592041015625" lon="-74.11099855788052082061767578125">
        <ele>2592.800048828125</ele>
        <time>2021-04-25T17:46:05.000Z</time>
      </trkpt>
      <trkpt lat="4.7274066321551799774169921875" lon="-74.1109885834157466888427734375">
        <ele>2592.800048828125</ele>
        <time>2021-04-25T17:46:07.000Z</time>
      </trkpt>
      <trkpt lat="4.72735784947872161865234375" lon="-74.1109594143927097320556640625">
        <ele>2593</ele>
        <time>2021-04-25T17:46:13.000Z</time>
      </trkpt>
      <trkpt lat="4.72730797715485095977783203125" lon="-74.11092982627451419830322265625">
        <ele>2593.39990234375</ele>
        <time>2021-04-25T17:46:19.000Z</time>
      </trkpt>
      <trkpt lat="4.7272983379662036895751953125" lon="-74.11092479713261127471923828125">
        <ele>2593.39990234375</ele>
        <time>2021-04-25T17:46:20.000Z</time>
      </trkpt>
      <trkpt lat="4.72724863328039646148681640625" lon="-74.1108940355479717254638671875">
        <ele>2593.199951171875</ele>
        <time>2021-04-25T17:46:26.000Z</time>
      </trkpt>
      <trkpt lat="4.72722642123699188232421875" lon="-74.11088121123611927032470703125">
        <ele>2593.199951171875</ele>
        <time>2021-04-25T17:46:29.000Z</time>
      </trkpt>
      <trkpt lat="4.727211333811283111572265625" lon="-74.11087341606616973876953125">
        <ele>2593.39990234375</ele>
        <time>2021-04-25T17:46:31.000Z</time>
      </trkpt>
      <trkpt lat="4.7271573543548583984375" lon="-74.11084366030991077423095703125">
        <ele>2592.800048828125</ele>
        <time>2021-04-25T17:46:37.000Z</time>
      </trkpt>
      <trkpt lat="4.72714201547205448150634765625" lon="-74.1108320094645023345947265625">
        <ele>2592.800048828125</ele>
        <time>2021-04-25T17:46:39.000Z</time>
      </trkpt>
      <trkpt lat="4.7270928137004375457763671875" lon="-74.11079890094697475433349609375">
        <ele>2592.39990234375</ele>
        <time>2021-04-25T17:46:45.000Z</time>
      </trkpt>
      <trkpt lat="4.72704595886170864105224609375" lon="-74.1107763536274433135986328125">
        <ele>2592.39990234375</ele>
        <time>2021-04-25T17:46:51.000Z</time>
      </trkpt>
      <trkpt lat="4.72702324390411376953125" lon="-74.11076436750590801239013671875">
        <ele>2592.39990234375</ele>
        <time>2021-04-25T17:46:54.000Z</time>
      </trkpt>
      <trkpt lat="4.7269808314740657806396484375" lon="-74.1107465140521526336669921875">
        <ele>2592.800048828125</ele>
        <time>2021-04-25T17:46:59.000Z</time>
      </trkpt>
      <trkpt lat="4.72696247510612010955810546875" lon="-74.1107371263206005096435546875">
        <ele>2592.60009765625</ele>
        <time>2021-04-25T17:47:01.000Z</time>
      </trkpt>
      <trkpt lat="4.726945459842681884765625" lon="-74.11072723567485809326171875">
        <ele>2592.60009765625</ele>
        <time>2021-04-25T17:47:03.000Z</time>
      </trkpt>
      <trkpt lat="4.72692844457924365997314453125" lon="-74.1107180155813694000244140625">
        <ele>2592.39990234375</ele>
        <time>2021-04-25T17:47:05.000Z</time>
      </trkpt>
      <trkpt lat="4.72691989503800868988037109375" lon="-74.11071524955332279205322265625">
        <ele>2592.39990234375</ele>
        <time>2021-04-25T17:47:06.000Z</time>
      </trkpt>
      <trkpt lat="4.72686893306672573089599609375" lon="-74.11068893037736415863037109375">
        <ele>2592.60009765625</ele>
        <time>2021-04-25T17:47:12.000Z</time>
      </trkpt>
      <trkpt lat="4.726827777922153472900390625" lon="-74.11067199893295764923095703125">
        <ele>2592.60009765625</ele>
        <time>2021-04-25T17:47:17.000Z</time>
      </trkpt>
      <trkpt lat="4.72677958197891712188720703125" lon="-74.110633693635463714599609375">
        <ele>2592.60009765625</ele>
        <time>2021-04-25T17:47:23.000Z</time>
      </trkpt>
      <trkpt lat="4.72675778903067111968994140625" lon="-74.1106120683252811431884765625">
        <ele>2592.39990234375</ele>
        <time>2021-04-25T17:47:26.000Z</time>
      </trkpt>
      <trkpt lat="4.7267282009124755859375" lon="-74.11058348603546619415283203125">
        <ele>2592.60009765625</ele>
        <time>2021-04-25T17:47:30.000Z</time>
      </trkpt>
      <trkpt lat="4.72669475711882114410400390625" lon="-74.1105522215366363525390625">
        <ele>2592.60009765625</ele>
        <time>2021-04-25T17:47:35.000Z</time>
      </trkpt>
      <trkpt lat="4.72668570466339588165283203125" lon="-74.11054442636668682098388671875">
        <ele>2592.60009765625</ele>
        <time>2021-04-25T17:47:36.000Z</time>
      </trkpt>
      <trkpt lat="4.726677238941192626953125" lon="-74.11053705029189586639404296875">
        <ele>2592.39990234375</ele>
        <time>2021-04-25T17:47:37.000Z</time>
      </trkpt>
      <trkpt lat="4.7266572900116443634033203125" lon="-74.11051693372428417205810546875">
        <ele>2592.60009765625</ele>
        <time>2021-04-25T17:47:40.000Z</time>
      </trkpt>
      <trkpt lat="4.7266398556530475616455078125" lon="-74.11048809997737407684326171875">
        <ele>2592.60009765625</ele>
        <time>2021-04-25T17:47:43.000Z</time>
      </trkpt>
      <trkpt lat="4.7266115248203277587890625" lon="-74.1104320250451564788818359375">
        <ele>2592.60009765625</ele>
        <time>2021-04-25T17:47:49.000Z</time>
      </trkpt>
      <trkpt lat="4.72659501247107982635498046875" lon="-74.11040662787854671478271484375">
        <ele>2592.199951171875</ele>
        <time>2021-04-25T17:47:52.000Z</time>
      </trkpt>
      <trkpt lat="4.72658864222466945648193359375" lon="-74.110398329794406890869140625">
        <ele>2591.800048828125</ele>
        <time>2021-04-25T17:47:53.000Z</time>
      </trkpt>
      <trkpt lat="4.72655377350747585296630859375" lon="-74.110355079174041748046875">
        <ele>2591.800048828125</ele>
        <time>2021-04-25T17:47:59.000Z</time>
      </trkpt>
      <trkpt lat="4.72653047181665897369384765625" lon="-74.110323227941989898681640625">
        <ele>2592</ele>
        <time>2021-04-25T17:48:03.000Z</time>
      </trkpt>
      <trkpt lat="4.7264926694333553314208984375" lon="-74.11026849411427974700927734375">
        <ele>2592</ele>
        <time>2021-04-25T17:48:09.000Z</time>
      </trkpt>
      <trkpt lat="4.726481772959232330322265625" lon="-74.11025307141244411468505859375">
        <ele>2591.800048828125</ele>
        <time>2021-04-25T17:48:11.000Z</time>
      </trkpt>
      <trkpt lat="4.7264666855335235595703125" lon="-74.1102268360555171966552734375">
        <ele>2591.800048828125</ele>
        <time>2021-04-25T17:48:14.000Z</time>
      </trkpt>
      <trkpt lat="4.7264356724917888641357421875" lon="-74.11018006503582000732421875">
        <ele>2591.800048828125</ele>
        <time>2021-04-25T17:48:20.000Z</time>
      </trkpt>
      <trkpt lat="4.72640926949679851531982421875" lon="-74.11014142446219921112060546875">
        <ele>2592.199951171875</ele>
        <time>2021-04-25T17:48:25.000Z</time>
      </trkpt>
      <trkpt lat="4.7263924218714237213134765625" lon="-74.1101178713142871856689453125">
        <ele>2592</ele>
        <time>2021-04-25T17:48:28.000Z</time>
      </trkpt>
      <trkpt lat="4.7263833694159984588623046875" lon="-74.11010404117405414581298828125">
        <ele>2592</ele>
        <time>2021-04-25T17:48:30.000Z</time>
      </trkpt>
      <trkpt lat="4.72634774632751941680908203125" lon="-74.1100642271339893341064453125">
        <ele>2591.60009765625</ele>
        <time>2021-04-25T17:48:36.000Z</time>
      </trkpt>
      <trkpt lat="4.72634120844304561614990234375" lon="-74.11005760543048381805419921875">
        <ele>2591.60009765625</ele>
        <time>2021-04-25T17:48:37.000Z</time>
      </trkpt>
      <trkpt lat="4.72633433528244495391845703125" lon="-74.11005190573632717132568359375">
        <ele>2591.60009765625</ele>
        <time>2021-04-25T17:48:38.000Z</time>
      </trkpt>
      <trkpt lat="4.7262948565185070037841796875" lon="-74.11001653410494327545166015625">
        <ele>2592</ele>
        <time>2021-04-25T17:48:44.000Z</time>
      </trkpt>
      <trkpt lat="4.7262606583535671234130859375" lon="-74.10999096930027008056640625">
        <ele>2592</ele>
        <time>2021-04-25T17:48:49.000Z</time>
      </trkpt>
      <trkpt lat="4.7262241132557392120361328125" lon="-74.10995299927890300750732421875">
        <ele>2591.800048828125</ele>
        <time>2021-04-25T17:48:55.000Z</time>
      </trkpt>
      <trkpt lat="4.72620449960231781005859375" lon="-74.1099358163774013519287109375">
        <ele>2591.800048828125</ele>
        <time>2021-04-25T17:48:58.000Z</time>
      </trkpt>
      <trkpt lat="4.7261845506727695465087890625" lon="-74.10991863347589969635009765625">
        <ele>2592</ele>
        <time>2021-04-25T17:49:01.000Z</time>
      </trkpt>
      <trkpt lat="4.72617792896926403045654296875" lon="-74.10991276614367961883544921875">
        <ele>2592</ele>
        <time>2021-04-25T17:49:02.000Z</time>
      </trkpt>
      <trkpt lat="4.72615085542201995849609375" lon="-74.10988644696772098541259765625">
        <ele>2592</ele>
        <time>2021-04-25T17:49:06.000Z</time>
      </trkpt>
      <trkpt lat="4.7261429764330387115478515625" lon="-74.10987990908324718475341796875">
        <ele>2592</ele>
        <time>2021-04-25T17:49:07.000Z</time>
      </trkpt>
      <trkpt lat="4.72611221484839916229248046875" lon="-74.10984571091830730438232421875">
        <ele>2592.60009765625</ele>
        <time>2021-04-25T17:49:12.000Z</time>
      </trkpt>
      <trkpt lat="4.7261067666113376617431640625" lon="-74.10983867011964321136474609375">
        <ele>2592.199951171875</ele>
        <time>2021-04-25T17:49:13.000Z</time>
      </trkpt>
      <trkpt lat="4.72607483156025409698486328125" lon="-74.1097950004041194915771484375">
        <ele>2592.60009765625</ele>
        <time>2021-04-25T17:49:19.000Z</time>
      </trkpt>
      <trkpt lat="4.72606041468679904937744140625" lon="-74.10977094434201717376708984375">
        <ele>2592.39990234375</ele>
        <time>2021-04-25T17:49:22.000Z</time>
      </trkpt>
      <trkpt lat="4.72605027258396148681640625" lon="-74.10975451581180095672607421875">
        <ele>2592.39990234375</ele>
        <time>2021-04-25T17:49:24.000Z</time>
      </trkpt>
      <trkpt lat="4.7260249592363834381103515625" lon="-74.10970321856439113616943359375">
        <ele>2592.60009765625</ele>
        <time>2021-04-25T17:49:30.000Z</time>
      </trkpt>
      <trkpt lat="4.72600492648780345916748046875" lon="-74.10965443588793277740478515625">
        <ele>2592.60009765625</ele>
        <time>2021-04-25T17:49:36.000Z</time>
      </trkpt>
      <trkpt lat="4.72600207664072513580322265625" lon="-74.109646975994110107421875">
        <ele>2592.60009765625</ele>
        <time>2021-04-25T17:49:37.000Z</time>
      </trkpt>
      <trkpt lat="4.725998975336551666259765625" lon="-74.10963951610028743743896484375">
        <ele>2592.60009765625</ele>
        <time>2021-04-25T17:49:38.000Z</time>
      </trkpt>
      <trkpt lat="4.725986234843730926513671875" lon="-74.109607078135013580322265625">
        <ele>2592.800048828125</ele>
        <time>2021-04-25T17:49:42.000Z</time>
      </trkpt>
      <trkpt lat="4.72597726620733737945556640625" lon="-74.10959266126155853271484375">
        <ele>2593.199951171875</ele>
        <time>2021-04-25T17:49:44.000Z</time>
      </trkpt>
      <trkpt lat="4.72596335224807262420654296875" lon="-74.1095690242946147918701171875">
        <ele>2593.199951171875</ele>
        <time>2021-04-25T17:49:47.000Z</time>
      </trkpt>
      <trkpt lat="4.72593183629214763641357421875" lon="-74.109523594379425048828125">
        <ele>2593</ele>
        <time>2021-04-25T17:49:53.000Z</time>
      </trkpt>
      <trkpt lat="4.72590836696326732635498046875" lon="-74.10949987359344959259033203125">
        <ele>2592.39990234375</ele>
        <time>2021-04-25T17:49:57.000Z</time>
      </trkpt>
      <trkpt lat="4.72586964257061481475830078125" lon="-74.1094570420682430267333984375">
        <ele>2592.199951171875</ele>
        <time>2021-04-25T17:50:03.000Z</time>
      </trkpt>
      <trkpt lat="4.72585908137261867523193359375" lon="-74.10943952389061450958251953125">
        <ele>2592.199951171875</ele>
        <time>2021-04-25T17:50:05.000Z</time>
      </trkpt>
      <trkpt lat="4.72583963535726070404052734375" lon="-74.109413959085941314697265625">
        <ele>2592.199951171875</ele>
        <time>2021-04-25T17:50:08.000Z</time>
      </trkpt>
      <trkpt lat="4.72583192400634288787841796875" lon="-74.10940624773502349853515625">
        <ele>2592.199951171875</ele>
        <time>2021-04-25T17:50:09.000Z</time>
      </trkpt>
      <trkpt lat="4.725801162421703338623046875" lon="-74.10935486666858196258544921875">
        <ele>2592.199951171875</ele>
        <time>2021-04-25T17:50:15.000Z</time>
      </trkpt>
      <trkpt lat="4.72578934393823146820068359375" lon="-74.10934095270931720733642578125">
        <ele>2592.199951171875</ele>
        <time>2021-04-25T17:50:17.000Z</time>
      </trkpt>
      <trkpt lat="4.72577325068414211273193359375" lon="-74.1093068383634090423583984375">
        <ele>2592.199951171875</ele>
        <time>2021-04-25T17:50:21.000Z</time>
      </trkpt>
      <trkpt lat="4.72575657069683074951171875" lon="-74.10925780422985553741455078125">
        <ele>2592.39990234375</ele>
        <time>2021-04-25T17:50:26.000Z</time>
      </trkpt>
      <trkpt lat="4.72573469392955303192138671875" lon="-74.10919426940381526947021484375">
        <ele>2592.39990234375</ele>
        <time>2021-04-25T17:50:32.000Z</time>
      </trkpt>
      <trkpt lat="4.7257289104163646697998046875" lon="-74.10915990360081195831298828125">
        <ele>2592.60009765625</ele>
        <time>2021-04-25T17:50:36.000Z</time>
      </trkpt>
      <trkpt lat="4.72573167644441127777099609375" lon="-74.10910894162952899932861328125">
        <ele>2592.60009765625</ele>
        <time>2021-04-25T17:50:42.000Z</time>
      </trkpt>
      <trkpt lat="4.72571575082838535308837890625" lon="-74.10907767713069915771484375">
        <ele>2592.800048828125</ele>
        <time>2021-04-25T17:50:47.000Z</time>
      </trkpt>
      <trkpt lat="4.7256903536617755889892578125" lon="-74.1090319119393825531005859375">
        <ele>2592.60009765625</ele>
        <time>2021-04-25T17:50:53.000Z</time>
      </trkpt>
      <trkpt lat="4.72566277720034122467041015625" lon="-74.10898522473871707916259765625">
        <ele>2592.60009765625</ele>
        <time>2021-04-25T17:50:59.000Z</time>
      </trkpt>
      <trkpt lat="4.72565808333456516265869140625" lon="-74.108977429568767547607421875">
        <ele>2592.800048828125</ele>
        <time>2021-04-25T17:51:00.000Z</time>
      </trkpt>
      <trkpt lat="4.72562053240835666656494140625" lon="-74.10893878899514675140380859375">
        <ele>2593</ele>
        <time>2021-04-25T17:51:06.000Z</time>
      </trkpt>
      <trkpt lat="4.72560234367847442626953125" lon="-74.10892210900783538818359375">
        <ele>2592.800048828125</ele>
        <time>2021-04-25T17:51:09.000Z</time>
      </trkpt>
      <trkpt lat="4.72558013163506984710693359375" lon="-74.10890199244022369384765625">
        <ele>2593</ele>
        <time>2021-04-25T17:51:13.000Z</time>
      </trkpt>
      <trkpt lat="4.72557485103607177734375" lon="-74.1088999807834625244140625">
        <ele>2593</ele>
        <time>2021-04-25T17:51:14.000Z</time>
      </trkpt>
      <trkpt lat="4.72556705586612224578857421875" lon="-74.1088900901377201080322265625">
        <ele>2592.800048828125</ele>
        <time>2021-04-25T17:51:16.000Z</time>
      </trkpt>
      <trkpt lat="4.72553553991019725799560546875" lon="-74.1088488511741161346435546875">
        <ele>2592.800048828125</ele>
        <time>2021-04-25T17:51:22.000Z</time>
      </trkpt>
      <trkpt lat="4.72550067119300365447998046875" lon="-74.1088156588375568389892578125">
        <ele>2592.800048828125</ele>
        <time>2021-04-25T17:51:27.000Z</time>
      </trkpt>
      <trkpt lat="4.7254938818514347076416015625" lon="-74.108808450400829315185546875">
        <ele>2592.800048828125</ele>
        <time>2021-04-25T17:51:28.000Z</time>
      </trkpt>
      <trkpt lat="4.72548105753958225250244140625" lon="-74.10879311151802539825439453125">
        <ele>2593</ele>
        <time>2021-04-25T17:51:30.000Z</time>
      </trkpt>
      <trkpt lat="4.725459851324558258056640625" lon="-74.10877366550266742706298828125">
        <ele>2593</ele>
        <time>2021-04-25T17:51:33.000Z</time>
      </trkpt>
      <trkpt lat="4.7254321910440921783447265625" lon="-74.10874801687896251678466796875">
        <ele>2593</ele>
        <time>2021-04-25T17:51:37.000Z</time>
      </trkpt>
      <trkpt lat="4.72542531788349151611328125" lon="-74.10874164663255214691162109375">
        <ele>2593</ele>
        <time>2021-04-25T17:51:38.000Z</time>
      </trkpt>
      <trkpt lat="4.725398831069469451904296875" lon="-74.10871951840817928314208984375">
        <ele>2593</ele>
        <time>2021-04-25T17:51:42.000Z</time>
      </trkpt>
      <trkpt lat="4.7253723442554473876953125" lon="-74.10869554616510868072509765625">
        <ele>2593</ele>
        <time>2021-04-25T17:51:46.000Z</time>
      </trkpt>
      <trkpt lat="4.725330434739589691162109375" lon="-74.10865598358213901519775390625">
        <ele>2593.199951171875</ele>
        <time>2021-04-25T17:51:52.000Z</time>
      </trkpt>
      <trkpt lat="4.72530327737331390380859375" lon="-74.1086304187774658203125">
        <ele>2593</ele>
        <time>2021-04-25T17:51:56.000Z</time>
      </trkpt>
      <trkpt lat="4.72527167759835720062255859375" lon="-74.10858255811035633087158203125">
        <ele>2593</ele>
        <time>2021-04-25T17:52:02.000Z</time>
      </trkpt>
      <trkpt lat="4.725231863558292388916015625" lon="-74.10853897221386432647705078125">
        <ele>2593.199951171875</ele>
        <time>2021-04-25T17:52:08.000Z</time>
      </trkpt>
      <trkpt lat="4.72519573755562305450439453125" lon="-74.10850326530635356903076171875">
        <ele>2593.199951171875</ele>
        <time>2021-04-25T17:52:13.000Z</time>
      </trkpt>
      <trkpt lat="4.72518836148083209991455078125" lon="-74.10849689505994319915771484375">
        <ele>2593.199951171875</ele>
        <time>2021-04-25T17:52:14.000Z</time>
      </trkpt>
      <trkpt lat="4.725174196064472198486328125" lon="-74.1084740124642848968505859375">
        <ele>2593.199951171875</ele>
        <time>2021-04-25T17:52:17.000Z</time>
      </trkpt>
      <trkpt lat="4.72514142282307147979736328125" lon="-74.10843570716679096221923828125">
        <ele>2593.199951171875</ele>
        <time>2021-04-25T17:52:23.000Z</time>
      </trkpt>
      <trkpt lat="4.7251344658434391021728515625" lon="-74.10843000747263431549072265625">
        <ele>2593</ele>
        <time>2021-04-25T17:52:24.000Z</time>
      </trkpt>
      <trkpt lat="4.7250908799469470977783203125" lon="-74.1084056161344051361083984375">
        <ele>2593</ele>
        <time>2021-04-25T17:52:30.000Z</time>
      </trkpt>
      <trkpt lat="4.72507017664611339569091796875" lon="-74.108403436839580535888671875">
        <ele>2593</ele>
        <time>2021-04-25T17:52:32.000Z</time>
      </trkpt>
      <trkpt lat="4.7250516526401042938232421875" lon="-74.1084019280970096588134765625">
        <ele>2593</ele>
        <time>2021-04-25T17:52:34.000Z</time>
      </trkpt>
      <trkpt lat="4.725035727024078369140625" lon="-74.10839865915477275848388671875">
        <ele>2593</ele>
        <time>2021-04-25T17:52:36.000Z</time>
      </trkpt>
      <trkpt lat="4.7249862737953662872314453125" lon="-74.1083968989551067352294921875">
        <ele>2593</ele>
        <time>2021-04-25T17:52:42.000Z</time>
      </trkpt>
      <trkpt lat="4.7249423526227474212646484375" lon="-74.10837904550135135650634765625">
        <ele>2593</ele>
        <time>2021-04-25T17:52:47.000Z</time>
      </trkpt>
      <trkpt lat="4.7249083220958709716796875" lon="-74.10836563445627689361572265625">
        <ele>2593</ele>
        <time>2021-04-25T17:52:50.000Z</time>
      </trkpt>
      <trkpt lat="4.7248695977032184600830078125" lon="-74.1083528101444244384765625">
        <ele>2593</ele>
        <time>2021-04-25T17:52:54.000Z</time>
      </trkpt>
      <trkpt lat="4.7248224914073944091796875" lon="-74.108343757688999176025390625">
        <ele>2593.199951171875</ele>
        <time>2021-04-25T17:52:59.000Z</time>
      </trkpt>
      <trkpt lat="4.72480463795363903045654296875" lon="-74.1083388961851596832275390625">
        <ele>2593</ele>
        <time>2021-04-25T17:53:01.000Z</time>
      </trkpt>
      <trkpt lat="4.72475635819137096405029296875" lon="-74.10832263529300689697265625">
        <ele>2593.199951171875</ele>
        <time>2021-04-25T17:53:07.000Z</time>
      </trkpt>
      <trkpt lat="4.72470874898135662078857421875" lon="-74.108305871486663818359375">
        <ele>2593</ele>
        <time>2021-04-25T17:53:13.000Z</time>
      </trkpt>
      <trkpt lat="4.72468544729053974151611328125" lon="-74.10829522646963596343994140625">
        <ele>2593.199951171875</ele>
        <time>2021-04-25T17:53:16.000Z</time>
      </trkpt>
      <trkpt lat="4.7246409393846988677978515625" lon="-74.1082723438739776611328125">
        <ele>2593.199951171875</ele>
        <time>2021-04-25T17:53:21.000Z</time>
      </trkpt>
      <trkpt lat="4.724631719291210174560546875" lon="-74.108268655836582183837890625">
        <ele>2593.199951171875</ele>
        <time>2021-04-25T17:53:22.000Z</time>
      </trkpt>
      <trkpt lat="4.724602214992046356201171875" lon="-74.1082547418773174285888671875">
        <ele>2593</ele>
        <time>2021-04-25T17:53:25.000Z</time>
      </trkpt>
      <trkpt lat="4.72456877119839191436767578125" lon="-74.10823856480419635772705078125">
        <ele>2593.39990234375</ele>
        <time>2021-04-25T17:53:29.000Z</time>
      </trkpt>
      <trkpt lat="4.724552929401397705078125" lon="-74.108231775462627410888671875">
        <ele>2593.60009765625</ele>
        <time>2021-04-25T17:53:31.000Z</time>
      </trkpt>
      <trkpt lat="4.7245242632925510406494140625" lon="-74.1082212142646312713623046875">
        <ele>2593.39990234375</ele>
        <time>2021-04-25T17:53:34.000Z</time>
      </trkpt>
      <trkpt lat="4.7245135344564914703369140625" lon="-74.10821735858917236328125">
        <ele>2593.39990234375</ele>
        <time>2021-04-25T17:53:35.000Z</time>
      </trkpt>
      <trkpt lat="4.7244676016271114349365234375" lon="-74.1082034446299076080322265625">
        <ele>2593.39990234375</ele>
        <time>2021-04-25T17:53:40.000Z</time>
      </trkpt>
      <trkpt lat="4.72444823943078517913818359375" lon="-74.10819464363157749176025390625">
        <ele>2593.39990234375</ele>
        <time>2021-04-25T17:53:42.000Z</time>
      </trkpt>
      <trkpt lat="4.7244109399616718292236328125" lon="-74.108175449073314666748046875">
        <ele>2593.39990234375</ele>
        <time>2021-04-25T17:53:46.000Z</time>
      </trkpt>
      <trkpt lat="4.72435805015265941619873046875" lon="-74.108143262565135955810546875">
        <ele>2593.39990234375</ele>
        <time>2021-04-25T17:53:52.000Z</time>
      </trkpt>
      <trkpt lat="4.72434975206851959228515625" lon="-74.10813882015645503997802734375">
        <ele>2593.60009765625</ele>
        <time>2021-04-25T17:53:53.000Z</time>
      </trkpt>
      <trkpt lat="4.7242992930114269256591796875" lon="-74.10811878740787506103515625">
        <ele>2593.39990234375</ele>
        <time>2021-04-25T17:53:59.000Z</time>
      </trkpt>
      <trkpt lat="4.72429049201309680938720703125" lon="-74.10811652429401874542236328125">
        <ele>2593.199951171875</ele>
        <time>2021-04-25T17:54:00.000Z</time>
      </trkpt>
      <trkpt lat="4.72426383756101131439208984375" lon="-74.1081095673143863677978515625">
        <ele>2593.199951171875</ele>
        <time>2021-04-25T17:54:03.000Z</time>
      </trkpt>
      <trkpt lat="4.72420784644782543182373046875" lon="-74.1080941446125507354736328125">
        <ele>2593</ele>
        <time>2021-04-25T17:54:09.000Z</time>
      </trkpt>
      <trkpt lat="4.72417272627353668212890625" lon="-74.1080565936863422393798828125">
        <ele>2593.39990234375</ele>
        <time>2021-04-25T17:54:14.000Z</time>
      </trkpt>
      <trkpt lat="4.72413475625216960906982421875" lon="-74.1080099903047084808349609375">
        <ele>2593.800048828125</ele>
        <time>2021-04-25T17:54:20.000Z</time>
      </trkpt>
      <trkpt lat="4.72410575486719608306884765625" lon="-74.1079895384609699249267578125">
        <ele>2593.800048828125</ele>
        <time>2021-04-25T17:54:24.000Z</time>
      </trkpt>
      <trkpt lat="4.72409804351627826690673828125" lon="-74.10798258148133754730224609375">
        <ele>2593.800048828125</ele>
        <time>2021-04-25T17:54:25.000Z</time>
      </trkpt>
      <trkpt lat="4.72408287227153778076171875" lon="-74.1079707629978656768798828125">
        <ele>2593.60009765625</ele>
        <time>2021-04-25T17:54:27.000Z</time>
      </trkpt>
      <trkpt lat="4.72404238767921924591064453125" lon="-74.10793304443359375">
        <ele>2593.39990234375</ele>
        <time>2021-04-25T17:54:33.000Z</time>
      </trkpt>
      <trkpt lat="4.72403593361377716064453125" lon="-74.10792591981589794158935546875">
        <ele>2593.39990234375</ele>
        <time>2021-04-25T17:54:34.000Z</time>
      </trkpt>
      <trkpt lat="4.72402880899608135223388671875" lon="-74.10791887901723384857177734375">
        <ele>2593.39990234375</ele>
        <time>2021-04-25T17:54:35.000Z</time>
      </trkpt>
      <trkpt lat="4.72401808016002178192138671875" lon="-74.10790312103927135467529296875">
        <ele>2593.39990234375</ele>
        <time>2021-04-25T17:54:37.000Z</time>
      </trkpt>
      <trkpt lat="4.72399041987955570220947265625" lon="-74.10785299725830554962158203125">
        <ele>2593.39990234375</ele>
        <time>2021-04-25T17:54:43.000Z</time>
      </trkpt>
      <trkpt lat="4.7239861451089382171630859375" lon="-74.10784428007900714874267578125">
        <ele>2593.39990234375</ele>
        <time>2021-04-25T17:54:44.000Z</time>
      </trkpt>
      <trkpt lat="4.7239616699516773223876953125" lon="-74.10778627730906009674072265625">
        <ele>2593.199951171875</ele>
        <time>2021-04-25T17:54:50.000Z</time>
      </trkpt>
      <trkpt lat="4.72395186312496662139892578125" lon="-74.107767753303050994873046875">
        <ele>2593.39990234375</ele>
        <time>2021-04-25T17:54:52.000Z</time>
      </trkpt>
      <trkpt lat="4.7239435650408267974853515625" lon="-74.10774956457316875457763671875">
        <ele>2593.39990234375</ele>
        <time>2021-04-25T17:54:54.000Z</time>
      </trkpt>
      <trkpt lat="4.7239090315997600555419921875" lon="-74.1076998598873615264892578125">
        <ele>2593.60009765625</ele>
        <time>2021-04-25T17:55:00.000Z</time>
      </trkpt>
      <trkpt lat="4.7238959558308124542236328125" lon="-74.10767295397818088531494140625">
        <ele>2593.39990234375</ele>
        <time>2021-04-25T17:55:03.000Z</time>
      </trkpt>
      <trkpt lat="4.72389134578406810760498046875" lon="-74.1076633147895336151123046875">
        <ele>2593.39990234375</ele>
        <time>2021-04-25T17:55:04.000Z</time>
      </trkpt>
      <trkpt lat="4.723866283893585205078125" lon="-74.10761159844696521759033203125">
        <ele>2593.60009765625</ele>
        <time>2021-04-25T17:55:10.000Z</time>
      </trkpt>
      <trkpt lat="4.7238473407924175262451171875" lon="-74.10757572390139102935791015625">
        <ele>2593.800048828125</ele>
        <time>2021-04-25T17:55:14.000Z</time>
      </trkpt>
      <trkpt lat="4.72382077015936374664306640625" lon="-74.10751705057919025421142578125">
        <ele>2593.60009765625</ele>
        <time>2021-04-25T17:55:20.000Z</time>
      </trkpt>
      <trkpt lat="4.72380015067756175994873046875" lon="-74.10747832618653774261474609375">
        <ele>2593.800048828125</ele>
        <time>2021-04-25T17:55:25.000Z</time>
      </trkpt>
      <trkpt lat="4.72379663027822971343994140625" lon="-74.10747111774981021881103515625">
        <ele>2594</ele>
        <time>2021-04-25T17:55:26.000Z</time>
      </trkpt>
      <trkpt lat="4.72376947291195392608642578125" lon="-74.107424430549144744873046875">
        <ele>2593.800048828125</ele>
        <time>2021-04-25T17:55:32.000Z</time>
      </trkpt>
      <trkpt lat="4.72375840879976749420166015625" lon="-74.10738788545131683349609375">
        <ele>2593.800048828125</ele>
        <time>2021-04-25T17:55:36.000Z</time>
      </trkpt>
      <trkpt lat="4.7237576544284820556640625" lon="-74.10735972225666046142578125">
        <ele>2593.800048828125</ele>
        <time>2021-04-25T17:55:39.000Z</time>
      </trkpt>
      <trkpt lat="4.72376368939876556396484375" lon="-74.1072978638112545013427734375">
        <ele>2594</ele>
        <time>2021-04-25T17:55:45.000Z</time>
      </trkpt>
      <trkpt lat="4.72376226447522640228271484375" lon="-74.10728788934648036956787109375">
        <ele>2594</ele>
        <time>2021-04-25T17:55:46.000Z</time>
      </trkpt>
      <trkpt lat="4.7237574867904186248779296875" lon="-74.10723977722227573394775390625">
        <ele>2594</ele>
        <time>2021-04-25T17:55:52.000Z</time>
      </trkpt>
      <trkpt lat="4.7237548045814037322998046875" lon="-74.10723055712878704071044921875">
        <ele>2594</ele>
        <time>2021-04-25T17:55:53.000Z</time>
      </trkpt>
      <trkpt lat="4.72375086508691310882568359375" lon="-74.10721060819923877716064453125">
        <ele>2593.800048828125</ele>
        <time>2021-04-25T17:55:55.000Z</time>
      </trkpt>
      <trkpt lat="4.723732508718967437744140625" lon="-74.10716031678020954132080078125">
        <ele>2594.199951171875</ele>
        <time>2021-04-25T17:56:01.000Z</time>
      </trkpt>
      <trkpt lat="4.723719097673892974853515625" lon="-74.10713952966034412384033203125">
        <ele>2594.199951171875</ele>
        <time>2021-04-25T17:56:04.000Z</time>
      </trkpt>
      <trkpt lat="4.7237014956772327423095703125" lon="-74.1071136295795440673828125">
        <ele>2593.800048828125</ele>
        <time>2021-04-25T17:56:08.000Z</time>
      </trkpt>
      <trkpt lat="4.72369889728724956512451171875" lon="-74.10710616968572139739990234375">
        <ele>2593.800048828125</ele>
        <time>2021-04-25T17:56:09.000Z</time>
      </trkpt>
      <trkpt lat="4.7236823849380016326904296875" lon="-74.10706928931176662445068359375">
        <ele>2593.800048828125</ele>
        <time>2021-04-25T17:56:13.000Z</time>
      </trkpt>
      <trkpt lat="4.72366847097873687744140625" lon="-74.10702100954949855804443359375">
        <ele>2593.60009765625</ele>
        <time>2021-04-25T17:56:19.000Z</time>
      </trkpt>
      <trkpt lat="4.72367039881646633148193359375" lon="-74.10699234344065189361572265625">
        <ele>2593.60009765625</ele>
        <time>2021-04-25T17:56:22.000Z</time>
      </trkpt>
      <trkpt lat="4.72367241047322750091552734375" lon="-74.10694858990609645843505859375">
        <ele>2593.800048828125</ele>
        <time>2021-04-25T17:56:26.000Z</time>
      </trkpt>
      <trkpt lat="4.72367274574935436248779296875" lon="-74.1069008968770503997802734375">
        <ele>2593.800048828125</ele>
        <time>2021-04-25T17:56:31.000Z</time>
      </trkpt>
      <trkpt lat="4.7236766852438449859619140625" lon="-74.10686410032212734222412109375">
        <ele>2594</ele>
        <time>2021-04-25T17:56:35.000Z</time>
      </trkpt>
      <trkpt lat="4.7236798703670501708984375" lon="-74.1068465821444988250732421875">
        <ele>2593.800048828125</ele>
        <time>2021-04-25T17:56:37.000Z</time>
      </trkpt>
      <trkpt lat="4.723675511777400970458984375" lon="-74.1068358533084392547607421875">
        <ele>2593.800048828125</ele>
        <time>2021-04-25T17:56:39.000Z</time>
      </trkpt>
      <trkpt lat="4.72363469190895557403564453125" lon="-74.10682051442563533782958984375">
        <ele>2593.800048828125</ele>
        <time>2021-04-25T17:56:44.000Z</time>
      </trkpt>
      <trkpt lat="4.72362631000578403472900390625" lon="-74.10681791603565216064453125">
        <ele>2593.800048828125</ele>
        <time>2021-04-25T17:56:45.000Z</time>
      </trkpt>
      <trkpt lat="4.72357098944485187530517578125" lon="-74.10680676810443401336669921875">
        <ele>2593.800048828125</ele>
        <time>2021-04-25T17:56:51.000Z</time>
      </trkpt>
      <trkpt lat="4.72353612072765827178955078125" lon="-74.10680391825735569000244140625">
        <ele>2593.800048828125</ele>
        <time>2021-04-25T17:56:55.000Z</time>
      </trkpt>
      <trkpt lat="4.72349890507757663726806640625" lon="-74.10679570399224758148193359375">
        <ele>2593.60009765625</ele>
        <time>2021-04-25T17:56:59.000Z</time>
      </trkpt>
      <trkpt lat="4.72347074188292026519775390625" lon="-74.10679117776453495025634765625">
        <ele>2593.60009765625</ele>
        <time>2021-04-25T17:57:02.000Z</time>
      </trkpt>
      <trkpt lat="4.72346118651330471038818359375" lon="-74.106791429221630096435546875">
        <ele>2593.60009765625</ele>
        <time>2021-04-25T17:57:03.000Z</time>
      </trkpt>
      <trkpt lat="4.7234289161860942840576171875" lon="-74.10679670982062816619873046875">
        <ele>2593.60009765625</ele>
        <time>2021-04-25T17:57:07.000Z</time>
      </trkpt>
      <trkpt lat="4.7234131582081317901611328125" lon="-74.106803499162197113037109375">
        <ele>2593.60009765625</ele>
        <time>2021-04-25T17:57:09.000Z</time>
      </trkpt>
      <trkpt lat="4.72340519540011882781982421875" lon="-74.10680760629475116729736328125">
        <ele>2593.800048828125</ele>
        <time>2021-04-25T17:57:10.000Z</time>
      </trkpt>
      <trkpt lat="4.72336714155972003936767578125" lon="-74.10684113390743732452392578125">
        <ele>2594.199951171875</ele>
        <time>2021-04-25T17:57:16.000Z</time>
      </trkpt>
      <trkpt lat="4.7233300097286701202392578125" lon="-74.10687717609107494354248046875">
        <ele>2594.60009765625</ele>
        <time>2021-04-25T17:57:22.000Z</time>
      </trkpt>
      <trkpt lat="4.72331282682716846466064453125" lon="-74.1068992204964160919189453125">
        <ele>2594.60009765625</ele>
        <time>2021-04-25T17:57:26.000Z</time>
      </trkpt>
      <trkpt lat="4.72330796532332897186279296875" lon="-74.1069052554666996002197265625">
        <ele>2594.800048828125</ele>
        <time>2021-04-25T17:57:27.000Z</time>
      </trkpt>
      <trkpt lat="4.72330109216272830963134765625" lon="-74.10691053606569766998291015625">
        <ele>2595</ele>
        <time>2021-04-25T17:57:30.000Z</time>
      </trkpt>
      <trkpt lat="4.72330234944820404052734375" lon="-74.10691422410309314727783203125">
        <ele>2595</ele>
        <time>2021-04-25T17:57:34.000Z</time>
      </trkpt>
      <trkpt lat="4.72330369055271148681640625" lon="-74.1069143079221248626708984375">
        <ele>2595.199951171875</ele>
        <time>2021-04-25T17:57:35.000Z</time>
      </trkpt>
      <trkpt lat="4.7232418321073055267333984375" lon="-74.10699401982128620147705078125">
        <ele>2595.800048828125</ele>
        <time>2021-04-25T17:58:08.000Z</time>
      </trkpt>
      <trkpt lat="4.72323135472834110260009765625" lon="-74.107008017599582672119140625">
        <ele>2596</ele>
        <time>2021-04-25T17:58:11.000Z</time>
      </trkpt>
      <trkpt lat="4.72321207635104656219482421875" lon="-74.10703173838555812835693359375">
        <ele>2596</ele>
        <time>2021-04-25T17:58:13.000Z</time>
      </trkpt>
      <trkpt lat="4.72319447435438632965087890625" lon="-74.10705520771443843841552734375">
        <ele>2596</ele>
        <time>2021-04-25T17:58:16.000Z</time>
      </trkpt>
      <trkpt lat="4.723186008632183074951171875" lon="-74.10706937313079833984375">
        <ele>2596</ele>
        <time>2021-04-25T17:58:18.000Z</time>
      </trkpt>
      <trkpt lat="4.723157845437526702880859375" lon="-74.10711832344532012939453125">
        <ele>2596</ele>
        <time>2021-04-25T17:58:24.000Z</time>
      </trkpt>
      <trkpt lat="4.72315273247659206390380859375" lon="-74.107127375900745391845703125">
        <ele>2595.800048828125</ele>
        <time>2021-04-25T17:58:25.000Z</time>
      </trkpt>
      <trkpt lat="4.72314870916306972503662109375" lon="-74.10713517107069492340087890625">
        <ele>2595.800048828125</ele>
        <time>2021-04-25T17:58:26.000Z</time>
      </trkpt>
      <trkpt lat="4.72311166115105152130126953125" lon="-74.10717733204364776611328125">
        <ele>2595.800048828125</ele>
        <time>2021-04-25T17:58:32.000Z</time>
      </trkpt>
      <trkpt lat="4.72309581935405731201171875" lon="-74.10718881525099277496337890625">
        <ele>2595.800048828125</ele>
        <time>2021-04-25T17:58:34.000Z</time>
      </trkpt>
      <trkpt lat="4.7230490483343601226806640625" lon="-74.10721781663596630096435546875">
        <ele>2596</ele>
        <time>2021-04-25T17:58:40.000Z</time>
      </trkpt>
      <trkpt lat="4.7230175323784351348876953125" lon="-74.10723776556551456451416015625">
        <ele>2596</ele>
        <time>2021-04-25T17:58:44.000Z</time>
      </trkpt>
      <trkpt lat="4.7229742817580699920654296875" lon="-74.107260145246982574462890625">
        <ele>2596</ele>
        <time>2021-04-25T17:58:49.000Z</time>
      </trkpt>
      <trkpt lat="4.72293530590832233428955078125" lon="-74.1072918288409709930419921875">
        <ele>2595.800048828125</ele>
        <time>2021-04-25T17:58:55.000Z</time>
      </trkpt>
      <trkpt lat="4.72293094731867313385009765625" lon="-74.10729845054447650909423828125">
        <ele>2595.800048828125</ele>
        <time>2021-04-25T17:58:56.000Z</time>
      </trkpt>
      <trkpt lat="4.7229290194809436798095703125" lon="-74.10730482079088687896728515625">
        <ele>2596</ele>
        <time>2021-04-25T17:58:57.000Z</time>
      </trkpt>
      <trkpt lat="4.72290563397109508514404296875" lon="-74.10735293291509151458740234375">
        <ele>2595.60009765625</ele>
        <time>2021-04-25T17:59:03.000Z</time>
      </trkpt>
      <trkpt lat="4.72290270030498504638671875" lon="-74.10736232064664363861083984375">
        <ele>2595.60009765625</ele>
        <time>2021-04-25T17:59:04.000Z</time>
      </trkpt>
      <trkpt lat="4.72287361510097980499267578125" lon="-74.107410348951816558837890625">
        <ele>2595.39990234375</ele>
        <time>2021-04-25T17:59:09.000Z</time>
      </trkpt>
      <trkpt lat="4.72285634838044643402099609375" lon="-74.10743616521358489990234375">
        <ele>2595.39990234375</ele>
        <time>2021-04-25T17:59:12.000Z</time>
      </trkpt>
      <trkpt lat="4.72284394316375255584716796875" lon="-74.1074542701244354248046875">
        <ele>2595.39990234375</ele>
        <time>2021-04-25T17:59:14.000Z</time>
      </trkpt>
      <trkpt lat="4.72283455543220043182373046875" lon="-74.10747011192142963409423828125">
        <ele>2595.199951171875</ele>
        <time>2021-04-25T17:59:16.000Z</time>
      </trkpt>
      <trkpt lat="4.72280639223754405975341796875" lon="-74.10751017741858959197998046875">
        <ele>2595</ele>
        <time>2021-04-25T17:59:21.000Z</time>
      </trkpt>
      <trkpt lat="4.7227992676198482513427734375" lon="-74.1075188107788562774658203125">
        <ele>2595</ele>
        <time>2021-04-25T17:59:22.000Z</time>
      </trkpt>
      <trkpt lat="4.72278191708028316497802734375" lon="-74.107543788850307464599609375">
        <ele>2594.60009765625</ele>
        <time>2021-04-25T17:59:26.000Z</time>
      </trkpt>
      <trkpt lat="4.72276833839714527130126953125" lon="-74.10756516270339488983154296875">
        <ele>2594.39990234375</ele>
        <time>2021-04-25T17:59:29.000Z</time>
      </trkpt>
      <trkpt lat="4.7227570228278636932373046875" lon="-74.10757941193878650665283203125">
        <ele>2594.199951171875</ele>
        <time>2021-04-25T17:59:31.000Z</time>
      </trkpt>
      <trkpt lat="4.72272693179547786712646484375" lon="-74.10761461593210697174072265625">
        <ele>2594</ele>
        <time>2021-04-25T17:59:36.000Z</time>
      </trkpt>
      <trkpt lat="4.72272039391100406646728515625" lon="-74.10762257874011993408203125">
        <ele>2594</ele>
        <time>2021-04-25T17:59:37.000Z</time>
      </trkpt>
      <trkpt lat="4.72267865203320980072021484375" lon="-74.1076755523681640625">
        <ele>2594.199951171875</ele>
        <time>2021-04-25T17:59:43.000Z</time>
      </trkpt>
      <trkpt lat="4.72265727818012237548828125" lon="-74.10770044662058353424072265625">
        <ele>2594.39990234375</ele>
        <time>2021-04-25T17:59:46.000Z</time>
      </trkpt>
      <trkpt lat="4.72262014634907245635986328125" lon="-74.10774654708802700042724609375">
        <ele>2594.60009765625</ele>
        <time>2021-04-25T17:59:52.000Z</time>
      </trkpt>
      <trkpt lat="4.72261478193104267120361328125" lon="-74.107755012810230255126953125">
        <ele>2594.60009765625</ele>
        <time>2021-04-25T17:59:53.000Z</time>
      </trkpt>
      <trkpt lat="4.72260363399982452392578125" lon="-74.10777018405497074127197265625">
        <ele>2594.60009765625</ele>
        <time>2021-04-25T17:59:55.000Z</time>
      </trkpt>
      <trkpt lat="4.72259298898279666900634765625" lon="-74.10778644494712352752685546875">
        <ele>2594.39990234375</ele>
        <time>2021-04-25T17:59:57.000Z</time>
      </trkpt>
      <trkpt lat="4.7225555218756198883056640625" lon="-74.10783388651907444000244140625">
        <ele>2594.60009765625</ele>
        <time>2021-04-25T18:00:03.000Z</time>
      </trkpt>
      <trkpt lat="4.72252459265291690826416015625" lon="-74.10788149572908878326416015625">
        <ele>2594.60009765625</ele>
        <time>2021-04-25T18:00:09.000Z</time>
      </trkpt>
      <trkpt lat="4.72249760292470455169677734375" lon="-74.107929356396198272705078125">
        <ele>2594.60009765625</ele>
        <time>2021-04-25T18:00:15.000Z</time>
      </trkpt>
      <trkpt lat="4.7224680148065090179443359375" lon="-74.10797805525362491607666015625">
        <ele>2594.800048828125</ele>
        <time>2021-04-25T18:00:21.000Z</time>
      </trkpt>
      <trkpt lat="4.72244529984891414642333984375" lon="-74.1080130077898502349853515625">
        <ele>2595</ele>
        <time>2021-04-25T18:00:25.000Z</time>
      </trkpt>
      <trkpt lat="4.72241445444524288177490234375" lon="-74.108066149055957794189453125">
        <ele>2594.800048828125</ele>
        <time>2021-04-25T18:00:31.000Z</time>
      </trkpt>
      <trkpt lat="4.72240246832370758056640625" lon="-74.10808115266263484954833984375">
        <ele>2595</ele>
        <time>2021-04-25T18:00:33.000Z</time>
      </trkpt>
      <trkpt lat="4.72237371839582920074462890625" lon="-74.1081216372549533843994140625">
        <ele>2595.199951171875</ele>
        <time>2021-04-25T18:00:39.000Z</time>
      </trkpt>
      <trkpt lat="4.7223563678562641143798828125" lon="-74.1081417538225650787353515625">
        <ele>2595</ele>
        <time>2021-04-25T18:00:42.000Z</time>
      </trkpt>
      <trkpt lat="4.72234052605926990509033203125" lon="-74.10817402414977550506591796875">
        <ele>2594.800048828125</ele>
        <time>2021-04-25T18:00:46.000Z</time>
      </trkpt>
      <trkpt lat="4.72230800427496433258056640625" lon="-74.1082202084362506866455078125">
        <ele>2595.199951171875</ele>
        <time>2021-04-25T18:00:52.000Z</time>
      </trkpt>
      <trkpt lat="4.72230213694274425506591796875" lon="-74.1082267463207244873046875">
        <ele>2595.199951171875</ele>
        <time>2021-04-25T18:00:53.000Z</time>
      </trkpt>
      <trkpt lat="4.722296856343746185302734375" lon="-74.10823336802423000335693359375">
        <ele>2595.199951171875</ele>
        <time>2021-04-25T18:00:54.000Z</time>
      </trkpt>
      <trkpt lat="4.72229140810668468475341796875" lon="-74.10824158228933811187744140625">
        <ele>2595.199951171875</ele>
        <time>2021-04-25T18:00:55.000Z</time>
      </trkpt>
      <trkpt lat="4.72227782942354679107666015625" lon="-74.10826706327497959136962890625">
        <ele>2595</ele>
        <time>2021-04-25T18:00:58.000Z</time>
      </trkpt>
      <trkpt lat="4.72225972451269626617431640625" lon="-74.10830830223858356475830078125">
        <ele>2595</ele>
        <time>2021-04-25T18:01:03.000Z</time>
      </trkpt>
      <trkpt lat="4.72223256714642047882080078125" lon="-74.10835054703056812286376953125">
        <ele>2595</ele>
        <time>2021-04-25T18:01:09.000Z</time>
      </trkpt>
      <trkpt lat="4.7222242690622806549072265625" lon="-74.10836814902722835540771484375">
        <ele>2595</ele>
        <time>2021-04-25T18:01:11.000Z</time>
      </trkpt>
      <trkpt lat="4.72221932373940944671630859375" lon="-74.108375944197177886962890625">
        <ele>2595</ele>
        <time>2021-04-25T18:01:12.000Z</time>
      </trkpt>
      <trkpt lat="4.7222138755023479461669921875" lon="-74.10838474519550800323486328125">
        <ele>2595</ele>
        <time>2021-04-25T18:01:13.000Z</time>
      </trkpt>
      <trkpt lat="4.72220960073173046112060546875" lon="-74.10839295946061611175537109375">
        <ele>2595</ele>
        <time>2021-04-25T18:01:14.000Z</time>
      </trkpt>
      <trkpt lat="4.72218277864158153533935546875" lon="-74.10843989811837673187255859375">
        <ele>2595.199951171875</ele>
        <time>2021-04-25T18:01:20.000Z</time>
      </trkpt>
      <trkpt lat="4.72216919995844364166259765625" lon="-74.10845817066729068756103515625">
        <ele>2595.39990234375</ele>
        <time>2021-04-25T18:01:22.000Z</time>
      </trkpt>
      <trkpt lat="4.7221360914409160614013671875" lon="-74.10850678570568561553955078125">
        <ele>2595.199951171875</ele>
        <time>2021-04-25T18:01:28.000Z</time>
      </trkpt>
      <trkpt lat="4.7221169807016849517822265625" lon="-74.10852723754942417144775390625">
        <ele>2595.199951171875</ele>
        <time>2021-04-25T18:01:31.000Z</time>
      </trkpt>
      <trkpt lat="4.72207523882389068603515625" lon="-74.10857099108397960662841796875">
        <ele>2595.199951171875</ele>
        <time>2021-04-25T18:01:37.000Z</time>
      </trkpt>
      <trkpt lat="4.72206777893006801605224609375" lon="-74.10857878625392913818359375">
        <ele>2595.39990234375</ele>
        <time>2021-04-25T18:01:39.000Z</time>
      </trkpt>
      <trkpt lat="4.7220740653574466705322265625" lon="-74.108579792082309722900390625">
        <ele>2595.800048828125</ele>
        <time>2021-04-25T18:01:41.000Z</time>
      </trkpt>
      <trkpt lat="4.72207917831838130950927734375" lon="-74.1085799597203731536865234375">
        <ele>2595.800048828125</ele>
        <time>2021-04-25T18:01:44.000Z</time>
      </trkpt>
      <trkpt lat="4.7220794297754764556884765625" lon="-74.1085789538919925689697265625">
        <ele>2595.800048828125</ele>
        <time>2021-04-25T18:01:45.000Z</time>
      </trkpt>
      <trkpt lat="4.72198714502155780792236328125" lon="-74.10858415067195892333984375">
        <ele>2595.199951171875</ele>
        <time>2021-04-25T18:03:38.000Z</time>
      </trkpt>
      <trkpt lat="4.7219708003103733062744140625" lon="-74.10857920534908771514892578125">
        <ele>2595.199951171875</ele>
        <time>2021-04-25T18:03:40.000Z</time>
      </trkpt>
      <trkpt lat="4.72196300514042377471923828125" lon="-74.1085762716829776763916015625">
        <ele>2595.39990234375</ele>
        <time>2021-04-25T18:03:41.000Z</time>
      </trkpt>
      <trkpt lat="4.72193970344960689544677734375" lon="-74.10856780596077442169189453125">
        <ele>2596</ele>
        <time>2021-04-25T18:03:44.000Z</time>
      </trkpt>
      <trkpt lat="4.7219069302082061767578125" lon="-74.10854995250701904296875">
        <ele>2596</ele>
        <time>2021-04-25T18:03:50.000Z</time>
      </trkpt>
      <trkpt lat="4.72188220359385013580322265625" lon="-74.10853779874742031097412109375">
        <ele>2596</ele>
        <time>2021-04-25T18:03:55.000Z</time>
      </trkpt>
      <trkpt lat="4.7218628413975238800048828125" lon="-74.10852874629199504852294921875">
        <ele>2596</ele>
        <time>2021-04-25T18:03:58.000Z</time>
      </trkpt>
      <trkpt lat="4.72181632183492183685302734375" lon="-74.10850846208631992340087890625">
        <ele>2596</ele>
        <time>2021-04-25T18:04:04.000Z</time>
      </trkpt>
      <trkpt lat="4.72176619805395603179931640625" lon="-74.1084884293377399444580078125">
        <ele>2596.199951171875</ele>
        <time>2021-04-25T18:04:10.000Z</time>
      </trkpt>
      <trkpt lat="4.7217334248125553131103515625" lon="-74.10847778432071208953857421875">
        <ele>2596.39990234375</ele>
        <time>2021-04-25T18:04:14.000Z</time>
      </trkpt>
      <trkpt lat="4.72169310785830020904541015625" lon="-74.1084595955908298492431640625">
        <ele>2596.39990234375</ele>
        <time>2021-04-25T18:04:20.000Z</time>
      </trkpt>
      <trkpt lat="4.7216536290943622589111328125" lon="-74.108445011079311370849609375">
        <ele>2596.39990234375</ele>
        <time>2021-04-25T18:04:26.000Z</time>
      </trkpt>
      <trkpt lat="4.72164114005863666534423828125" lon="-74.10843922756612300872802734375">
        <ele>2596.39990234375</ele>
        <time>2021-04-25T18:04:28.000Z</time>
      </trkpt>
      <trkpt lat="4.72163342870771884918212890625" lon="-74.10843134857714176177978515625">
        <ele>2596.60009765625</ele>
        <time>2021-04-25T18:04:29.000Z</time>
      </trkpt>
      <trkpt lat="4.72159554250538349151611328125" lon="-74.10838901996612548828125">
        <ele>2596.60009765625</ele>
        <time>2021-04-25T18:04:35.000Z</time>
      </trkpt>
      <trkpt lat="4.72155933268368244171142578125" lon="-74.1083489544689655303955078125">
        <ele>2596.60009765625</ele>
        <time>2021-04-25T18:04:40.000Z</time>
      </trkpt>
      <trkpt lat="4.7215466760098934173583984375" lon="-74.10834082402288913726806640625">
        <ele>2596.60009765625</ele>
        <time>2021-04-25T18:04:42.000Z</time>
      </trkpt>
      <trkpt lat="4.72150392830371856689453125" lon="-74.1083125770092010498046875">
        <ele>2596.39990234375</ele>
        <time>2021-04-25T18:04:48.000Z</time>
      </trkpt>
      <trkpt lat="4.72149278037250041961669921875" lon="-74.1083070449531078338623046875">
        <ele>2596.39990234375</ele>
        <time>2021-04-25T18:04:49.000Z</time>
      </trkpt>
      <trkpt lat="4.72146277315914630889892578125" lon="-74.10829170607030391693115234375">
        <ele>2596.800048828125</ele>
        <time>2021-04-25T18:04:52.000Z</time>
      </trkpt>
      <trkpt lat="4.72143695689737796783447265625" lon="-74.10827745683491230010986328125">
        <ele>2596.800048828125</ele>
        <time>2021-04-25T18:04:55.000Z</time>
      </trkpt>
      <trkpt lat="4.72138457000255584716796875" lon="-74.10825834609568119049072265625">
        <ele>2596.800048828125</ele>
        <time>2021-04-25T18:05:01.000Z</time>
      </trkpt>
      <trkpt lat="4.7213351167738437652587890625" lon="-74.1082396544516086578369140625">
        <ele>2596.800048828125</ele>
        <time>2021-04-25T18:05:07.000Z</time>
      </trkpt>
      <trkpt lat="4.72131072543561458587646484375" lon="-74.10822683013975620269775390625">
        <ele>2596.800048828125</ele>
        <time>2021-04-25T18:05:10.000Z</time>
      </trkpt>
      <trkpt lat="4.72128826193511486053466796875" lon="-74.10820771940052509307861328125">
        <ele>2597</ele>
        <time>2021-04-25T18:05:13.000Z</time>
      </trkpt>
      <trkpt lat="4.7212804667651653289794921875" lon="-74.10820193588733673095703125">
        <ele>2597</ele>
        <time>2021-04-25T18:05:14.000Z</time>
      </trkpt>
      <trkpt lat="4.721236042678356170654296875" lon="-74.10818156786262989044189453125">
        <ele>2597</ele>
        <time>2021-04-25T18:05:20.000Z</time>
      </trkpt>
      <trkpt lat="4.72121399827301502227783203125" lon="-74.108164049685001373291015625">
        <ele>2597</ele>
        <time>2021-04-25T18:05:23.000Z</time>
      </trkpt>
      <trkpt lat="4.72117133438587188720703125" lon="-74.10813756287097930908203125">
        <ele>2597.199951171875</ele>
        <time>2021-04-25T18:05:29.000Z</time>
      </trkpt>
      <trkpt lat="4.7211210429668426513671875" lon="-74.10809707827866077423095703125">
        <ele>2597.39990234375</ele>
        <time>2021-04-25T18:05:35.000Z</time>
      </trkpt>
      <trkpt lat="4.72111358307301998138427734375" lon="-74.1080901212990283966064453125">
        <ele>2597.39990234375</ele>
        <time>2021-04-25T18:05:36.000Z</time>
      </trkpt>
      <trkpt lat="4.72108407877385616302490234375" lon="-74.108075201511383056640625">
        <ele>2597.39990234375</ele>
        <time>2021-04-25T18:05:39.000Z</time>
      </trkpt>
      <trkpt lat="4.7210655547678470611572265625" lon="-74.10806137137115001678466796875">
        <ele>2597.39990234375</ele>
        <time>2021-04-25T18:05:41.000Z</time>
      </trkpt>
      <trkpt lat="4.72101769410073757171630859375" lon="-74.10802667029201984405517578125">
        <ele>2597.39990234375</ele>
        <time>2021-04-25T18:05:47.000Z</time>
      </trkpt>
      <trkpt lat="4.7209877707064151763916015625" lon="-74.10801107995212078094482421875">
        <ele>2597.39990234375</ele>
        <time>2021-04-25T18:05:51.000Z</time>
      </trkpt>
      <trkpt lat="4.72097964026033878326416015625" lon="-74.10800873301923274993896484375">
        <ele>2597.39990234375</ele>
        <time>2021-04-25T18:05:52.000Z</time>
      </trkpt>
      <trkpt lat="4.72096270881593227386474609375" lon="-74.107995741069316864013671875">
        <ele>2597.39990234375</ele>
        <time>2021-04-25T18:05:54.000Z</time>
      </trkpt>
      <trkpt lat="4.72094544209539890289306640625" lon="-74.10797889344394207000732421875">
        <ele>2597.199951171875</ele>
        <time>2021-04-25T18:05:56.000Z</time>
      </trkpt>
      <trkpt lat="4.72089548595249652862548828125" lon="-74.10795073024928569793701171875">
        <ele>2597.39990234375</ele>
        <time>2021-04-25T18:06:02.000Z</time>
      </trkpt>
      <trkpt lat="4.72087897360324859619140625" lon="-74.10794100724160671234130859375">
        <ele>2597.39990234375</ele>
        <time>2021-04-25T18:06:04.000Z</time>
      </trkpt>
      <trkpt lat="4.72086145542562007904052734375" lon="-74.10793145187199115753173828125">
        <ele>2597.39990234375</ele>
        <time>2021-04-25T18:06:06.000Z</time>
      </trkpt>
      <trkpt lat="4.7208083979785442352294921875" lon="-74.10789004527032375335693359375">
        <ele>2597.199951171875</ele>
        <time>2021-04-25T18:06:12.000Z</time>
      </trkpt>
      <trkpt lat="4.7207844257354736328125" lon="-74.10787160508334636688232421875">
        <ele>2597.199951171875</ele>
        <time>2021-04-25T18:06:15.000Z</time>
      </trkpt>
      <trkpt lat="4.72075802274048328399658203125" lon="-74.10786137916147708892822265625">
        <ele>2597.199951171875</ele>
        <time>2021-04-25T18:06:18.000Z</time>
      </trkpt>
      <trkpt lat="4.7207148559391498565673828125" lon="-74.10784360952675342559814453125">
        <ele>2597.39990234375</ele>
        <time>2021-04-25T18:06:24.000Z</time>
      </trkpt>
      <trkpt lat="4.72066129557788372039794921875" lon="-74.1078195534646511077880859375">
        <ele>2597.199951171875</ele>
        <time>2021-04-25T18:06:30.000Z</time>
      </trkpt>
      <trkpt lat="4.7206387482583522796630859375" lon="-74.10780555568635463714599609375">
        <ele>2597.199951171875</ele>
        <time>2021-04-25T18:06:33.000Z</time>
      </trkpt>
      <trkpt lat="4.72061343491077423095703125" lon="-74.10778678022325038909912109375">
        <ele>2597.199951171875</ele>
        <time>2021-04-25T18:06:37.000Z</time>
      </trkpt>
      <trkpt lat="4.7205659933388233184814453125" lon="-74.1077618859708309173583984375">
        <ele>2597.199951171875</ele>
        <time>2021-04-25T18:06:43.000Z</time>
      </trkpt>
      <trkpt lat="4.72051645629107952117919921875" lon="-74.107738249003887176513671875">
        <ele>2597.199951171875</ele>
        <time>2021-04-25T18:06:48.000Z</time>
      </trkpt>
      <trkpt lat="4.7204808332026004791259765625" lon="-74.107722826302051544189453125">
        <ele>2597.39990234375</ele>
        <time>2021-04-25T18:06:52.000Z</time>
      </trkpt>
      <trkpt lat="4.72044219262897968292236328125" lon="-74.10770229063928127288818359375">
        <ele>2597.199951171875</ele>
        <time>2021-04-25T18:06:56.000Z</time>
      </trkpt>
      <trkpt lat="4.720405228435993194580078125" lon="-74.10767982713878154754638671875">
        <ele>2597</ele>
        <time>2021-04-25T18:07:00.000Z</time>
      </trkpt>
      <trkpt lat="4.72038678824901580810546875" lon="-74.10767144523561000823974609375">
        <ele>2597.199951171875</ele>
        <time>2021-04-25T18:07:02.000Z</time>
      </trkpt>
      <trkpt lat="4.720378406345844268798828125" lon="-74.107667170464992523193359375">
        <ele>2597.199951171875</ele>
        <time>2021-04-25T18:07:03.000Z</time>
      </trkpt>
      <trkpt lat="4.7203614749014377593994140625" lon="-74.10765753127634525299072265625">
        <ele>2597.39990234375</ele>
        <time>2021-04-25T18:07:05.000Z</time>
      </trkpt>
      <trkpt lat="4.7203269414603710174560546875" lon="-74.10762836225330829620361328125">
        <ele>2597.199951171875</ele>
        <time>2021-04-25T18:07:10.000Z</time>
      </trkpt>
      <trkpt lat="4.72031160257756710052490234375" lon="-74.107615537941455841064453125">
        <ele>2597.199951171875</ele>
        <time>2021-04-25T18:07:12.000Z</time>
      </trkpt>
      <trkpt lat="4.72026801668107509613037109375" lon="-74.10759483464062213897705078125">
        <ele>2597.39990234375</ele>
        <time>2021-04-25T18:07:18.000Z</time>
      </trkpt>
      <trkpt lat="4.72022392787039279937744140625" lon="-74.107570946216583251953125">
        <ele>2597</ele>
        <time>2021-04-25T18:07:24.000Z</time>
      </trkpt>
      <trkpt lat="4.72020448185503482818603515625" lon="-74.10755711607635021209716796875">
        <ele>2597</ele>
        <time>2021-04-25T18:07:27.000Z</time>
      </trkpt>
      <trkpt lat="4.7201639972627162933349609375" lon="-74.10751688294112682342529296875">
        <ele>2597</ele>
        <time>2021-04-25T18:07:33.000Z</time>
      </trkpt>
      <trkpt lat="4.720116890966892242431640625" lon="-74.1074703633785247802734375">
        <ele>2597</ele>
        <time>2021-04-25T18:07:39.000Z</time>
      </trkpt>
      <trkpt lat="4.72007171250879764556884765625" lon="-74.10742954351007938385009765625">
        <ele>2597</ele>
        <time>2021-04-25T18:07:45.000Z</time>
      </trkpt>
      <trkpt lat="4.72005712799727916717529296875" lon="-74.10741847939789295196533203125">
        <ele>2597</ele>
        <time>2021-04-25T18:07:47.000Z</time>
      </trkpt>
      <trkpt lat="4.72004170529544353485107421875" lon="-74.10740674473345279693603515625">
        <ele>2597</ele>
        <time>2021-04-25T18:07:49.000Z</time>
      </trkpt>
      <trkpt lat="4.72003198228776454925537109375" lon="-74.1074028052389621734619140625">
        <ele>2597</ele>
        <time>2021-04-25T18:07:50.000Z</time>
      </trkpt>
      <trkpt lat="4.72002334892749786376953125" lon="-74.1073977760970592498779296875">
        <ele>2596.800048828125</ele>
        <time>2021-04-25T18:07:51.000Z</time>
      </trkpt>
      <trkpt lat="4.71997699700295925140380859375" lon="-74.10737045109272003173828125">
        <ele>2596.800048828125</ele>
        <time>2021-04-25T18:07:57.000Z</time>
      </trkpt>
      <trkpt lat="4.71993760205805301666259765625" lon="-74.1073471494019031524658203125">
        <ele>2596.800048828125</ele>
        <time>2021-04-25T18:08:02.000Z</time>
      </trkpt>
      <trkpt lat="4.71993056125938892364501953125" lon="-74.1073431260883808135986328125">
        <ele>2596.800048828125</ele>
        <time>2021-04-25T18:08:03.000Z</time>
      </trkpt>
      <trkpt lat="4.71988865174353122711181640625" lon="-74.10732560791075229644775390625">
        <ele>2597</ele>
        <time>2021-04-25T18:08:09.000Z</time>
      </trkpt>
      <trkpt lat="4.7198394499719142913818359375" lon="-74.1072992049157619476318359375">
        <ele>2597</ele>
        <time>2021-04-25T18:08:15.000Z</time>
      </trkpt>
      <trkpt lat="4.71982159651815891265869140625" lon="-74.10729208029806613922119140625">
        <ele>2597</ele>
        <time>2021-04-25T18:08:17.000Z</time>
      </trkpt>
      <trkpt lat="4.71978706307709217071533203125" lon="-74.1072549484670162200927734375">
        <ele>2597</ele>
        <time>2021-04-25T18:08:22.000Z</time>
      </trkpt>
      <trkpt lat="4.71974163316190242767333984375" lon="-74.10720591433346271514892578125">
        <ele>2597</ele>
        <time>2021-04-25T18:08:28.000Z</time>
      </trkpt>
      <trkpt lat="4.71972671337425708770751953125" lon="-74.10719267092645168304443359375">
        <ele>2597.199951171875</ele>
        <time>2021-04-25T18:08:30.000Z</time>
      </trkpt>
      <trkpt lat="4.719693772494792938232421875" lon="-74.10716350190341472625732421875">
        <ele>2597</ele>
        <time>2021-04-25T18:08:35.000Z</time>
      </trkpt>
      <trkpt lat="4.71964783966541290283203125" lon="-74.10713667981326580047607421875">
        <ele>2597</ele>
        <time>2021-04-25T18:08:41.000Z</time>
      </trkpt>
      <trkpt lat="4.71963954158127307891845703125" lon="-74.10713450051844120025634765625">
        <ele>2597.199951171875</ele>
        <time>2021-04-25T18:08:42.000Z</time>
      </trkpt>
      <trkpt lat="4.71959461458027362823486328125" lon="-74.107114635407924652099609375">
        <ele>2597.199951171875</ele>
        <time>2021-04-25T18:08:48.000Z</time>
      </trkpt>
      <trkpt lat="4.7195477597415447235107421875" lon="-74.10709057934582233428955078125">
        <ele>2597.60009765625</ele>
        <time>2021-04-25T18:08:54.000Z</time>
      </trkpt>
      <trkpt lat="4.71949989907443523406982421875" lon="-74.1070584766566753387451171875">
        <ele>2597.60009765625</ele>
        <time>2021-04-25T18:09:00.000Z</time>
      </trkpt>
      <trkpt lat="4.7194770164787769317626953125" lon="-74.1070470772683620452880859375">
        <ele>2597.60009765625</ele>
        <time>2021-04-25T18:09:03.000Z</time>
      </trkpt>
      <trkpt lat="4.71945614553987979888916015625" lon="-74.10703123547136783599853515625">
        <ele>2597.800048828125</ele>
        <time>2021-04-25T18:09:06.000Z</time>
      </trkpt>
      <trkpt lat="4.7194488532841205596923828125" lon="-74.10702620632946491241455078125">
        <ele>2597.800048828125</ele>
        <time>2021-04-25T18:09:07.000Z</time>
      </trkpt>
      <trkpt lat="4.7194227017462253570556640625" lon="-74.10699737258255481719970703125">
        <ele>2598</ele>
        <time>2021-04-25T18:09:12.000Z</time>
      </trkpt>
      <trkpt lat="4.7194337658584117889404296875" lon="-74.10697658546268939971923828125">
        <ele>2598</ele>
        <time>2021-04-25T18:09:18.000Z</time>
      </trkpt>
      <trkpt lat="4.7194232046604156494140625" lon="-74.10693786107003688812255859375">
        <ele>2598.199951171875</ele>
        <time>2021-04-25T18:09:24.000Z</time>
      </trkpt>
      <trkpt lat="4.7194193489849567413330078125" lon="-74.1069109551608562469482421875">
        <ele>2598.199951171875</ele>
        <time>2021-04-25T18:09:27.000Z</time>
      </trkpt>
      <trkpt lat="4.7194431535899639129638671875" lon="-74.10684867762029170989990234375">
        <ele>2598</ele>
        <time>2021-04-25T18:09:33.000Z</time>
      </trkpt>
      <trkpt lat="4.7194605879485607147216796875" lon="-74.1068150661885738372802734375">
        <ele>2598</ele>
        <time>2021-04-25T18:09:37.000Z</time>
      </trkpt>
      <trkpt lat="4.719483219087123870849609375" lon="-74.10675899125635623931884765625">
        <ele>2598.199951171875</ele>
        <time>2021-04-25T18:09:43.000Z</time>
      </trkpt>
      <trkpt lat="4.71948824822902679443359375" lon="-74.106751866638660430908203125">
        <ele>2598.199951171875</ele>
        <time>2021-04-25T18:09:44.000Z</time>
      </trkpt>
      <trkpt lat="4.71951775252819061279296875" lon="-74.10671004094183444976806640625">
        <ele>2598.39990234375</ele>
        <time>2021-04-25T18:09:50.000Z</time>
      </trkpt>
      <trkpt lat="4.71952957101166248321533203125" lon="-74.10669830627739429473876953125">
        <ele>2598.199951171875</ele>
        <time>2021-04-25T18:09:52.000Z</time>
      </trkpt>
      <trkpt lat="4.7195460833609104156494140625" lon="-74.1066846437752246856689453125">
        <ele>2598.199951171875</ele>
        <time>2021-04-25T18:09:56.000Z</time>
      </trkpt>
      <trkpt lat="4.71953577362000942230224609375" lon="-74.10666595213115215301513671875">
        <ele>2598.199951171875</ele>
        <time>2021-04-25T18:09:59.000Z</time>
      </trkpt>
      <trkpt lat="4.71953141503036022186279296875" lon="-74.10665589384734630584716796875">
        <ele>2598.60009765625</ele>
        <time>2021-04-25T18:10:01.000Z</time>
      </trkpt>
      <trkpt lat="4.71952990628778934478759765625" lon="-74.10664851777255535125732421875">
        <ele>2599</ele>
        <time>2021-04-25T18:10:02.000Z</time>
      </trkpt>
      <trkpt lat="4.719528816640377044677734375" lon="-74.10664399154484272003173828125">
        <ele>2599.199951171875</ele>
        <time>2021-04-25T18:10:03.000Z</time>
      </trkpt>
      <trkpt lat="4.719530828297138214111328125" lon="-74.10663896240293979644775390625">
        <ele>2599.60009765625</ele>
        <time>2021-04-25T18:10:09.000Z</time>
      </trkpt>
      <trkpt lat="4.71952068619430065155029296875" lon="-74.106633178889751434326171875">
        <ele>2600.199951171875</ele>
        <time>2021-04-25T18:10:15.000Z</time>
      </trkpt>
      <trkpt lat="4.71951817162334918975830078125" lon="-74.10662990994751453399658203125">
        <ele>2600.199951171875</ele>
        <time>2021-04-25T18:10:16.000Z</time>
      </trkpt>
      <trkpt lat="4.71950970590114593505859375" lon="-74.1066242940723896026611328125">
        <ele>2601</ele>
        <time>2021-04-25T18:10:22.000Z</time>
      </trkpt>
      <trkpt lat="4.7195175848901271820068359375" lon="-74.10662320442497730255126953125">
        <ele>2601.39990234375</ele>
        <time>2021-04-25T18:10:24.000Z</time>
      </trkpt>
      <trkpt lat="4.71952554769814014434814453125" lon="-74.1066256351768970489501953125">
        <ele>2602</ele>
        <time>2021-04-25T18:10:26.000Z</time>
      </trkpt>
      <trkpt lat="4.7195276431739330291748046875" lon="-74.10662035457789897918701171875">
        <ele>2602.39990234375</ele>
        <time>2021-04-25T18:10:29.000Z</time>
      </trkpt>
      <trkpt lat="4.71952487714588642120361328125" lon="-74.10661800764501094818115234375">
        <ele>2602.60009765625</ele>
        <time>2021-04-25T18:10:30.000Z</time>
      </trkpt>
      <trkpt lat="4.719516746699810028076171875" lon="-74.1066155768930912017822265625">
        <ele>2603</ele>
        <time>2021-04-25T18:10:36.000Z</time>
      </trkpt>
      <trkpt lat="4.71953057684004306793212890625" lon="-74.10662303678691387176513671875">
        <ele>2603.60009765625</ele>
        <time>2021-04-25T18:10:41.000Z</time>
      </trkpt>
      <trkpt lat="4.71953208558261394500732421875" lon="-74.10662353970110416412353515625">
        <ele>2603.800048828125</ele>
        <time>2021-04-25T18:10:42.000Z</time>
      </trkpt>
      <trkpt lat="4.71953258849680423736572265625" lon="-74.10663309507071971893310546875">
        <ele>2604.60009765625</ele>
        <time>2021-04-25T18:10:45.000Z</time>
      </trkpt>
      <trkpt lat="4.719528146088123321533203125" lon="-74.10663493908941745758056640625">
        <ele>2599.60009765625</ele>
        <time>2021-04-25T18:10:46.000Z</time>
      </trkpt>
      <trkpt lat="4.71952923573553562164306640625" lon="-74.1066353581845760345458984375">
        <ele>2599.199951171875</ele>
        <time>2021-04-25T18:10:48.000Z</time>
      </trkpt>
      <trkpt lat="4.71951632760465145111083984375" lon="-74.10662655718624591827392578125">
        <ele>2600</ele>
        <time>2021-04-25T18:10:51.000Z</time>
      </trkpt>
      <trkpt lat="4.71949503757059574127197265625" lon="-74.1065931133925914764404296875">
        <ele>2600</ele>
        <time>2021-04-25T18:10:55.000Z</time>
      </trkpt>
      <trkpt lat="4.7194931097328662872314453125" lon="-74.10659185610711574554443359375">
        <ele>2600.199951171875</ele>
        <time>2021-04-25T18:10:56.000Z</time>
      </trkpt>
      <trkpt lat="4.7194924391806125640869140625" lon="-74.1065941192209720611572265625">
        <ele>2600.60009765625</ele>
        <time>2021-04-25T18:11:00.000Z</time>
      </trkpt>
      <trkpt lat="4.71948958933353424072265625" lon="-74.10659554414451122283935546875">
        <ele>2600.800048828125</ele>
        <time>2021-04-25T18:11:01.000Z</time>
      </trkpt>
      <trkpt lat="4.71949168480932712554931640625" lon="-74.106594286859035491943359375">
        <ele>2601</ele>
        <time>2021-04-25T18:11:03.000Z</time>
      </trkpt>
      <trkpt lat="4.71950224600732326507568359375" lon="-74.10659487359225749969482421875">
        <ele>2601.199951171875</ele>
        <time>2021-04-25T18:11:07.000Z</time>
      </trkpt>
      <trkpt lat="4.71951180137693881988525390625" lon="-74.1065957956016063690185546875">
        <ele>2601.199951171875</ele>
        <time>2021-04-25T18:11:08.000Z</time>
      </trkpt>
      <trkpt lat="4.71950945444405078887939453125" lon="-74.10658582113683223724365234375">
        <ele>2601.60009765625</ele>
        <time>2021-04-25T18:11:11.000Z</time>
      </trkpt>
      <trkpt lat="4.7195117175579071044921875" lon="-74.1065874136984348297119140625">
        <ele>2601.800048828125</ele>
        <time>2021-04-25T18:11:12.000Z</time>
      </trkpt>
      <trkpt lat="4.7195135615766048431396484375" lon="-74.10659738816320896148681640625">
        <ele>2603.199951171875</ele>
        <time>2021-04-25T18:11:20.000Z</time>
      </trkpt>
      <trkpt lat="4.71951305866241455078125" lon="-74.1065974719822406768798828125">
        <ele>2601.800048828125</ele>
        <time>2021-04-25T18:11:21.000Z</time>
      </trkpt>
      <trkpt lat="4.71951213665306568145751953125" lon="-74.10659956745803356170654296875">
        <ele>2601.800048828125</ele>
        <time>2021-04-25T18:11:23.000Z</time>
      </trkpt>
    </trkseg>
  </trk>
</gpx>
